Darstellungsparameter: Aktuell verwendete Einstellungen:
Skalierung der Graphiken ... ?
xyx+y,   Skalierungsfaktor:      Skalierung: Modus: x, Faktor: 1
Darstellungszeitraum ... ?
Vom - - bis: - -   Zeitraum: 04.09.2014 - 10.09.2014
Min/Max/Avg-Anzeige ... ?
Zeige MMA aktuell
Zeige MMA Monat
Zeige MMA alles
Zeige --A aktuell
Zeige --A Monat
Zeige --A alles
Keine MMA-Anzeige
MMA:
Keine MMA-Graphiken
MMA-Basis: 04.09.2014 - 10.09.2014
Quicknavigation für Darstellung... ?
Tage:      1T, 2T, 3T, 5T -1T -2T -3T -5T +1T +2T +3T +5T
Wochen: 1W, 2W, 3W -1W -2W -3W +1W +2W +3W
Monate: 1M, 3M, 6M -1M -3M -6M +1M +3M +6M
Jahre:    1J, 3J, 5J, 10J -1J -3J -5J -10J +1J +3J +5J +10J
Nutze für die Darstellung ... ?
Originaldaten oder Mittelwerte auf ...
Stundenbasis Tagesbasis Wochenbasis
Monatsbasis Jahresbasis      Datenbasis: Original-Daten
Darstellen als:
Statistik (Auto) Statistik J:M      Darstellung:
Zur Graphik,    zurück zur Übersicht aller Sensoren.
 
Tabellarische Datenbersicht: ?
 
Sensor: Nr:Datum:Temp:Abs-Feuchte:Windchill:Wind:
Aussen-T/F 1 04-09-2014 00:00:00 15.1 C 12 g/m*3 15.1 C 0 km/h
2 04-09-2014 00:05:00 15.1 C 12.13 g/m*3 15.1 C 0 km/h
3 04-09-2014 00:10:00 15.1 C 12.13 g/m*3 15.1 C 0 km/h
4 04-09-2014 00:15:00 15.1 C 12.13 g/m*3 15.1 C 0 km/h
5 04-09-2014 00:20:00 15.1 C 12.13 g/m*3 15.1 C 0 km/h
6 04-09-2014 00:25:00 15 C 11.93 g/m*3 15 C 0 km/h
7 04-09-2014 00:30:00 15 C 11.93 g/m*3 15 C 0 km/h
8 04-09-2014 00:35:00 15 C 11.93 g/m*3 15 C 0 km/h
9 04-09-2014 00:40:00 14.9 C 11.85 g/m*3 14.9 C 0 km/h
10 04-09-2014 00:45:00 14.9 C 11.85 g/m*3 14.9 C 0 km/h
11 04-09-2014 00:50:00 14.8 C 11.65 g/m*3 14.8 C 0 km/h
12 04-09-2014 00:55:00 14.7 C 11.58 g/m*3 14.7 C 0 km/h
13 04-09-2014 01:00:00 14.7 C 11.58 g/m*3 14.7 C 0 km/h
14 04-09-2014 01:05:00 14.7 C 11.71 g/m*3 14.7 C 0 km/h
15 04-09-2014 01:10:00 14.6 C 11.64 g/m*3 14.6 C 0 km/h
16 04-09-2014 01:15:00 14.6 C 11.51 g/m*3 14.6 C 0 km/h
17 04-09-2014 01:20:00 14.6 C 11.64 g/m*3 14.6 C 0 km/h
18 04-09-2014 01:25:00 14.5 C 11.57 g/m*3 14.5 C 0 km/h
19 04-09-2014 01:30:00 14.5 C 11.57 g/m*3 14.5 C 0 km/h
20 04-09-2014 01:35:00 14.5 C 11.57 g/m*3 14.5 C 0 km/h
21 04-09-2014 01:40:00 14.6 C 11.64 g/m*3 14.6 C 0 km/h
22 04-09-2014 01:45:00 14.5 C 11.57 g/m*3 14.5 C 0 km/h
23 04-09-2014 01:50:00 14.5 C 11.57 g/m*3 14.5 C 0 km/h
24 04-09-2014 01:55:00 14.5 C 11.69 g/m*3 14.5 C 0 km/h
25 04-09-2014 02:00:00 14.5 C 11.69 g/m*3 14.5 C 0 km/h
Sensor: Nr:Datum:Temp:Abs-Feuchte:Windchill:Wind:
Aussen-T/F 26 04-09-2014 02:05:00 14.4 C 11.62 g/m*3 14.4 C 0 km/h
27 04-09-2014 02:10:00 14.4 C 11.62 g/m*3 14.4 C 0 km/h
28 04-09-2014 02:15:00 14.4 C 11.62 g/m*3 14.4 C 0 km/h
29 04-09-2014 02:20:00 14.4 C 11.62 g/m*3 14.4 C 0 km/h
30 04-09-2014 02:25:00 14.4 C 11.62 g/m*3 14.4 C 0 km/h
31 04-09-2014 02:30:00 14.3 C 11.55 g/m*3 14.3 C 0 km/h
32 04-09-2014 02:35:00 14.3 C 11.55 g/m*3 14.3 C 0 km/h
33 04-09-2014 02:40:00 14.2 C 11.48 g/m*3 14.2 C 0 km/h
34 04-09-2014 02:45:00 14.1 C 11.41 g/m*3 14.1 C 0 km/h
35 04-09-2014 02:50:00 13.9 C 11.15 g/m*3 13.9 C 0 km/h
36 04-09-2014 02:55:00 13.8 C 11.2 g/m*3 13.8 C 0 km/h
37 04-09-2014 03:00:00 13.7 C 11.13 g/m*3 13.7 C 0 km/h
38 04-09-2014 03:05:00 13.7 C 11.13 g/m*3 13.7 C 0 km/h
39 04-09-2014 03:10:00 13.6 C 11.06 g/m*3 13.6 C 0 km/h
40 04-09-2014 03:15:00 13.6 C 11.06 g/m*3 13.6 C 0 km/h
41 04-09-2014 03:20:00 13.4 C 10.93 g/m*3 13.4 C 0 km/h
42 04-09-2014 03:25:00 13.4 C 10.93 g/m*3 13.4 C 0 km/h
43 04-09-2014 03:30:00 13.4 C 11.04 g/m*3 13.4 C 0 km/h
44 04-09-2014 03:35:00 13.4 C 11.04 g/m*3 13.4 C 0 km/h
45 04-09-2014 03:40:00 13.3 C 10.98 g/m*3 13.3 C 0 km/h
46 04-09-2014 03:45:00 13.3 C 10.98 g/m*3 13.3 C 0 km/h
47 04-09-2014 03:50:00 13.3 C 10.98 g/m*3 13.3 C 0 km/h
48 04-09-2014 03:55:00 13.3 C 10.98 g/m*3 13.3 C 0 km/h
49 04-09-2014 04:00:00 13.3 C 11.09 g/m*3 13.3 C 0 km/h
50 04-09-2014 04:05:00 13.3 C 11.09 g/m*3 13.3 C 0 km/h
Sensor: Nr:Datum:Temp:Abs-Feuchte:Windchill:Wind:
Aussen-T/F 51 04-09-2014 04:10:00 13.3 C 11.09 g/m*3 13.3 C 0 km/h
52 04-09-2014 04:15:00 13.3 C 11.09 g/m*3 13.3 C 0 km/h
53 04-09-2014 04:20:00 13.3 C 11.09 g/m*3 13.3 C 0 km/h
54 04-09-2014 04:25:00 13.4 C 11.16 g/m*3 13.4 C 0 km/h
55 04-09-2014 04:30:00 13.3 C 11.09 g/m*3 13.3 C 0 km/h
56 04-09-2014 04:35:00 13.3 C 11.09 g/m*3 13.3 C 0 km/h
57 04-09-2014 04:40:00 13.4 C 11.16 g/m*3 13.4 C 0 km/h
58 04-09-2014 04:45:00 13.4 C 11.16 g/m*3 13.4 C 0 km/h
59 04-09-2014 04:50:00 13.4 C 11.16 g/m*3 13.4 C 0 km/h
60 04-09-2014 04:55:00 13.4 C 11.16 g/m*3 13.4 C 0 km/h
61 04-09-2014 05:00:00 13.5 C 11.23 g/m*3 13.5 C 0 km/h
62 04-09-2014 05:05:00 13.6 C 11.3 g/m*3 13.6 C 0 km/h
63 04-09-2014 05:10:00 13.6 C 11.3 g/m*3 13.6 C 0 km/h
64 04-09-2014 05:15:00 13.6 C 11.3 g/m*3 13.6 C 0 km/h
65 04-09-2014 05:20:00 13.6 C 11.3 g/m*3 13.6 C 0 km/h
66 04-09-2014 05:25:00 13.6 C 11.3 g/m*3 13.6 C 0 km/h
67 04-09-2014 05:30:00 13.6 C 11.3 g/m*3 13.6 C 0 km/h
68 04-09-2014 05:35:00 13.6 C 11.3 g/m*3 13.6 C 0 km/h
69 04-09-2014 05:40:00 13.7 C 11.37 g/m*3 13.7 C 0 km/h
70 04-09-2014 05:45:00 13.7 C 11.37 g/m*3 13.7 C 0 km/h
71 04-09-2014 05:50:00 13.8 C 11.56 g/m*3 13.8 C 0 km/h
72 04-09-2014 05:55:00 13.8 C 11.56 g/m*3 13.8 C 0 km/h
73 04-09-2014 06:00:00 13.8 C 11.44 g/m*3 13.8 C 0 km/h
74 04-09-2014 06:05:00 13.8 C 11.44 g/m*3 13.8 C 0 km/h
75 04-09-2014 06:10:00 13.8 C 11.44 g/m*3 13.8 C 0 km/h
Sensor: Nr:Datum:Temp:Abs-Feuchte:Windchill:Wind:
Aussen-T/F 76 04-09-2014 06:15:00 13.7 C 11.37 g/m*3 13.7 C 0 km/h
77 04-09-2014 06:20:00 13.8 C 11.44 g/m*3 13.8 C 0 km/h
78 04-09-2014 06:25:00 13.8 C 11.44 g/m*3 13.8 C 0 km/h
79 04-09-2014 06:30:00 13.9 C 11.51 g/m*3 13.9 C 0 km/h
80 04-09-2014 06:35:00 13.9 C 11.51 g/m*3 13.9 C 0 km/h
81 04-09-2014 06:40:00 13.9 C 11.51 g/m*3 13.9 C 0 km/h
82 04-09-2014 06:45:00 14 C 11.58 g/m*3 14 C 0 km/h
83 04-09-2014 06:50:00 14.1 C 11.65 g/m*3 14.1 C 0 km/h
84 04-09-2014 06:55:00 14.1 C 11.65 g/m*3 14.1 C 0 km/h
85 04-09-2014 07:00:00 14.1 C 11.65 g/m*3 14.1 C 0 km/h
86 04-09-2014 07:05:00 14.1 C 11.65 g/m*3 14.1 C 0 km/h
87 04-09-2014 07:10:00 14.1 C 11.77 g/m*3 14.1 C 0 km/h
88 04-09-2014 07:15:00 14.2 C 11.84 g/m*3 14.2 C 0 km/h
89 04-09-2014 07:20:00 14.3 C 11.92 g/m*3 14.3 C 0 km/h
90 04-09-2014 07:25:00 14.3 C 11.92 g/m*3 14.3 C 0 km/h
91 04-09-2014 07:30:00 14.3 C 11.79 g/m*3 14.3 C 0 km/h
92 04-09-2014 07:35:00 14.3 C 11.79 g/m*3 14.3 C 0 km/h
93 04-09-2014 07:40:00 14.4 C 11.99 g/m*3 14.4 C 0 km/h
94 04-09-2014 07:45:00 14.5 C 12.06 g/m*3 14.5 C 0 km/h
95 04-09-2014 07:50:00 14.6 C 12.14 g/m*3 14.6 C 0 km/h
96 04-09-2014 07:55:00 14.6 C 12.14 g/m*3 14.6 C 0 km/h
97 04-09-2014 08:00:00 14.7 C 12.21 g/m*3 14.7 C 0 km/h
98 04-09-2014 08:05:00 14.8 C 12.29 g/m*3 14.8 C 0 km/h
99 04-09-2014 08:10:00 14.8 C 12.16 g/m*3 14.8 C 0 km/h
100 04-09-2014 08:15:00 14.8 C 12.16 g/m*3 14.8 C 0 km/h
Sensor: Nr:Datum:Temp:Abs-Feuchte:Windchill:Wind:
Aussen-T/F 101 04-09-2014 08:20:00 14.9 C 12.24 g/m*3 14.9 C 0 km/h
102 04-09-2014 08:25:00 14.9 C 12.24 g/m*3 14.9 C 0 km/h
103 04-09-2014 08:30:00 15 C 12.31 g/m*3 15 C 0 km/h
104 04-09-2014 08:35:00 15.1 C 12.39 g/m*3 15.1 C 0 km/h
105 04-09-2014 08:40:00 15.2 C 12.46 g/m*3 15.2 C 0 km/h
106 04-09-2014 08:45:00 15.3 C 12.54 g/m*3 15.3 C 0 km/h
107 04-09-2014 08:50:00 15.3 C 12.54 g/m*3 15.3 C 0 km/h
108 04-09-2014 08:55:00 15.4 C 12.48 g/m*3 15.4 C 0 km/h
109 04-09-2014 09:00:00 15.4 C 12.61 g/m*3 15.4 C 0 km/h
110 04-09-2014 09:05:00 15.6 C 12.63 g/m*3 15.6 C 0 km/h
111 04-09-2014 09:10:00 15.7 C 12.71 g/m*3 15.7 C 0 km/h
112 04-09-2014 09:15:00 15.7 C 12.71 g/m*3 15.7 C 0 km/h
113 04-09-2014 09:20:00 15.8 C 12.79 g/m*3 15.8 C 0 km/h
114 04-09-2014 09:25:00 15.9 C 12.73 g/m*3 15.9 C 0 km/h
115 04-09-2014 09:30:00 16.1 C 12.88 g/m*3 16.1 C 0 km/h
116 04-09-2014 09:35:00 16.2 C 12.82 g/m*3 16.2 C 0 km/h
117 04-09-2014 09:40:00 16.3 C 12.9 g/m*3 16.3 C 0 km/h
118 04-09-2014 09:45:00 16.4 C 12.84 g/m*3 16.4 C 0 km/h
119 04-09-2014 09:50:00 16.7 C 12.93 g/m*3 16.7 C 0 km/h
120 04-09-2014 09:55:00 16.9 C 13.09 g/m*3 16.9 C 0 km/h
121 04-09-2014 10:00:00 17.1 C 13.1 g/m*3 17.1 C 0 km/h
122 04-09-2014 10:05:00 17.3 C 13.11 g/m*3 17.3 C 0 km/h
123 04-09-2014 10:10:00 17.4 C 13.04 g/m*3 17.4 C 0 km/h
124 04-09-2014 10:15:00 17.7 C 13.13 g/m*3 17.7 C 0 km/h
125 04-09-2014 10:20:00 17.9 C 13.13 g/m*3 17.9 C 0 km/h
Sensor: Nr:Datum:Temp:Abs-Feuchte:Windchill:Wind:
Aussen-T/F 126 04-09-2014 10:25:00 18.1 C 13.29 g/m*3 18.1 C 0 km/h
127 04-09-2014 10:30:00 18.2 C 13.21 g/m*3 18.2 C 0 km/h
128 04-09-2014 10:35:00 18.4 C 13.05 g/m*3 18.4 C 0 km/h
129 04-09-2014 10:40:00 18.5 C 13.45 g/m*3 18.5 C 0 km/h
130 04-09-2014 10:45:00 18.6 C 13.21 g/m*3 18.6 C 0 km/h
131 04-09-2014 10:50:00 18.7 C 13.13 g/m*3 18.7 C 0 km/h
132 04-09-2014 10:55:00 18.9 C 13.45 g/m*3 18.9 C 0 km/h
133 04-09-2014 11:00:00 19.1 C 13.44 g/m*3 19.1 C 0 km/h
134 04-09-2014 11:05:00 19.2 C 13.36 g/m*3 19.2 C 0 km/h
135 04-09-2014 11:10:00 19.3 C 13.27 g/m*3 19.3 C 8.1 km/h
136 04-09-2014 11:15:00 19.3 C 13.1 g/m*3 19.3 C 9.7 km/h
137 04-09-2014 11:20:00 19.3 C 12.94 g/m*3 19.3 C 3.2 km/h
138 04-09-2014 11:25:00 19.3 C 13.1 g/m*3 19.3 C 0 km/h
139 04-09-2014 11:30:00 19.3 C 13.1 g/m*3 19.3 C 9.7 km/h
140 04-09-2014 11:35:00 19.3 C 12.94 g/m*3 19.3 C 6.4 km/h
141 04-09-2014 11:40:00 19.4 C 13.18 g/m*3 19.4 C 6.4 km/h
142 04-09-2014 11:45:00 19.7 C 13.25 g/m*3 19.7 C 8.1 km/h
143 04-09-2014 11:50:00 19.7 C 13.08 g/m*3 19.7 C 9.7 km/h
144 04-09-2014 11:55:00 19.7 C 13.08 g/m*3 19.7 C 11.3 km/h
145 04-09-2014 12:00:00 19.8 C 13.15 g/m*3 19.8 C 8.1 km/h
146 04-09-2014 12:05:00 19.7 C 13.25 g/m*3 19.7 C 8.1 km/h
147 04-09-2014 12:10:00 19.7 C 13.25 g/m*3 19.7 C 6.4 km/h
148 04-09-2014 12:15:00 19.8 C 13.32 g/m*3 19.8 C 6.4 km/h
149 04-09-2014 12:20:00 19.8 C 13.32 g/m*3 19.8 C 6.4 km/h
150 04-09-2014 12:25:00 19.9 C 13.4 g/m*3 19.9 C 8.1 km/h
Sensor: Nr:Datum:Temp:Abs-Feuchte:Windchill:Wind:
Aussen-T/F 151 04-09-2014 12:30:00 19.9 C 13.57 g/m*3 19.9 C 8.1 km/h
152 04-09-2014 12:35:00 19.9 C 13.06 g/m*3 19.9 C 8.1 km/h
153 04-09-2014 12:40:00 19.9 C 13.23 g/m*3 19.9 C 9.7 km/h
154 04-09-2014 12:45:00 19.8 C 13.32 g/m*3 19.8 C 6.4 km/h
155 04-09-2014 12:50:00 19.8 C 13.15 g/m*3 19.8 C 12.9 km/h
156 04-09-2014 12:55:00 19.8 C 13.15 g/m*3 19.8 C 12.9 km/h
157 04-09-2014 13:00:00 19.9 C 13.23 g/m*3 19.9 C 9.7 km/h
158 04-09-2014 13:05:00 19.8 C 12.98 g/m*3 19.8 C 12.9 km/h
159 04-09-2014 13:10:00 19.7 C 13.08 g/m*3 19.7 C 9.7 km/h
160 04-09-2014 13:15:00 19.6 C 13 g/m*3 19.6 C 6.4 km/h
161 04-09-2014 13:20:00 19.6 C 13.17 g/m*3 19.6 C 6.4 km/h
162 04-09-2014 13:25:00 19.6 C 13 g/m*3 19.6 C 6.4 km/h
163 04-09-2014 13:30:00 19.7 C 13.25 g/m*3 19.7 C 9.7 km/h
164 04-09-2014 13:35:00 19.7 C 13.25 g/m*3 19.7 C 8.1 km/h
165 04-09-2014 13:40:00 19.6 C 13.34 g/m*3 19.6 C 3.2 km/h
166 04-09-2014 13:45:00 19.6 C 13.34 g/m*3 19.6 C 4.8 km/h
167 04-09-2014 13:50:00 19.5 C 13.09 g/m*3 19.5 C 4.8 km/h
168 04-09-2014 13:55:00 19.5 C 13.43 g/m*3 19.5 C 0 km/h
169 04-09-2014 14:00:00 19.5 C 13.26 g/m*3 19.5 C 8.1 km/h
170 04-09-2014 14:05:00 19.6 C 13.34 g/m*3 19.6 C 8.1 km/h
171 04-09-2014 14:10:00 19.8 C 13.32 g/m*3 19.8 C 9.7 km/h
172 04-09-2014 14:15:00 19.8 C 13.32 g/m*3 19.8 C 9.7 km/h
173 04-09-2014 14:20:00 19.9 C 13.4 g/m*3 19.9 C 8.1 km/h
174 04-09-2014 14:25:00 20.1 C 13.56 g/m*3 20.1 C 11.3 km/h
175 04-09-2014 14:30:00 20.2 C 13.64 g/m*3 20.2 C 8.1 km/h
Sensor: Nr:Datum:Temp:Abs-Feuchte:Windchill:Wind:
Aussen-T/F 176 04-09-2014 14:35:00 20.2 C 13.46 g/m*3 20.2 C 6.4 km/h
177 04-09-2014 14:40:00 20.2 C 13.64 g/m*3 20.2 C 8.1 km/h
178 04-09-2014 14:45:00 20.3 C 13.72 g/m*3 20.3 C 8.1 km/h
179 04-09-2014 14:50:00 20.4 C 13.62 g/m*3 20.4 C 6.4 km/h
180 04-09-2014 14:55:00 20.3 C 13.54 g/m*3 20.3 C 6.4 km/h
181 04-09-2014 15:00:00 20.2 C 13.64 g/m*3 20.2 C 6.4 km/h
182 04-09-2014 15:05:00 20.2 C 13.64 g/m*3 20.2 C 6.4 km/h
183 04-09-2014 15:10:00 20.2 C 13.46 g/m*3 20.2 C 6.4 km/h
184 04-09-2014 15:15:00 20.2 C 13.64 g/m*3 20.2 C 0 km/h
185 04-09-2014 15:20:00 20.1 C 13.39 g/m*3 20.1 C 11.3 km/h
186 04-09-2014 15:25:00 20.1 C 13.56 g/m*3 20.1 C 0 km/h
187 04-09-2014 15:30:00 20.1 C 13.39 g/m*3 20.1 C 0 km/h
188 04-09-2014 15:35:00 20.1 C 13.73 g/m*3 20.1 C 4.8 km/h
189 04-09-2014 15:40:00 20.2 C 13.64 g/m*3 20.2 C 0 km/h
190 04-09-2014 15:45:00 20.1 C 13.39 g/m*3 20.1 C 4.8 km/h
191 04-09-2014 15:50:00 20.1 C 13.39 g/m*3 20.1 C 8.1 km/h
192 04-09-2014 15:55:00 20.1 C 13.21 g/m*3 20.1 C 9.7 km/h
193 04-09-2014 16:00:00 20.1 C 13.56 g/m*3 20.1 C 0 km/h
194 04-09-2014 16:05:00 19.9 C 13.57 g/m*3 19.9 C 6.4 km/h
195 04-09-2014 16:10:00 19.9 C 13.23 g/m*3 19.9 C 8.1 km/h
196 04-09-2014 16:15:00 19.9 C 13.4 g/m*3 19.9 C 0 km/h
197 04-09-2014 16:20:00 19.9 C 13.57 g/m*3 19.9 C 0 km/h
198 04-09-2014 16:25:00 19.8 C 13.32 g/m*3 19.8 C 0 km/h
199 04-09-2014 16:30:00 19.7 C 13.75 g/m*3 19.7 C 0 km/h
200 04-09-2014 16:35:00 19.4 C 13.51 g/m*3 19.4 C 0 km/h
Sensor: Nr:Datum:Temp:Abs-Feuchte:Windchill:Wind:
Aussen-T/F 201 04-09-2014 16:40:00 19.3 C 13.6 g/m*3 19.3 C 0 km/h
202 04-09-2014 16:45:00 19.3 C 13.27 g/m*3 19.3 C 8.1 km/h
203 04-09-2014 16:50:00 19.4 C 13.35 g/m*3 19.4 C 0 km/h
204 04-09-2014 16:55:00 19.6 C 13.67 g/m*3 19.6 C 4.8 km/h
205 04-09-2014 17:00:00 19.7 C 14.09 g/m*3 19.7 C 0 km/h
206 04-09-2014 17:05:00 19.4 C 14.18 g/m*3 19.4 C 0 km/h
207 04-09-2014 17:10:00 19.2 C 14.18 g/m*3 19.2 C 0 km/h
208 04-09-2014 17:15:00 19 C 14.18 g/m*3 19 C 0 km/h
209 04-09-2014 17:20:00 18.9 C 13.45 g/m*3 18.9 C 0 km/h
210 04-09-2014 17:25:00 19.2 C 13.85 g/m*3 19.2 C 0 km/h
211 04-09-2014 17:30:00 19.3 C 14.1 g/m*3 19.3 C 0 km/h
212 04-09-2014 17:35:00 19.2 C 14.18 g/m*3 19.2 C 0 km/h
213 04-09-2014 17:40:00 18.9 C 14.09 g/m*3 18.9 C 0 km/h
214 04-09-2014 17:45:00 18.7 C 14.09 g/m*3 18.7 C 0 km/h
215 04-09-2014 17:50:00 18.6 C 14.17 g/m*3 18.6 C 0 km/h
216 04-09-2014 17:55:00 18.5 C 14.08 g/m*3 18.5 C 0 km/h
217 04-09-2014 18:00:00 18.4 C 14.16 g/m*3 18.4 C 0 km/h
218 04-09-2014 18:05:00 18.3 C 14.07 g/m*3 18.3 C 0 km/h
219 04-09-2014 18:10:00 18.2 C 13.99 g/m*3 18.2 C 0 km/h
220 04-09-2014 18:15:00 18 C 13.98 g/m*3 18 C 0 km/h
221 04-09-2014 18:20:00 18 C 13.98 g/m*3 18 C 0 km/h
222 04-09-2014 18:25:00 17.9 C 13.89 g/m*3 17.9 C 0 km/h
223 04-09-2014 18:30:00 17.8 C 13.96 g/m*3 17.8 C 0 km/h
224 04-09-2014 18:35:00 17.8 C 13.96 g/m*3 17.8 C 0 km/h
225 04-09-2014 18:40:00 17.7 C 13.88 g/m*3 17.7 C 0 km/h
Sensor: Nr:Datum:Temp:Abs-Feuchte:Windchill:Wind:
Aussen-T/F 226 04-09-2014 18:45:00 17.7 C 13.88 g/m*3 17.7 C 0 km/h
227 04-09-2014 18:50:00 17.6 C 13.8 g/m*3 17.6 C 0 km/h
228 04-09-2014 18:55:00 17.5 C 13.72 g/m*3 17.5 C 0 km/h
229 04-09-2014 19:00:00 17.5 C 13.87 g/m*3 17.5 C 0 km/h
230 04-09-2014 19:05:00 17.4 C 13.78 g/m*3 17.4 C 0 km/h
231 04-09-2014 19:10:00 17.4 C 13.78 g/m*3 17.4 C 0 km/h
232 04-09-2014 19:15:00 17.4 C 13.78 g/m*3 17.4 C 0 km/h
233 04-09-2014 19:20:00 17.3 C 13.7 g/m*3 17.3 C 0 km/h
234 04-09-2014 19:25:00 17.3 C 13.7 g/m*3 17.3 C 0 km/h
235 04-09-2014 19:30:00 17.3 C 13.7 g/m*3 17.3 C 0 km/h
236 04-09-2014 19:35:00 17.3 C 13.7 g/m*3 17.3 C 0 km/h
237 04-09-2014 19:40:00 17.2 C 13.62 g/m*3 17.2 C 0 km/h
238 04-09-2014 19:45:00 17.2 C 13.62 g/m*3 17.2 C 0 km/h
239 04-09-2014 19:50:00 17.2 C 13.62 g/m*3 17.2 C 0 km/h
240 04-09-2014 19:55:00 17.2 C 13.62 g/m*3 17.2 C 0 km/h
241 04-09-2014 20:00:00 17.2 C 13.62 g/m*3 17.2 C 0 km/h
242 04-09-2014 20:05:00 17.2 C 13.62 g/m*3 17.2 C 0 km/h
243 04-09-2014 20:10:00 17.1 C 13.54 g/m*3 17.1 C 0 km/h
244 04-09-2014 20:15:00 17.1 C 13.68 g/m*3 17.1 C 0 km/h
245 04-09-2014 20:20:00 17.1 C 13.68 g/m*3 17.1 C 0 km/h
246 04-09-2014 20:25:00 17.1 C 13.68 g/m*3 17.1 C 0 km/h
247 04-09-2014 20:30:00 17 C 13.6 g/m*3 17 C 0 km/h
248 04-09-2014 20:35:00 17 C 13.6 g/m*3 17 C 0 km/h
249 04-09-2014 20:40:00 17 C 13.6 g/m*3 17 C 0 km/h
250 04-09-2014 20:45:00 16.9 C 13.52 g/m*3 16.9 C 0 km/h
Sensor: Nr:Datum:Temp:Abs-Feuchte:Windchill:Wind:
Aussen-T/F 251 04-09-2014 20:50:00 16.9 C 13.52 g/m*3 16.9 C 0 km/h
252 04-09-2014 20:55:00 16.9 C 13.52 g/m*3 16.9 C 0 km/h
253 04-09-2014 21:00:00 16.9 C 13.52 g/m*3 16.9 C 0 km/h
254 04-09-2014 21:05:00 16.9 C 13.52 g/m*3 16.9 C 0 km/h
255 04-09-2014 21:10:00 16.9 C 13.52 g/m*3 16.9 C 0 km/h
256 04-09-2014 21:15:00 16.9 C 13.52 g/m*3 16.9 C 0 km/h
257 04-09-2014 21:20:00 16.9 C 13.66 g/m*3 16.9 C 0 km/h
258 04-09-2014 21:25:00 16.9 C 13.66 g/m*3 16.9 C 0 km/h
259 04-09-2014 21:30:00 16.8 C 13.58 g/m*3 16.8 C 0 km/h
260 04-09-2014 21:35:00 16.8 C 13.58 g/m*3 16.8 C 0 km/h
261 04-09-2014 21:40:00 16.8 C 13.58 g/m*3 16.8 C 0 km/h
262 04-09-2014 21:45:00 16.8 C 13.58 g/m*3 16.8 C 0 km/h
263 04-09-2014 21:50:00 16.8 C 13.58 g/m*3 16.8 C 0 km/h
264 04-09-2014 21:55:00 16.8 C 13.58 g/m*3 16.8 C 0 km/h
265 04-09-2014 22:00:00 16.8 C 13.58 g/m*3 16.8 C 0 km/h
266 04-09-2014 22:05:00 16.8 C 13.58 g/m*3 16.8 C 0 km/h
267 04-09-2014 22:10:00 16.8 C 13.58 g/m*3 16.8 C 0 km/h
268 04-09-2014 22:15:00 16.8 C 13.58 g/m*3 16.8 C 0 km/h
269 04-09-2014 22:20:00 16.8 C 13.58 g/m*3 16.8 C 0 km/h
270 04-09-2014 22:25:00 16.8 C 13.58 g/m*3 16.8 C 0 km/h
271 04-09-2014 22:30:00 16.8 C 13.58 g/m*3 16.8 C 0 km/h
272 04-09-2014 22:35:00 16.8 C 13.58 g/m*3 16.8 C 0 km/h
273 04-09-2014 22:40:00 16.8 C 13.58 g/m*3 16.8 C 0 km/h
274 04-09-2014 22:45:00 16.8 C 13.58 g/m*3 16.8 C 0 km/h
275 04-09-2014 22:50:00 16.8 C 13.58 g/m*3 16.8 C 0 km/h
Sensor: Nr:Datum:Temp:Abs-Feuchte:Windchill:Wind:
Aussen-T/F 276 04-09-2014 22:55:00 16.8 C 13.58 g/m*3 16.8 C 0 km/h
277 04-09-2014 23:00:00 16.8 C 13.58 g/m*3 16.8 C 0 km/h
278 04-09-2014 23:05:00 16.8 C 13.58 g/m*3 16.8 C 0 km/h
279 04-09-2014 23:10:00 16.7 C 13.5 g/m*3 16.7 C 0 km/h
280 04-09-2014 23:15:00 16.7 C 13.5 g/m*3 16.7 C 0 km/h
281 04-09-2014 23:20:00 16.7 C 13.5 g/m*3 16.7 C 0 km/h
282 04-09-2014 23:25:00 16.6 C 13.42 g/m*3 16.6 C 0 km/h
283 04-09-2014 23:30:00 16.4 C 13.26 g/m*3 16.4 C 0 km/h
284 04-09-2014 23:35:00 16.4 C 13.26 g/m*3 16.4 C 0 km/h
285 04-09-2014 23:40:00 16.3 C 13.18 g/m*3 16.3 C 0 km/h
286 04-09-2014 23:45:00 16.3 C 13.18 g/m*3 16.3 C 0 km/h
287 04-09-2014 23:50:00 16.3 C 13.18 g/m*3 16.3 C 0 km/h
288 04-09-2014 23:55:00 16.3 C 13.18 g/m*3 16.3 C 0 km/h
289 05-09-2014 00:00:00 16.2 C 13.24 g/m*3 16.2 C 0 km/h
290 05-09-2014 00:05:00 16.2 C 13.24 g/m*3 16.2 C 0 km/h
291 05-09-2014 00:10:00 16.1 C 13.02 g/m*3 16.1 C 0 km/h
292 05-09-2014 00:15:00 16.1 C 13.16 g/m*3 16.1 C 0 km/h
293 05-09-2014 00:20:00 16.1 C 13.16 g/m*3 16.1 C 0 km/h
294 05-09-2014 00:25:00 16.1 C 13.16 g/m*3 16.1 C 0 km/h
295 05-09-2014 00:30:00 16.1 C 13.16 g/m*3 16.1 C 0 km/h
296 05-09-2014 00:35:00 16.1 C 13.16 g/m*3 16.1 C 0 km/h
297 05-09-2014 00:40:00 15.9 C 13 g/m*3 15.9 C 0 km/h
298 05-09-2014 00:45:00 15.8 C 12.92 g/m*3 15.8 C 0 km/h
299 05-09-2014 00:50:00 15.8 C 12.92 g/m*3 15.8 C 0 km/h
300 05-09-2014 00:55:00 15.7 C 12.84 g/m*3 15.7 C 0 km/h
Sensor: Nr:Datum:Temp:Abs-Feuchte:Windchill:Wind:
Aussen-T/F 301 05-09-2014 01:00:00 15.7 C 12.84 g/m*3 15.7 C 0 km/h
302 05-09-2014 01:05:00 15.6 C 12.77 g/m*3 15.6 C 0 km/h
303 05-09-2014 01:10:00 15.6 C 12.77 g/m*3 15.6 C 0 km/h
304 05-09-2014 01:15:00 15.6 C 12.77 g/m*3 15.6 C 0 km/h
305 05-09-2014 01:20:00 15.6 C 12.77 g/m*3 15.6 C 0 km/h
306 05-09-2014 01:25:00 15.7 C 12.98 g/m*3 15.7 C 0 km/h
307 05-09-2014 01:30:00 15.7 C 12.98 g/m*3 15.7 C 0 km/h
308 05-09-2014 01:35:00 15.7 C 12.98 g/m*3 15.7 C 0 km/h
309 05-09-2014 01:40:00 15.8 C 13.06 g/m*3 15.8 C 0 km/h
310 05-09-2014 01:45:00 15.8 C 13.06 g/m*3 15.8 C 0 km/h
311 05-09-2014 01:50:00 15.8 C 13.06 g/m*3 15.8 C 0 km/h
312 05-09-2014 01:55:00 15.8 C 13.06 g/m*3 15.8 C 0 km/h
313 05-09-2014 02:00:00 15.8 C 13.06 g/m*3 15.8 C 0 km/h
314 05-09-2014 02:05:00 15.8 C 13.06 g/m*3 15.8 C 0 km/h
315 05-09-2014 02:10:00 15.9 C 13.14 g/m*3 15.9 C 0 km/h
316 05-09-2014 02:15:00 15.9 C 13.14 g/m*3 15.9 C 0 km/h
317 05-09-2014 02:20:00 15.9 C 13.14 g/m*3 15.9 C 0 km/h
318 05-09-2014 02:25:00 15.9 C 13.14 g/m*3 15.9 C 0 km/h
319 05-09-2014 02:30:00 15.9 C 13.14 g/m*3 15.9 C 0 km/h
320 05-09-2014 02:35:00 15.9 C 13.14 g/m*3 15.9 C 0 km/h
321 05-09-2014 02:40:00 15.9 C 13.14 g/m*3 15.9 C 0 km/h
322 05-09-2014 02:45:00 15.9 C 13.14 g/m*3 15.9 C 0 km/h
323 05-09-2014 02:50:00 15.9 C 13.14 g/m*3 15.9 C 0 km/h
324 05-09-2014 02:55:00 15.9 C 13.14 g/m*3 15.9 C 0 km/h
325 05-09-2014 03:00:00 15.9 C 13.14 g/m*3 15.9 C 0 km/h
Sensor: Nr:Datum:Temp:Abs-Feuchte:Windchill:Wind:
Aussen-T/F 326 05-09-2014 03:05:00 15.9 C 13.14 g/m*3 15.9 C 0 km/h
327 05-09-2014 03:10:00 15.9 C 13.14 g/m*3 15.9 C 0 km/h
328 05-09-2014 03:15:00 15.9 C 13.14 g/m*3 15.9 C 0 km/h
329 05-09-2014 03:20:00 16 C 13.22 g/m*3 16 C 0 km/h
330 05-09-2014 03:25:00 16 C 13.22 g/m*3 16 C 0 km/h
331 05-09-2014 03:30:00 16 C 13.22 g/m*3 16 C 0 km/h
332 05-09-2014 03:35:00 16.1 C 13.3 g/m*3 16.1 C 0 km/h
333 05-09-2014 03:40:00 16.1 C 13.3 g/m*3 16.1 C 0 km/h
334 05-09-2014 03:45:00 16.1 C 13.3 g/m*3 16.1 C 0 km/h
335 05-09-2014 03:50:00 16.1 C 13.3 g/m*3 16.1 C 0 km/h
336 05-09-2014 03:55:00 16 C 13.22 g/m*3 16 C 0 km/h
337 05-09-2014 04:00:00 16 C 13.22 g/m*3 16 C 0 km/h
338 05-09-2014 04:05:00 16 C 13.22 g/m*3 16 C 0 km/h
339 05-09-2014 04:10:00 15.9 C 13.14 g/m*3 15.9 C 0 km/h
340 05-09-2014 04:15:00 15.9 C 13.14 g/m*3 15.9 C 0 km/h
341 05-09-2014 04:20:00 16 C 13.22 g/m*3 16 C 0 km/h
342 05-09-2014 04:25:00 16 C 13.22 g/m*3 16 C 0 km/h
343 05-09-2014 04:30:00 15.9 C 13.14 g/m*3 15.9 C 0 km/h
344 05-09-2014 04:35:00 15.9 C 13.14 g/m*3 15.9 C 0 km/h
345 05-09-2014 04:40:00 15.9 C 13.14 g/m*3 15.9 C 0 km/h
346 05-09-2014 04:45:00 15.9 C 13.14 g/m*3 15.9 C 0 km/h
347 05-09-2014 04:50:00 15.9 C 13.14 g/m*3 15.9 C 0 km/h
348 05-09-2014 04:55:00 15.9 C 13.14 g/m*3 15.9 C 0 km/h
349 05-09-2014 05:00:00 15.9 C 13.14 g/m*3 15.9 C 0 km/h
350 05-09-2014 05:05:00 15.9 C 13.14 g/m*3 15.9 C 0 km/h
Sensor: Nr:Datum:Temp:Abs-Feuchte:Windchill:Wind:
Aussen-T/F 351 05-09-2014 05:10:00 15.9 C 13.14 g/m*3 15.9 C 0 km/h
352 05-09-2014 05:15:00 15.9 C 13.14 g/m*3 15.9 C 0 km/h
353 05-09-2014 05:20:00 15.9 C 13.14 g/m*3 15.9 C 0 km/h
354 05-09-2014 05:25:00 15.9 C 13.14 g/m*3 15.9 C 0 km/h
355 05-09-2014 05:30:00 15.9 C 13.14 g/m*3 15.9 C 0 km/h
356 05-09-2014 05:35:00 15.9 C 13.14 g/m*3 15.9 C 0 km/h
357 05-09-2014 05:40:00 15.9 C 13.14 g/m*3 15.9 C 0 km/h
358 05-09-2014 05:45:00 15.9 C 13.14 g/m*3 15.9 C 0 km/h
359 05-09-2014 05:50:00 15.8 C 13.06 g/m*3 15.8 C 0 km/h
360 05-09-2014 05:55:00 15.8 C 13.06 g/m*3 15.8 C 0 km/h
361 05-09-2014 06:00:00 15.8 C 13.06 g/m*3 15.8 C 0 km/h
362 05-09-2014 06:05:00 15.7 C 12.98 g/m*3 15.7 C 0 km/h
363 05-09-2014 06:10:00 15.7 C 12.98 g/m*3 15.7 C 0 km/h
364 05-09-2014 06:15:00 15.7 C 12.98 g/m*3 15.7 C 0 km/h
365 05-09-2014 06:20:00 15.7 C 12.98 g/m*3 15.7 C 0 km/h
366 05-09-2014 06:25:00 15.7 C 12.98 g/m*3 15.7 C 0 km/h
367 05-09-2014 06:30:00 15.7 C 12.98 g/m*3 15.7 C 0 km/h
368 05-09-2014 06:35:00 15.7 C 12.98 g/m*3 15.7 C 0 km/h
369 05-09-2014 06:40:00 15.7 C 12.98 g/m*3 15.7 C 0 km/h
370 05-09-2014 06:45:00 15.7 C 12.98 g/m*3 15.7 C 0 km/h
371 05-09-2014 06:50:00 15.7 C 12.98 g/m*3 15.7 C 0 km/h
372 05-09-2014 06:55:00 15.7 C 12.98 g/m*3 15.7 C 0 km/h
373 05-09-2014 07:00:00 15.7 C 12.98 g/m*3 15.7 C 0 km/h
374 05-09-2014 07:05:00 15.6 C 12.9 g/m*3 15.6 C 0 km/h
375 05-09-2014 07:10:00 15.6 C 12.9 g/m*3 15.6 C 0 km/h
Sensor: Nr:Datum:Temp:Abs-Feuchte:Windchill:Wind:
Aussen-T/F 376 05-09-2014 07:15:00 15.6 C 12.9 g/m*3 15.6 C 0 km/h
377 05-09-2014 07:20:00 15.7 C 12.98 g/m*3 15.7 C 0 km/h
378 05-09-2014 07:25:00 15.7 C 12.98 g/m*3 15.7 C 0 km/h
379 05-09-2014 07:30:00 15.7 C 12.98 g/m*3 15.7 C 0 km/h
380 05-09-2014 07:35:00 15.7 C 12.98 g/m*3 15.7 C 0 km/h
381 05-09-2014 07:40:00 15.8 C 13.06 g/m*3 15.8 C 0 km/h
382 05-09-2014 07:45:00 15.8 C 13.06 g/m*3 15.8 C 0 km/h
383 05-09-2014 07:50:00 15.8 C 13.06 g/m*3 15.8 C 0 km/h
384 05-09-2014 07:55:00 15.8 C 13.06 g/m*3 15.8 C 0 km/h
385 05-09-2014 08:00:00 15.9 C 13.14 g/m*3 15.9 C 0 km/h
386 05-09-2014 08:05:00 15.9 C 13.27 g/m*3 15.9 C 0 km/h
387 05-09-2014 08:10:00 16 C 13.35 g/m*3 16 C 0 km/h
388 05-09-2014 08:15:00 16 C 13.35 g/m*3 16 C 0 km/h
389 05-09-2014 08:20:00 16.1 C 13.43 g/m*3 16.1 C 0 km/h
390 05-09-2014 08:25:00 16.1 C 13.43 g/m*3 16.1 C 0 km/h
391 05-09-2014 08:30:00 16.1 C 13.43 g/m*3 16.1 C 0 km/h
392 05-09-2014 08:35:00 16.2 C 13.38 g/m*3 16.2 C 0 km/h
393 05-09-2014 08:40:00 16.2 C 13.38 g/m*3 16.2 C 0 km/h
394 05-09-2014 08:45:00 16.3 C 13.46 g/m*3 16.3 C 0 km/h
395 05-09-2014 08:50:00 16.3 C 13.46 g/m*3 16.3 C 0 km/h
396 05-09-2014 08:55:00 16.3 C 13.46 g/m*3 16.3 C 0 km/h
397 05-09-2014 09:00:00 16.3 C 13.46 g/m*3 16.3 C 0 km/h
398 05-09-2014 09:05:00 16.4 C 13.54 g/m*3 16.4 C 0 km/h
399 05-09-2014 09:10:00 16.4 C 13.54 g/m*3 16.4 C 0 km/h
400 05-09-2014 09:15:00 16.5 C 13.62 g/m*3 16.5 C 0 km/h
Sensor: Nr:Datum:Temp:Abs-Feuchte:Windchill:Wind:
Aussen-T/F 401 05-09-2014 09:20:00 16.6 C 13.7 g/m*3 16.6 C 0 km/h
402 05-09-2014 09:25:00 16.7 C 13.79 g/m*3 16.7 C 0 km/h
403 05-09-2014 09:30:00 16.8 C 13.87 g/m*3 16.8 C 0 km/h
404 05-09-2014 09:35:00 16.8 C 13.73 g/m*3 16.8 C 0 km/h
405 05-09-2014 09:40:00 16.8 C 13.73 g/m*3 16.8 C 0 km/h
406 05-09-2014 09:45:00 16.9 C 13.81 g/m*3 16.9 C 0 km/h
407 05-09-2014 09:50:00 17 C 13.75 g/m*3 17 C 0 km/h
408 05-09-2014 09:55:00 17.2 C 14.06 g/m*3 17.2 C 0 km/h
409 05-09-2014 10:00:00 17.4 C 14.08 g/m*3 17.4 C 0 km/h
410 05-09-2014 10:05:00 17.5 C 14.01 g/m*3 17.5 C 0 km/h
411 05-09-2014 10:10:00 17.6 C 13.95 g/m*3 17.6 C 0 km/h
412 05-09-2014 10:15:00 17.7 C 14.03 g/m*3 17.7 C 0 km/h
413 05-09-2014 10:20:00 17.8 C 13.96 g/m*3 17.8 C 0 km/h
414 05-09-2014 10:25:00 17.9 C 14.05 g/m*3 17.9 C 0 km/h
415 05-09-2014 10:30:00 18.1 C 14.06 g/m*3 18.1 C 0 km/h
416 05-09-2014 10:35:00 18.2 C 14.14 g/m*3 18.2 C 0 km/h
417 05-09-2014 10:40:00 18.3 C 14.23 g/m*3 18.3 C 0 km/h
418 05-09-2014 10:45:00 18.4 C 14.31 g/m*3 18.4 C 0 km/h
419 05-09-2014 10:50:00 18.6 C 14.32 g/m*3 18.6 C 0 km/h
420 05-09-2014 10:55:00 18.8 C 14.33 g/m*3 18.8 C 0 km/h
421 05-09-2014 11:00:00 18.9 C 14.26 g/m*3 18.9 C 0 km/h
422 05-09-2014 11:05:00 19 C 14.5 g/m*3 19 C 0 km/h
423 05-09-2014 11:10:00 19.2 C 14.51 g/m*3 19.2 C 0 km/h
424 05-09-2014 11:15:00 19.4 C 14.85 g/m*3 19.4 C 0 km/h
425 05-09-2014 11:20:00 19.5 C 14.6 g/m*3 19.5 C 0 km/h
Sensor: Nr:Datum:Temp:Abs-Feuchte:Windchill:Wind:
Aussen-T/F 426 05-09-2014 11:25:00 19.6 C 14.86 g/m*3 19.6 C 0 km/h
427 05-09-2014 11:30:00 19.6 C 14.86 g/m*3 19.6 C 0 km/h
428 05-09-2014 11:35:00 19.6 C 14.69 g/m*3 19.6 C 0 km/h
429 05-09-2014 11:40:00 19.7 C 14.77 g/m*3 19.7 C 0 km/h
430 05-09-2014 11:45:00 19.7 C 14.94 g/m*3 19.7 C 0 km/h
431 05-09-2014 11:50:00 19.8 C 14.86 g/m*3 19.8 C 0 km/h
432 05-09-2014 11:55:00 19.8 C 14.52 g/m*3 19.8 C 0 km/h
433 05-09-2014 12:00:00 19.9 C 14.6 g/m*3 19.9 C 0 km/h
434 05-09-2014 12:05:00 20 C 15.04 g/m*3 20 C 0 km/h
435 05-09-2014 12:10:00 20.1 C 14.95 g/m*3 20.1 C 0 km/h
436 05-09-2014 12:15:00 20.1 C 14.6 g/m*3 20.1 C 0 km/h
437 05-09-2014 12:20:00 20.2 C 14.69 g/m*3 20.2 C 0 km/h
438 05-09-2014 12:25:00 20.2 C 14.86 g/m*3 20.2 C 0 km/h
439 05-09-2014 12:30:00 20.3 C 15.13 g/m*3 20.3 C 0 km/h
440 05-09-2014 12:35:00 20.4 C 15.04 g/m*3 20.4 C 0 km/h
441 05-09-2014 12:40:00 20.4 C 15.21 g/m*3 20.4 C 0 km/h
442 05-09-2014 12:45:00 20.3 C 15.3 g/m*3 20.3 C 0 km/h
443 05-09-2014 12:50:00 20.3 C 15.3 g/m*3 20.3 C 0 km/h
444 05-09-2014 12:55:00 20.6 C 15.57 g/m*3 20.6 C 0 km/h
445 05-09-2014 13:00:00 20.9 C 15.66 g/m*3 20.9 C 0 km/h
446 05-09-2014 13:05:00 21.3 C 16.03 g/m*3 21.3 C 0 km/h
447 05-09-2014 13:10:00 21.8 C 15.54 g/m*3 21.8 C 0 km/h
448 05-09-2014 13:15:00 22.2 C 16.1 g/m*3 22.2 C 0 km/h
449 05-09-2014 13:20:00 22.6 C 15.67 g/m*3 22.6 C 0 km/h
450 05-09-2014 13:25:00 22.8 C 16.46 g/m*3 22.8 C 0 km/h
Sensor: Nr:Datum:Temp:Abs-Feuchte:Windchill:Wind:
Aussen-T/F 451 05-09-2014 13:30:00 22.8 C 16.05 g/m*3 22.8 C 0 km/h
452 05-09-2014 13:35:00 22.9 C 16.14 g/m*3 22.9 C 0 km/h
453 05-09-2014 13:40:00 23 C 15.21 g/m*3 23 C 0 km/h
454 05-09-2014 13:45:00 23.2 C 16.84 g/m*3 23.2 C 0 km/h
455 05-09-2014 13:50:00 23.1 C 16.54 g/m*3 23.1 C 0 km/h
456 05-09-2014 13:55:00 22.9 C 16.35 g/m*3 22.9 C 0 km/h
457 05-09-2014 14:00:00 22.9 C 16.76 g/m*3 22.9 C 0 km/h
458 05-09-2014 14:05:00 22.9 C 16.76 g/m*3 22.9 C 0 km/h
459 05-09-2014 14:10:00 23 C 16.85 g/m*3 23 C 0 km/h
460 05-09-2014 14:15:00 22.9 C 16.55 g/m*3 22.9 C 0 km/h
461 05-09-2014 14:20:00 22.7 C 16.37 g/m*3 22.7 C 0 km/h
462 05-09-2014 14:25:00 22.5 C 16.58 g/m*3 22.5 C 0 km/h
463 05-09-2014 14:30:00 22.4 C 16.28 g/m*3 22.4 C 0 km/h
464 05-09-2014 14:35:00 22.5 C 15.98 g/m*3 22.5 C 0 km/h
465 05-09-2014 14:40:00 22.4 C 16.48 g/m*3 22.4 C 0 km/h
466 05-09-2014 14:45:00 22.4 C 16.48 g/m*3 22.4 C 0 km/h
467 05-09-2014 14:50:00 22.4 C 16.28 g/m*3 22.4 C 0 km/h
468 05-09-2014 14:55:00 22.4 C 16.09 g/m*3 22.4 C 0 km/h
469 05-09-2014 15:00:00 22.3 C 16.19 g/m*3 22.3 C 0 km/h
470 05-09-2014 15:05:00 22.2 C 16.1 g/m*3 22.2 C 0 km/h
471 05-09-2014 15:10:00 22.1 C 15.81 g/m*3 22.1 C 0 km/h
472 05-09-2014 15:15:00 22.2 C 15.9 g/m*3 22.2 C 0 km/h
473 05-09-2014 15:20:00 22.2 C 15.9 g/m*3 22.2 C 0 km/h
474 05-09-2014 15:25:00 22.3 C 15.8 g/m*3 22.3 C 0 km/h
475 05-09-2014 15:30:00 22.4 C 15.89 g/m*3 22.4 C 0 km/h
Sensor: Nr:Datum:Temp:Abs-Feuchte:Windchill:Wind:
Aussen-T/F 476 05-09-2014 15:35:00 22.3 C 15.99 g/m*3 22.3 C 0 km/h
477 05-09-2014 15:40:00 22.3 C 15.99 g/m*3 22.3 C 0 km/h
478 05-09-2014 15:45:00 22.3 C 15.6 g/m*3 22.3 C 0 km/h
479 05-09-2014 15:50:00 22.3 C 15.8 g/m*3 22.3 C 0 km/h
480 05-09-2014 15:55:00 22.2 C 15.9 g/m*3 22.2 C 0 km/h
481 05-09-2014 16:00:00 22.2 C 15.9 g/m*3 22.2 C 0 km/h
482 05-09-2014 16:05:00 22.2 C 15.9 g/m*3 22.2 C 0 km/h
483 05-09-2014 16:10:00 22.1 C 15.81 g/m*3 22.1 C 0 km/h
484 05-09-2014 16:15:00 22 C 15.72 g/m*3 22 C 0 km/h
485 05-09-2014 16:20:00 22.1 C 16.01 g/m*3 22.1 C 0 km/h
486 05-09-2014 16:25:00 22.1 C 16.01 g/m*3 22.1 C 0 km/h
487 05-09-2014 16:30:00 22.1 C 16.2 g/m*3 22.1 C 0 km/h
488 05-09-2014 16:35:00 22.1 C 16.2 g/m*3 22.1 C 0 km/h
489 05-09-2014 16:40:00 22.2 C 16.1 g/m*3 22.2 C 0 km/h
490 05-09-2014 16:45:00 22.3 C 16.39 g/m*3 22.3 C 0 km/h
491 05-09-2014 16:50:00 22.3 C 16.39 g/m*3 22.3 C 0 km/h
492 05-09-2014 16:55:00 22.1 C 16.2 g/m*3 22.1 C 0 km/h
493 05-09-2014 17:00:00 21.9 C 16.21 g/m*3 21.9 C 0 km/h
494 05-09-2014 17:05:00 21.7 C 16.02 g/m*3 21.7 C 0 km/h
495 05-09-2014 17:10:00 21.6 C 16.12 g/m*3 21.6 C 0 km/h
496 05-09-2014 17:15:00 21.7 C 16.21 g/m*3 21.7 C 0 km/h
497 05-09-2014 17:20:00 21.8 C 16.31 g/m*3 21.8 C 0 km/h
498 05-09-2014 17:25:00 21.8 C 16.12 g/m*3 21.8 C 0 km/h
499 05-09-2014 17:30:00 21.9 C 16.21 g/m*3 21.9 C 0 km/h
500 05-09-2014 17:35:00 21.9 C 16.21 g/m*3 21.9 C 0 km/h
Sensor: Nr:Datum:Temp:Abs-Feuchte:Windchill:Wind:
Aussen-T/F 501 05-09-2014 17:40:00 21.7 C 16.02 g/m*3 21.7 C 0 km/h
502 05-09-2014 17:45:00 21.5 C 16.03 g/m*3 21.5 C 0 km/h
503 05-09-2014 17:50:00 21.3 C 15.84 g/m*3 21.3 C 0 km/h
504 05-09-2014 17:55:00 21.1 C 15.85 g/m*3 21.1 C 0 km/h
505 05-09-2014 18:00:00 20.8 C 15.57 g/m*3 20.8 C 0 km/h
506 05-09-2014 18:05:00 20.7 C 15.66 g/m*3 20.7 C 0 km/h
507 05-09-2014 18:10:00 20.6 C 15.57 g/m*3 20.6 C 0 km/h
508 05-09-2014 18:15:00 20.4 C 15.39 g/m*3 20.4 C 0 km/h
509 05-09-2014 18:20:00 20.4 C 15.57 g/m*3 20.4 C 0 km/h
510 05-09-2014 18:25:00 20.5 C 15.66 g/m*3 20.5 C 0 km/h
511 05-09-2014 18:30:00 20.5 C 15.66 g/m*3 20.5 C 0 km/h
512 05-09-2014 18:35:00 20.4 C 15.39 g/m*3 20.4 C 0 km/h
513 05-09-2014 18:40:00 20.2 C 15.21 g/m*3 20.2 C 0 km/h
514 05-09-2014 18:45:00 20.1 C 15.3 g/m*3 20.1 C 0 km/h
515 05-09-2014 18:50:00 19.8 C 15.2 g/m*3 19.8 C 0 km/h
516 05-09-2014 18:55:00 19.6 C 15.02 g/m*3 19.6 C 0 km/h
517 05-09-2014 19:00:00 19.4 C 14.85 g/m*3 19.4 C 0 km/h
518 05-09-2014 19:05:00 19.3 C 14.93 g/m*3 19.3 C 0 km/h
519 05-09-2014 19:10:00 19.2 C 14.84 g/m*3 19.2 C 0 km/h
520 05-09-2014 19:15:00 19.1 C 14.75 g/m*3 19.1 C 0 km/h
521 05-09-2014 19:20:00 19.1 C 14.75 g/m*3 19.1 C 0 km/h
522 05-09-2014 19:25:00 19 C 14.67 g/m*3 19 C 0 km/h
523 05-09-2014 19:30:00 18.9 C 14.58 g/m*3 18.9 C 0 km/h
524 05-09-2014 19:35:00 18.8 C 14.66 g/m*3 18.8 C 0 km/h
525 05-09-2014 19:40:00 18.8 C 14.66 g/m*3 18.8 C 0 km/h
Sensor: Nr:Datum:Temp:Abs-Feuchte:Windchill:Wind:
Aussen-T/F 526 05-09-2014 19:45:00 18.8 C 14.49 g/m*3 18.8 C 0 km/h
527 05-09-2014 19:50:00 18.8 C 14.49 g/m*3 18.8 C 0 km/h
528 05-09-2014 19:55:00 18.7 C 14.41 g/m*3 18.7 C 0 km/h
529 05-09-2014 20:00:00 18.6 C 14.32 g/m*3 18.6 C 0 km/h
530 05-09-2014 20:05:00 18.4 C 14.16 g/m*3 18.4 C 0 km/h
531 05-09-2014 20:10:00 18.4 C 14.31 g/m*3 18.4 C 0 km/h
532 05-09-2014 20:15:00 18.3 C 14.23 g/m*3 18.3 C 0 km/h
533 05-09-2014 20:20:00 18.2 C 14.14 g/m*3 18.2 C 0 km/h
534 05-09-2014 20:25:00 18.2 C 14.14 g/m*3 18.2 C 0 km/h
535 05-09-2014 20:30:00 18.1 C 14.21 g/m*3 18.1 C 0 km/h
536 05-09-2014 20:35:00 18 C 14.13 g/m*3 18 C 0 km/h
537 05-09-2014 20:40:00 17.9 C 14.05 g/m*3 17.9 C 0 km/h
538 05-09-2014 20:45:00 17.8 C 13.96 g/m*3 17.8 C 0 km/h
539 05-09-2014 20:50:00 17.8 C 13.96 g/m*3 17.8 C 0 km/h
540 05-09-2014 20:55:00 17.8 C 13.96 g/m*3 17.8 C 0 km/h
541 05-09-2014 21:00:00 17.7 C 13.88 g/m*3 17.7 C 0 km/h
542 05-09-2014 21:05:00 17.6 C 13.8 g/m*3 17.6 C 0 km/h
543 05-09-2014 21:10:00 17.6 C 13.8 g/m*3 17.6 C 0 km/h
544 05-09-2014 21:15:00 17.5 C 13.72 g/m*3 17.5 C 0 km/h
545 05-09-2014 21:20:00 17.4 C 13.63 g/m*3 17.4 C 0 km/h
546 05-09-2014 21:25:00 17.3 C 13.55 g/m*3 17.3 C 0 km/h
547 05-09-2014 21:30:00 17.3 C 13.7 g/m*3 17.3 C 0 km/h
548 05-09-2014 21:35:00 17.2 C 13.62 g/m*3 17.2 C 0 km/h
549 05-09-2014 21:40:00 17.1 C 13.39 g/m*3 17.1 C 0 km/h
550 05-09-2014 21:45:00 17 C 13.46 g/m*3 17 C 0 km/h
Sensor: Nr:Datum:Temp:Abs-Feuchte:Windchill:Wind:
Aussen-T/F 551 05-09-2014 21:50:00 16.9 C 13.38 g/m*3 16.9 C 0 km/h
552 05-09-2014 21:55:00 16.9 C 13.38 g/m*3 16.9 C 0 km/h
553 05-09-2014 22:00:00 16.8 C 13.3 g/m*3 16.8 C 0 km/h
554 05-09-2014 22:05:00 16.8 C 13.3 g/m*3 16.8 C 0 km/h
555 05-09-2014 22:10:00 16.7 C 13.22 g/m*3 16.7 C 0 km/h
556 05-09-2014 22:15:00 16.7 C 13.22 g/m*3 16.7 C 0 km/h
557 05-09-2014 22:20:00 16.6 C 13.14 g/m*3 16.6 C 0 km/h
558 05-09-2014 22:25:00 16.6 C 13.28 g/m*3 16.6 C 0 km/h
559 05-09-2014 22:30:00 16.6 C 13.28 g/m*3 16.6 C 0 km/h
560 05-09-2014 22:35:00 16.5 C 13.2 g/m*3 16.5 C 0 km/h
561 05-09-2014 22:40:00 16.4 C 13.12 g/m*3 16.4 C 0 km/h
562 05-09-2014 22:45:00 16.4 C 13.12 g/m*3 16.4 C 0 km/h
563 05-09-2014 22:50:00 16.4 C 13.12 g/m*3 16.4 C 0 km/h
564 05-09-2014 22:55:00 16.3 C 13.04 g/m*3 16.3 C 0 km/h
565 05-09-2014 23:00:00 16.2 C 12.96 g/m*3 16.2 C 0 km/h
566 05-09-2014 23:05:00 16.2 C 12.96 g/m*3 16.2 C 0 km/h
567 05-09-2014 23:10:00 16.2 C 12.96 g/m*3 16.2 C 0 km/h
568 05-09-2014 23:15:00 16.1 C 12.88 g/m*3 16.1 C 0 km/h
569 05-09-2014 23:20:00 16.1 C 13.02 g/m*3 16.1 C 0 km/h
570 05-09-2014 23:25:00 16 C 12.94 g/m*3 16 C 0 km/h
571 05-09-2014 23:30:00 15.9 C 12.87 g/m*3 15.9 C 0 km/h
572 05-09-2014 23:35:00 15.9 C 12.87 g/m*3 15.9 C 0 km/h
573 05-09-2014 23:40:00 15.8 C 12.79 g/m*3 15.8 C 0 km/h
574 05-09-2014 23:45:00 15.8 C 12.79 g/m*3 15.8 C 0 km/h
575 05-09-2014 23:50:00 15.8 C 12.79 g/m*3 15.8 C 0 km/h
Sensor: Nr:Datum:Temp:Abs-Feuchte:Windchill:Wind:
Aussen-T/F 576 05-09-2014 23:55:00 15.7 C 12.71 g/m*3 15.7 C 0 km/h
577 06-09-2014 00:00:00 15.7 C 12.71 g/m*3 15.7 C 0 km/h
578 06-09-2014 00:05:00 15.6 C 12.63 g/m*3 15.6 C 0 km/h
579 06-09-2014 00:10:00 15.7 C 12.84 g/m*3 15.7 C 0 km/h
580 06-09-2014 00:15:00 15.7 C 12.84 g/m*3 15.7 C 0 km/h
581 06-09-2014 00:20:00 15.7 C 12.84 g/m*3 15.7 C 0 km/h
582 06-09-2014 00:25:00 15.7 C 12.84 g/m*3 15.7 C 0 km/h
583 06-09-2014 00:30:00 15.7 C 12.84 g/m*3 15.7 C 0 km/h
584 06-09-2014 00:35:00 15.7 C 12.84 g/m*3 15.7 C 0 km/h
585 06-09-2014 00:40:00 15.7 C 12.84 g/m*3 15.7 C 0 km/h
586 06-09-2014 00:45:00 15.7 C 12.84 g/m*3 15.7 C 0 km/h
587 06-09-2014 00:50:00 15.7 C 12.84 g/m*3 15.7 C 0 km/h
588 06-09-2014 00:55:00 15.6 C 12.77 g/m*3 15.6 C 0 km/h
589 06-09-2014 01:00:00 15.6 C 12.77 g/m*3 15.6 C 0 km/h
590 06-09-2014 01:05:00 15.6 C 12.77 g/m*3 15.6 C 0 km/h
591 06-09-2014 01:10:00 15.6 C 12.77 g/m*3 15.6 C 0 km/h
592 06-09-2014 01:15:00 15.6 C 12.77 g/m*3 15.6 C 0 km/h
593 06-09-2014 01:20:00 15.6 C 12.77 g/m*3 15.6 C 0 km/h
594 06-09-2014 01:25:00 15.6 C 12.77 g/m*3 15.6 C 0 km/h
595 06-09-2014 01:30:00 15.6 C 12.77 g/m*3 15.6 C 0 km/h
596 06-09-2014 01:35:00 15.6 C 12.77 g/m*3 15.6 C 0 km/h
597 06-09-2014 01:40:00 15.7 C 12.84 g/m*3 15.7 C 0 km/h
598 06-09-2014 01:45:00 15.6 C 12.77 g/m*3 15.6 C 0 km/h
599 06-09-2014 01:50:00 15.6 C 12.77 g/m*3 15.6 C 0 km/h
600 06-09-2014 01:55:00 15.4 C 12.61 g/m*3 15.4 C 0 km/h
Sensor: Nr:Datum:Temp:Abs-Feuchte:Windchill:Wind:
Aussen-T/F 601 06-09-2014 02:00:00 15.3 C 12.54 g/m*3 15.3 C 0 km/h
602 06-09-2014 02:05:00 15.3 C 12.54 g/m*3 15.3 C 0 km/h
603 06-09-2014 02:10:00 15.3 C 12.54 g/m*3 15.3 C 0 km/h
604 06-09-2014 02:15:00 15.2 C 12.46 g/m*3 15.2 C 0 km/h
605 06-09-2014 02:20:00 15.2 C 12.59 g/m*3 15.2 C 0 km/h
606 06-09-2014 02:25:00 15.2 C 12.59 g/m*3 15.2 C 0 km/h
607 06-09-2014 02:30:00 15.2 C 12.46 g/m*3 15.2 C 0 km/h
608 06-09-2014 02:35:00 15.1 C 12.39 g/m*3 15.1 C 0 km/h
609 06-09-2014 02:40:00 15 C 12.31 g/m*3 15 C 0 km/h
610 06-09-2014 02:45:00 15 C 12.31 g/m*3 15 C 0 km/h
611 06-09-2014 02:50:00 14.9 C 12.36 g/m*3 14.9 C 0 km/h
612 06-09-2014 02:55:00 14.8 C 12.29 g/m*3 14.8 C 0 km/h
613 06-09-2014 03:00:00 14.9 C 12.36 g/m*3 14.9 C 0 km/h
614 06-09-2014 03:05:00 14.8 C 12.29 g/m*3 14.8 C 0 km/h
615 06-09-2014 03:10:00 14.8 C 12.29 g/m*3 14.8 C 0 km/h
616 06-09-2014 03:15:00 14.7 C 12.21 g/m*3 14.7 C 0 km/h
617 06-09-2014 03:20:00 14.8 C 12.29 g/m*3 14.8 C 0 km/h
618 06-09-2014 03:25:00 14.7 C 12.21 g/m*3 14.7 C 0 km/h
619 06-09-2014 03:30:00 14.7 C 12.21 g/m*3 14.7 C 0 km/h
620 06-09-2014 03:35:00 14.7 C 12.21 g/m*3 14.7 C 0 km/h
621 06-09-2014 03:40:00 14.7 C 12.21 g/m*3 14.7 C 0 km/h
622 06-09-2014 03:45:00 14.7 C 12.21 g/m*3 14.7 C 0 km/h
623 06-09-2014 03:50:00 14.7 C 12.21 g/m*3 14.7 C 0 km/h
624 06-09-2014 03:55:00 14.6 C 12.14 g/m*3 14.6 C 0 km/h
625 06-09-2014 04:00:00 14.5 C 12.06 g/m*3 14.5 C 0 km/h
Sensor: Nr:Datum:Temp:Abs-Feuchte:Windchill:Wind:
Aussen-T/F 626 06-09-2014 04:05:00 14.4 C 11.99 g/m*3 14.4 C 0 km/h
627 06-09-2014 04:10:00 14.3 C 11.92 g/m*3 14.3 C 0 km/h
628 06-09-2014 04:15:00 14.3 C 11.92 g/m*3 14.3 C 0 km/h
629 06-09-2014 04:20:00 14.2 C 11.84 g/m*3 14.2 C 0 km/h
630 06-09-2014 04:25:00 14.1 C 11.77 g/m*3 14.1 C 0 km/h
631 06-09-2014 04:30:00 14.1 C 11.77 g/m*3 14.1 C 0 km/h
632 06-09-2014 04:35:00 14.1 C 11.77 g/m*3 14.1 C 0 km/h
633 06-09-2014 04:40:00 13.9 C 11.63 g/m*3 13.9 C 0 km/h
634 06-09-2014 04:45:00 13.9 C 11.63 g/m*3 13.9 C 0 km/h
635 06-09-2014 04:50:00 13.8 C 11.56 g/m*3 13.8 C 0 km/h
636 06-09-2014 04:55:00 13.8 C 11.56 g/m*3 13.8 C 0 km/h
637 06-09-2014 05:00:00 13.7 C 11.49 g/m*3 13.7 C 0 km/h
638 06-09-2014 05:05:00 13.7 C 11.49 g/m*3 13.7 C 0 km/h
639 06-09-2014 05:10:00 13.7 C 11.49 g/m*3 13.7 C 0 km/h
640 06-09-2014 05:15:00 13.7 C 11.49 g/m*3 13.7 C 0 km/h
641 06-09-2014 05:20:00 13.8 C 11.56 g/m*3 13.8 C 0 km/h
642 06-09-2014 05:25:00 13.9 C 11.75 g/m*3 13.9 C 0 km/h
643 06-09-2014 05:30:00 14.1 C 11.89 g/m*3 14.1 C 0 km/h
644 06-09-2014 05:35:00 14.1 C 11.89 g/m*3 14.1 C 0 km/h
645 06-09-2014 05:40:00 14.1 C 11.89 g/m*3 14.1 C 0 km/h
646 06-09-2014 05:45:00 14.1 C 11.77 g/m*3 14.1 C 0 km/h
647 06-09-2014 05:50:00 14.1 C 11.77 g/m*3 14.1 C 0 km/h
648 06-09-2014 05:55:00 14.1 C 11.77 g/m*3 14.1 C 0 km/h
649 06-09-2014 06:00:00 13.9 C 11.63 g/m*3 13.9 C 0 km/h
650 06-09-2014 06:05:00 13.8 C 11.56 g/m*3 13.8 C 0 km/h
Sensor: Nr:Datum:Temp:Abs-Feuchte:Windchill:Wind:
Aussen-T/F 651 06-09-2014 06:10:00 13.8 C 11.56 g/m*3 13.8 C 0 km/h
652 06-09-2014 06:15:00 13.8 C 11.56 g/m*3 13.8 C 0 km/h
653 06-09-2014 06:20:00 13.8 C 11.56 g/m*3 13.8 C 0 km/h
654 06-09-2014 06:25:00 13.8 C 11.56 g/m*3 13.8 C 0 km/h
655 06-09-2014 06:30:00 13.8 C 11.56 g/m*3 13.8 C 0 km/h
656 06-09-2014 06:35:00 13.9 C 11.75 g/m*3 13.9 C 0 km/h
657 06-09-2014 06:40:00 13.9 C 11.75 g/m*3 13.9 C 0 km/h
658 06-09-2014 06:45:00 13.9 C 11.75 g/m*3 13.9 C 0 km/h
659 06-09-2014 06:50:00 13.9 C 11.75 g/m*3 13.9 C 0 km/h
660 06-09-2014 06:55:00 13.9 C 11.75 g/m*3 13.9 C 0 km/h
661 06-09-2014 07:00:00 13.9 C 11.75 g/m*3 13.9 C 0 km/h
662 06-09-2014 07:05:00 13.8 C 11.68 g/m*3 13.8 C 0 km/h
663 06-09-2014 07:10:00 13.7 C 11.6 g/m*3 13.7 C 0 km/h
664 06-09-2014 07:15:00 13.7 C 11.6 g/m*3 13.7 C 0 km/h
665 06-09-2014 07:20:00 13.7 C 11.6 g/m*3 13.7 C 0 km/h
666 06-09-2014 07:25:00 13.7 C 11.6 g/m*3 13.7 C 0 km/h
667 06-09-2014 07:30:00 13.7 C 11.6 g/m*3 13.7 C 0 km/h
668 06-09-2014 07:35:00 13.8 C 11.68 g/m*3 13.8 C 0 km/h
669 06-09-2014 07:40:00 13.8 C 11.68 g/m*3 13.8 C 0 km/h
670 06-09-2014 07:45:00 13.8 C 11.68 g/m*3 13.8 C 0 km/h
671 06-09-2014 07:50:00 13.8 C 11.68 g/m*3 13.8 C 0 km/h
672 06-09-2014 07:55:00 13.8 C 11.68 g/m*3 13.8 C 0 km/h
673 06-09-2014 08:00:00 13.8 C 11.68 g/m*3 13.8 C 0 km/h
674 06-09-2014 08:05:00 13.8 C 11.68 g/m*3 13.8 C 0 km/h
675 06-09-2014 08:10:00 13.7 C 11.6 g/m*3 13.7 C 0 km/h
Sensor: Nr:Datum:Temp:Abs-Feuchte:Windchill:Wind:
Aussen-T/F 676 06-09-2014 08:15:00 13.8 C 11.68 g/m*3 13.8 C 0 km/h
677 06-09-2014 08:20:00 13.9 C 11.75 g/m*3 13.9 C 0 km/h
678 06-09-2014 08:25:00 14 C 11.82 g/m*3 14 C 0 km/h
679 06-09-2014 08:30:00 14.1 C 11.89 g/m*3 14.1 C 0 km/h
680 06-09-2014 08:35:00 14.1 C 11.89 g/m*3 14.1 C 0 km/h
681 06-09-2014 08:40:00 14.1 C 11.89 g/m*3 14.1 C 0 km/h
682 06-09-2014 08:45:00 14.1 C 11.89 g/m*3 14.1 C 0 km/h
683 06-09-2014 08:50:00 14.1 C 11.89 g/m*3 14.1 C 0 km/h
684 06-09-2014 08:55:00 14.1 C 11.89 g/m*3 14.1 C 0 km/h
685 06-09-2014 09:00:00 14.1 C 11.89 g/m*3 14.1 C 0 km/h
686 06-09-2014 09:05:00 14.2 C 11.97 g/m*3 14.2 C 0 km/h
687 06-09-2014 09:10:00 14.2 C 11.97 g/m*3 14.2 C 0 km/h
688 06-09-2014 09:15:00 14.3 C 12.04 g/m*3 14.3 C 0 km/h
689 06-09-2014 09:20:00 14.4 C 12.11 g/m*3 14.4 C 0 km/h
690 06-09-2014 09:25:00 14.4 C 12.11 g/m*3 14.4 C 0 km/h
691 06-09-2014 09:30:00 14.4 C 12.11 g/m*3 14.4 C 0 km/h
692 06-09-2014 09:35:00 14.4 C 12.11 g/m*3 14.4 C 0 km/h
693 06-09-2014 09:40:00 14.5 C 12.19 g/m*3 14.5 C 0 km/h
694 06-09-2014 09:45:00 14.5 C 12.19 g/m*3 14.5 C 0 km/h
695 06-09-2014 09:50:00 14.6 C 12.26 g/m*3 14.6 C 0 km/h
696 06-09-2014 09:55:00 14.7 C 12.34 g/m*3 14.7 C 0 km/h
697 06-09-2014 10:00:00 14.8 C 12.41 g/m*3 14.8 C 0 km/h
698 06-09-2014 10:05:00 14.8 C 12.41 g/m*3 14.8 C 0 km/h
699 06-09-2014 10:10:00 14.8 C 12.41 g/m*3 14.8 C 0 km/h
700 06-09-2014 10:15:00 14.9 C 12.49 g/m*3 14.9 C 0 km/h
Sensor: Nr:Datum:Temp:Abs-Feuchte:Windchill:Wind:
Aussen-T/F 701 06-09-2014 10:20:00 15 C 12.57 g/m*3 15 C 0 km/h
702 06-09-2014 10:25:00 15.1 C 12.64 g/m*3 15.1 C 0 km/h
703 06-09-2014 10:30:00 15.1 C 12.64 g/m*3 15.1 C 0 km/h
704 06-09-2014 10:35:00 15.2 C 12.72 g/m*3 15.2 C 0 km/h
705 06-09-2014 10:40:00 15.2 C 12.72 g/m*3 15.2 C 0 km/h
706 06-09-2014 10:45:00 15.3 C 12.8 g/m*3 15.3 C 0 km/h
707 06-09-2014 10:50:00 15.6 C 13.03 g/m*3 15.6 C 0 km/h
708 06-09-2014 10:55:00 15.8 C 13.19 g/m*3 15.8 C 0 km/h
709 06-09-2014 11:00:00 16.1 C 13.43 g/m*3 16.1 C 0 km/h
710 06-09-2014 11:05:00 16.3 C 13.6 g/m*3 16.3 C 0 km/h
711 06-09-2014 11:10:00 16.4 C 13.68 g/m*3 16.4 C 0 km/h
712 06-09-2014 11:15:00 16.6 C 13.84 g/m*3 16.6 C 0 km/h
713 06-09-2014 11:20:00 16.8 C 14.01 g/m*3 16.8 C 0 km/h
714 06-09-2014 11:25:00 17 C 14.18 g/m*3 17 C 0 km/h
715 06-09-2014 11:30:00 17.2 C 14.35 g/m*3 17.2 C 0 km/h
716 06-09-2014 11:35:00 17.3 C 14.29 g/m*3 17.3 C 0 km/h
717 06-09-2014 11:40:00 17.6 C 14.55 g/m*3 17.6 C 0 km/h
718 06-09-2014 11:45:00 17.8 C 14.57 g/m*3 17.8 C 0 km/h
719 06-09-2014 11:50:00 18 C 14.75 g/m*3 18 C 0 km/h
720 06-09-2014 11:55:00 18.3 C 14.85 g/m*3 18.3 C 0 km/h
721 06-09-2014 12:00:00 18.6 C 14.96 g/m*3 18.6 C 0 km/h
722 06-09-2014 12:05:00 18.8 C 14.82 g/m*3 18.8 C 0 km/h
723 06-09-2014 12:10:00 19.1 C 14.92 g/m*3 19.1 C 0 km/h
724 06-09-2014 12:15:00 19.1 C 14.75 g/m*3 19.1 C 0 km/h
725 06-09-2014 12:20:00 19.3 C 14.76 g/m*3 19.3 C 0 km/h
Sensor: Nr:Datum:Temp:Abs-Feuchte:Windchill:Wind:
Aussen-T/F 726 06-09-2014 12:25:00 19.3 C 14.93 g/m*3 19.3 C 0 km/h
727 06-09-2014 12:30:00 19.4 C 15.02 g/m*3 19.4 C 0 km/h
728 06-09-2014 12:35:00 19.5 C 14.94 g/m*3 19.5 C 0 km/h
729 06-09-2014 12:40:00 19.6 C 15.19 g/m*3 19.6 C 0 km/h
730 06-09-2014 12:45:00 19.4 C 15.18 g/m*3 19.4 C 0 km/h
731 06-09-2014 12:50:00 19.4 C 15.35 g/m*3 19.4 C 0 km/h
732 06-09-2014 12:55:00 19.6 C 15.53 g/m*3 19.6 C 0 km/h
733 06-09-2014 13:00:00 20.1 C 15.64 g/m*3 20.1 C 0 km/h
734 06-09-2014 13:05:00 20.4 C 15.74 g/m*3 20.4 C 0 km/h
735 06-09-2014 13:10:00 20.7 C 16.02 g/m*3 20.7 C 0 km/h
736 06-09-2014 13:15:00 20.9 C 16.21 g/m*3 20.9 C 0 km/h
737 06-09-2014 13:20:00 21.3 C 16.4 g/m*3 21.3 C 0 km/h
738 06-09-2014 13:25:00 21.6 C 16.69 g/m*3 21.6 C 0 km/h
739 06-09-2014 13:30:00 21.8 C 16.12 g/m*3 21.8 C 0 km/h
740 06-09-2014 13:35:00 21.4 C 15.94 g/m*3 21.4 C 0 km/h
741 06-09-2014 13:40:00 20.8 C 15.75 g/m*3 20.8 C 0 km/h
742 06-09-2014 13:45:00 20.6 C 15.93 g/m*3 20.6 C 0 km/h
743 06-09-2014 13:50:00 20.6 C 16.11 g/m*3 20.6 C 0 km/h
744 06-09-2014 13:55:00 20.9 C 16.39 g/m*3 20.9 C 0 km/h
745 06-09-2014 14:00:00 20.8 C 15.93 g/m*3 20.8 C 0 km/h
746 06-09-2014 14:05:00 20.8 C 15.93 g/m*3 20.8 C 0 km/h
747 06-09-2014 14:10:00 21.1 C 15.85 g/m*3 21.1 C 0 km/h
748 06-09-2014 14:15:00 21.2 C 15.94 g/m*3 21.2 C 0 km/h
749 06-09-2014 14:20:00 21.1 C 15.66 g/m*3 21.1 C 0 km/h
750 06-09-2014 14:25:00 20.9 C 15.66 g/m*3 20.9 C 0 km/h
Sensor: Nr:Datum:Temp:Abs-Feuchte:Windchill:Wind:
Aussen-T/F 751 06-09-2014 14:30:00 20.8 C 15.57 g/m*3 20.8 C 0 km/h
752 06-09-2014 14:35:00 21 C 15.94 g/m*3 21 C 0 km/h
753 06-09-2014 14:40:00 21.2 C 16.12 g/m*3 21.2 C 0 km/h
754 06-09-2014 14:45:00 21.3 C 16.03 g/m*3 21.3 C 0 km/h
755 06-09-2014 14:50:00 21.2 C 16.12 g/m*3 21.2 C 0 km/h
756 06-09-2014 14:55:00 21.1 C 16.03 g/m*3 21.1 C 0 km/h
757 06-09-2014 15:00:00 21.1 C 16.03 g/m*3 21.1 C 0 km/h
758 06-09-2014 15:05:00 21.1 C 16.03 g/m*3 21.1 C 0 km/h
759 06-09-2014 15:10:00 21.2 C 16.31 g/m*3 21.2 C 0 km/h
760 06-09-2014 15:15:00 21.4 C 16.31 g/m*3 21.4 C 0 km/h
761 06-09-2014 15:20:00 21.6 C 16.31 g/m*3 21.6 C 0 km/h
762 06-09-2014 15:25:00 21.6 C 16.5 g/m*3 21.6 C 0 km/h
763 06-09-2014 15:30:00 21.7 C 16.41 g/m*3 21.7 C 0 km/h
764 06-09-2014 15:35:00 21.6 C 16.5 g/m*3 21.6 C 0 km/h
765 06-09-2014 15:40:00 21.3 C 16.03 g/m*3 21.3 C 0 km/h
766 06-09-2014 15:45:00 21.3 C 16.4 g/m*3 21.3 C 0 km/h
767 06-09-2014 15:50:00 21.3 C 16.4 g/m*3 21.3 C 0 km/h
768 06-09-2014 15:55:00 21.4 C 16.31 g/m*3 21.4 C 0 km/h
769 06-09-2014 16:00:00 21.8 C 15.54 g/m*3 21.8 C 0 km/h
770 06-09-2014 16:05:00 22.8 C 14.43 g/m*3 22.8 C 0 km/h
771 06-09-2014 16:10:00 23.8 C 16.13 g/m*3 23.8 C 0 km/h
772 06-09-2014 16:15:00 24.3 C 14.83 g/m*3 24.3 C 6.4 km/h
773 06-09-2014 16:20:00 24.7 C 15.39 g/m*3 24.7 C 4.8 km/h
774 06-09-2014 16:25:00 24.7 C 16.07 g/m*3 24.7 C 0 km/h
775 06-09-2014 16:30:00 23.8 C 16.35 g/m*3 23.8 C 0 km/h
Sensor: Nr:Datum:Temp:Abs-Feuchte:Windchill:Wind:
Aussen-T/F 776 06-09-2014 16:35:00 22.9 C 16.14 g/m*3 22.9 C 0 km/h
777 06-09-2014 16:40:00 22.2 C 16.1 g/m*3 22.2 C 0 km/h
778 06-09-2014 16:45:00 21.7 C 16.21 g/m*3 21.7 C 0 km/h
779 06-09-2014 16:50:00 21.3 C 16.03 g/m*3 21.3 C 0 km/h
780 06-09-2014 16:55:00 20.9 C 15.84 g/m*3 20.9 C 3.2 km/h
781 06-09-2014 17:00:00 20.7 C 15.66 g/m*3 20.7 C 3.2 km/h
782 06-09-2014 17:05:00 20.6 C 15.57 g/m*3 20.6 C 4.8 km/h
783 06-09-2014 17:10:00 20.5 C 15.66 g/m*3 20.5 C 0 km/h
784 06-09-2014 17:15:00 20.4 C 15.57 g/m*3 20.4 C 0 km/h
785 06-09-2014 17:20:00 20.4 C 15.57 g/m*3 20.4 C 0 km/h
786 06-09-2014 17:25:00 20.4 C 15.57 g/m*3 20.4 C 0 km/h
787 06-09-2014 17:30:00 20.5 C 15.84 g/m*3 20.5 C 0 km/h
788 06-09-2014 17:35:00 20.7 C 15.84 g/m*3 20.7 C 0 km/h
789 06-09-2014 17:40:00 20.8 C 15.93 g/m*3 20.8 C 0 km/h
790 06-09-2014 17:45:00 21 C 16.3 g/m*3 21 C 0 km/h
791 06-09-2014 17:50:00 21.4 C 16.5 g/m*3 21.4 C 0 km/h
792 06-09-2014 17:55:00 21.8 C 16.69 g/m*3 21.8 C 0 km/h
793 06-09-2014 18:00:00 22.4 C 15.69 g/m*3 22.4 C 0 km/h
794 06-09-2014 18:05:00 23.3 C 15.89 g/m*3 23.3 C 3.2 km/h
795 06-09-2014 18:10:00 23.9 C 17.09 g/m*3 23.9 C 0 km/h
796 06-09-2014 18:15:00 24.1 C 17.07 g/m*3 24.1 C 0 km/h
797 06-09-2014 18:20:00 24 C 16.97 g/m*3 24 C 0 km/h
798 06-09-2014 18:25:00 23.8 C 16.78 g/m*3 23.8 C 0 km/h
799 06-09-2014 18:30:00 23.9 C 16.44 g/m*3 23.9 C 0 km/h
800 06-09-2014 18:35:00 23.9 C 16.66 g/m*3 23.9 C 0 km/h
Sensor: Nr:Datum:Temp:Abs-Feuchte:Windchill:Wind:
Aussen-T/F 801 06-09-2014 18:40:00 23.9 C 16.87 g/m*3 23.9 C 0 km/h
802 06-09-2014 18:45:00 23.6 C 16.8 g/m*3 23.6 C 0 km/h
803 06-09-2014 18:50:00 23.1 C 16.54 g/m*3 23.1 C 0 km/h
804 06-09-2014 18:55:00 22.7 C 16.37 g/m*3 22.7 C 0 km/h
805 06-09-2014 19:00:00 22.3 C 16.39 g/m*3 22.3 C 0 km/h
806 06-09-2014 19:05:00 22.1 C 16.4 g/m*3 22.1 C 0 km/h
807 06-09-2014 19:10:00 21.9 C 16.4 g/m*3 21.9 C 0 km/h
808 06-09-2014 19:15:00 21.7 C 16.21 g/m*3 21.7 C 0 km/h
809 06-09-2014 19:20:00 21.5 C 16.03 g/m*3 21.5 C 0 km/h
810 06-09-2014 19:25:00 21.3 C 16.03 g/m*3 21.3 C 0 km/h
811 06-09-2014 19:30:00 20.9 C 15.84 g/m*3 20.9 C 0 km/h
812 06-09-2014 19:35:00 20.3 C 15.48 g/m*3 20.3 C 0 km/h
813 06-09-2014 19:40:00 19.9 C 15.29 g/m*3 19.9 C 0 km/h
814 06-09-2014 19:45:00 19.7 C 15.28 g/m*3 19.7 C 0 km/h
815 06-09-2014 19:50:00 19.5 C 15.1 g/m*3 19.5 C 3.2 km/h
816 06-09-2014 19:55:00 19.3 C 15.09 g/m*3 19.3 C 0 km/h
817 06-09-2014 20:00:00 19.2 C 15.01 g/m*3 19.2 C 0 km/h
818 06-09-2014 20:05:00 19.1 C 14.92 g/m*3 19.1 C 0 km/h
819 06-09-2014 20:10:00 18.9 C 14.9 g/m*3 18.9 C 0 km/h
820 06-09-2014 20:15:00 18.8 C 14.82 g/m*3 18.8 C 0 km/h
821 06-09-2014 20:20:00 18.7 C 14.89 g/m*3 18.7 C 0 km/h
822 06-09-2014 20:25:00 18.6 C 14.8 g/m*3 18.6 C 0 km/h
823 06-09-2014 20:30:00 18.5 C 14.71 g/m*3 18.5 C 0 km/h
824 06-09-2014 20:35:00 18.4 C 14.63 g/m*3 18.4 C 0 km/h
825 06-09-2014 20:40:00 18.3 C 14.54 g/m*3 18.3 C 0 km/h
Sensor: Nr:Datum:Temp:Abs-Feuchte:Windchill:Wind:
Aussen-T/F 826 06-09-2014 20:45:00 18.3 C 14.7 g/m*3 18.3 C 0 km/h
827 06-09-2014 20:50:00 18.2 C 14.61 g/m*3 18.2 C 0 km/h
828 06-09-2014 20:55:00 18.2 C 14.61 g/m*3 18.2 C 0 km/h
829 06-09-2014 21:00:00 18.2 C 14.61 g/m*3 18.2 C 0 km/h
830 06-09-2014 21:05:00 18.2 C 14.61 g/m*3 18.2 C 0 km/h
831 06-09-2014 21:10:00 18.2 C 14.61 g/m*3 18.2 C 0 km/h
832 06-09-2014 21:15:00 18.1 C 14.52 g/m*3 18.1 C 0 km/h
833 06-09-2014 21:20:00 18.1 C 14.52 g/m*3 18.1 C 0 km/h
834 06-09-2014 21:25:00 18 C 14.44 g/m*3 18 C 0 km/h
835 06-09-2014 21:30:00 17.9 C 14.35 g/m*3 17.9 C 0 km/h
836 06-09-2014 21:35:00 17.8 C 14.27 g/m*3 17.8 C 0 km/h
837 06-09-2014 21:40:00 17.9 C 14.35 g/m*3 17.9 C 0 km/h
838 06-09-2014 21:45:00 17.9 C 14.5 g/m*3 17.9 C 0 km/h
839 06-09-2014 21:50:00 17.8 C 14.27 g/m*3 17.8 C 0 km/h
840 06-09-2014 21:55:00 17.8 C 14.27 g/m*3 17.8 C 0 km/h
841 06-09-2014 22:00:00 17.7 C 14.18 g/m*3 17.7 C 0 km/h
842 06-09-2014 22:05:00 17.6 C 14.1 g/m*3 17.6 C 0 km/h
843 06-09-2014 22:10:00 17.5 C 14.01 g/m*3 17.5 C 0 km/h
844 06-09-2014 22:15:00 17.4 C 13.93 g/m*3 17.4 C 0 km/h
845 06-09-2014 22:20:00 17.3 C 13.85 g/m*3 17.3 C 0 km/h
846 06-09-2014 22:25:00 17.3 C 14 g/m*3 17.3 C 0 km/h
847 06-09-2014 22:30:00 17.3 C 14 g/m*3 17.3 C 0 km/h
848 06-09-2014 22:35:00 17.2 C 13.91 g/m*3 17.2 C 0 km/h
849 06-09-2014 22:40:00 17.2 C 13.91 g/m*3 17.2 C 0 km/h
850 06-09-2014 22:45:00 17.2 C 13.91 g/m*3 17.2 C 0 km/h
Sensor: Nr:Datum:Temp:Abs-Feuchte:Windchill:Wind:
Aussen-T/F 851 06-09-2014 22:50:00 17.1 C 13.83 g/m*3 17.1 C 0 km/h
852 06-09-2014 22:55:00 17.1 C 13.83 g/m*3 17.1 C 0 km/h
853 06-09-2014 23:00:00 17 C 13.75 g/m*3 17 C 0 km/h
854 06-09-2014 23:05:00 16.9 C 13.66 g/m*3 16.9 C 0 km/h
855 06-09-2014 23:10:00 16.9 C 13.66 g/m*3 16.9 C 0 km/h
856 06-09-2014 23:15:00 16.9 C 13.66 g/m*3 16.9 C 0 km/h
857 06-09-2014 23:20:00 16.9 C 13.81 g/m*3 16.9 C 0 km/h
858 06-09-2014 23:25:00 16.9 C 13.81 g/m*3 16.9 C 0 km/h
859 06-09-2014 23:30:00 16.9 C 13.81 g/m*3 16.9 C 0 km/h
860 06-09-2014 23:35:00 16.9 C 13.81 g/m*3 16.9 C 0 km/h
861 06-09-2014 23:40:00 16.9 C 13.81 g/m*3 16.9 C 0 km/h
862 06-09-2014 23:45:00 16.9 C 13.81 g/m*3 16.9 C 0 km/h
863 06-09-2014 23:50:00 17 C 13.89 g/m*3 17 C 0 km/h
864 06-09-2014 23:55:00 17 C 13.89 g/m*3 17 C 0 km/h
865 07-09-2014 00:00:00 16.9 C 13.81 g/m*3 16.9 C 0 km/h
866 07-09-2014 00:05:00 16.9 C 13.81 g/m*3 16.9 C 0 km/h
867 07-09-2014 00:10:00 16.8 C 13.73 g/m*3 16.8 C 0 km/h
868 07-09-2014 00:15:00 16.8 C 13.73 g/m*3 16.8 C 0 km/h
869 07-09-2014 00:20:00 16.8 C 13.73 g/m*3 16.8 C 0 km/h
870 07-09-2014 00:25:00 16.7 C 13.64 g/m*3 16.7 C 0 km/h
871 07-09-2014 00:30:00 16.6 C 13.56 g/m*3 16.6 C 0 km/h
872 07-09-2014 00:35:00 16.6 C 13.56 g/m*3 16.6 C 0 km/h
873 07-09-2014 00:40:00 16.4 C 13.4 g/m*3 16.4 C 0 km/h
874 07-09-2014 00:45:00 16.3 C 13.32 g/m*3 16.3 C 0 km/h
875 07-09-2014 00:50:00 16.2 C 13.24 g/m*3 16.2 C 0 km/h
Sensor: Nr:Datum:Temp:Abs-Feuchte:Windchill:Wind:
Aussen-T/F 876 07-09-2014 00:55:00 16.2 C 13.24 g/m*3 16.2 C 0 km/h
877 07-09-2014 01:00:00 16.2 C 13.24 g/m*3 16.2 C 0 km/h
878 07-09-2014 01:05:00 16.2 C 13.24 g/m*3 16.2 C 0 km/h
879 07-09-2014 01:10:00 16.2 C 13.24 g/m*3 16.2 C 0 km/h
880 07-09-2014 01:15:00 16.2 C 13.24 g/m*3 16.2 C 0 km/h
881 07-09-2014 01:20:00 16.1 C 13.16 g/m*3 16.1 C 0 km/h
882 07-09-2014 01:25:00 16.1 C 13.16 g/m*3 16.1 C 0 km/h
883 07-09-2014 01:30:00 16.1 C 13.16 g/m*3 16.1 C 0 km/h
884 07-09-2014 01:35:00 16.1 C 13.16 g/m*3 16.1 C 0 km/h
885 07-09-2014 01:40:00 16 C 13.22 g/m*3 16 C 0 km/h
886 07-09-2014 01:45:00 16 C 13.22 g/m*3 16 C 0 km/h
887 07-09-2014 01:50:00 16 C 13.22 g/m*3 16 C 0 km/h
888 07-09-2014 01:55:00 16 C 13.22 g/m*3 16 C 0 km/h
889 07-09-2014 02:00:00 15.9 C 13.14 g/m*3 15.9 C 0 km/h
890 07-09-2014 02:05:00 15.9 C 13.14 g/m*3 15.9 C 0 km/h
891 07-09-2014 02:10:00 15.9 C 13.14 g/m*3 15.9 C 0 km/h
892 07-09-2014 02:15:00 15.9 C 13.14 g/m*3 15.9 C 0 km/h
893 07-09-2014 02:20:00 15.9 C 13.14 g/m*3 15.9 C 0 km/h
894 07-09-2014 02:25:00 15.9 C 13.14 g/m*3 15.9 C 0 km/h
895 07-09-2014 02:30:00 15.9 C 13.14 g/m*3 15.9 C 0 km/h
896 07-09-2014 02:35:00 15.9 C 13.14 g/m*3 15.9 C 0 km/h
897 07-09-2014 02:40:00 15.9 C 13.14 g/m*3 15.9 C 0 km/h
898 07-09-2014 02:45:00 15.9 C 13.14 g/m*3 15.9 C 0 km/h
899 07-09-2014 02:50:00 16 C 13.22 g/m*3 16 C 0 km/h
900 07-09-2014 02:55:00 16.1 C 13.3 g/m*3 16.1 C 0 km/h
Sensor: Nr:Datum:Temp:Abs-Feuchte:Windchill:Wind:
Aussen-T/F 901 07-09-2014 03:00:00 16.2 C 13.38 g/m*3 16.2 C 0 km/h
902 07-09-2014 03:05:00 16.2 C 13.38 g/m*3 16.2 C 0 km/h
903 07-09-2014 03:10:00 16.2 C 13.38 g/m*3 16.2 C 0 km/h
904 07-09-2014 03:15:00 16.2 C 13.38 g/m*3 16.2 C 0 km/h
905 07-09-2014 03:20:00 16.3 C 13.46 g/m*3 16.3 C 0 km/h
906 07-09-2014 03:25:00 16.3 C 13.46 g/m*3 16.3 C 3.2 km/h
907 07-09-2014 03:30:00 16.3 C 13.46 g/m*3 16.3 C 3.2 km/h
908 07-09-2014 03:35:00 16.3 C 13.46 g/m*3 16.3 C 0 km/h
909 07-09-2014 03:40:00 16.3 C 13.46 g/m*3 16.3 C 0 km/h
910 07-09-2014 03:45:00 16.3 C 13.46 g/m*3 16.3 C 4.8 km/h
911 07-09-2014 03:50:00 16.3 C 13.46 g/m*3 16.3 C 4.8 km/h
912 07-09-2014 03:55:00 16.3 C 13.46 g/m*3 16.3 C 0 km/h
913 07-09-2014 04:00:00 16.3 C 13.46 g/m*3 16.3 C 0 km/h
914 07-09-2014 04:05:00 16.3 C 13.46 g/m*3 16.3 C 4.8 km/h
915 07-09-2014 04:10:00 16.3 C 13.46 g/m*3 16.3 C 0 km/h
916 07-09-2014 04:15:00 16.3 C 13.46 g/m*3 16.3 C 0 km/h
917 07-09-2014 04:20:00 16.3 C 13.46 g/m*3 16.3 C 0 km/h
918 07-09-2014 04:25:00 16.4 C 13.54 g/m*3 16.4 C 0 km/h
919 07-09-2014 04:30:00 16.4 C 13.54 g/m*3 16.4 C 0 km/h
920 07-09-2014 04:35:00 16.4 C 13.54 g/m*3 16.4 C 0 km/h
921 07-09-2014 04:40:00 16.4 C 13.54 g/m*3 16.4 C 0 km/h
922 07-09-2014 04:45:00 16.4 C 13.54 g/m*3 16.4 C 3.2 km/h
923 07-09-2014 04:50:00 16.4 C 13.54 g/m*3 16.4 C 0 km/h
924 07-09-2014 04:55:00 16.4 C 13.54 g/m*3 16.4 C 0 km/h
925 07-09-2014 05:00:00 16.5 C 13.62 g/m*3 16.5 C 0 km/h
Sensor: Nr:Datum:Temp:Abs-Feuchte:Windchill:Wind:
Aussen-T/F 926 07-09-2014 05:05:00 16.5 C 13.62 g/m*3 16.5 C 1.6 km/h
927 07-09-2014 05:10:00 16.4 C 13.54 g/m*3 16.4 C 0 km/h
928 07-09-2014 05:15:00 16.4 C 13.54 g/m*3 16.4 C 3.2 km/h
929 07-09-2014 05:20:00 16.5 C 13.62 g/m*3 16.5 C 0 km/h
930 07-09-2014 05:25:00 16.5 C 13.62 g/m*3 16.5 C 0 km/h
931 07-09-2014 05:30:00 16.5 C 13.48 g/m*3 16.5 C 0 km/h
932 07-09-2014 05:35:00 16.5 C 13.48 g/m*3 16.5 C 0 km/h
933 07-09-2014 05:40:00 16.6 C 13.56 g/m*3 16.6 C 0 km/h
934 07-09-2014 05:45:00 16.6 C 13.56 g/m*3 16.6 C 3.2 km/h
935 07-09-2014 05:50:00 16.6 C 13.56 g/m*3 16.6 C 0 km/h
936 07-09-2014 05:55:00 16.6 C 13.56 g/m*3 16.6 C 0 km/h
937 07-09-2014 06:00:00 16.7 C 13.64 g/m*3 16.7 C 0 km/h
938 07-09-2014 06:05:00 16.7 C 13.64 g/m*3 16.7 C 0 km/h
939 07-09-2014 06:10:00 16.7 C 13.64 g/m*3 16.7 C 0 km/h
940 07-09-2014 06:15:00 16.7 C 13.64 g/m*3 16.7 C 0 km/h
941 07-09-2014 06:20:00 16.7 C 13.64 g/m*3 16.7 C 0 km/h
942 07-09-2014 06:25:00 16.7 C 13.64 g/m*3 16.7 C 3.2 km/h
943 07-09-2014 06:30:00 16.7 C 13.64 g/m*3 16.7 C 0 km/h
944 07-09-2014 06:35:00 16.8 C 13.73 g/m*3 16.8 C 0 km/h
945 07-09-2014 06:40:00 16.8 C 13.73 g/m*3 16.8 C 0 km/h
946 07-09-2014 06:45:00 16.8 C 13.73 g/m*3 16.8 C 0 km/h
947 07-09-2014 06:50:00 16.9 C 13.81 g/m*3 16.9 C 0 km/h
948 07-09-2014 06:55:00 16.9 C 13.95 g/m*3 16.9 C 0 km/h
949 07-09-2014 07:00:00 16.9 C 13.95 g/m*3 16.9 C 0 km/h
950 07-09-2014 07:05:00 16.9 C 13.95 g/m*3 16.9 C 0 km/h
Sensor: Nr:Datum:Temp:Abs-Feuchte:Windchill:Wind:
Aussen-T/F 951 07-09-2014 07:10:00 16.9 C 13.81 g/m*3 16.9 C 0 km/h
952 07-09-2014 07:15:00 17 C 13.89 g/m*3 17 C 0 km/h
953 07-09-2014 07:20:00 17 C 13.89 g/m*3 17 C 0 km/h
954 07-09-2014 07:25:00 17.1 C 13.97 g/m*3 17.1 C 0 km/h
955 07-09-2014 07:30:00 17.1 C 13.97 g/m*3 17.1 C 0 km/h
956 07-09-2014 07:35:00 17.1 C 13.97 g/m*3 17.1 C 0 km/h
957 07-09-2014 07:40:00 17.1 C 13.97 g/m*3 17.1 C 0 km/h
958 07-09-2014 07:45:00 17.1 C 13.83 g/m*3 17.1 C 0 km/h
959 07-09-2014 07:50:00 17.1 C 13.83 g/m*3 17.1 C 0 km/h
960 07-09-2014 07:55:00 17.1 C 13.83 g/m*3 17.1 C 0 km/h
961 07-09-2014 08:00:00 17.1 C 13.83 g/m*3 17.1 C 0 km/h
962 07-09-2014 08:05:00 17.2 C 13.91 g/m*3 17.2 C 0 km/h
963 07-09-2014 08:10:00 17.2 C 13.91 g/m*3 17.2 C 0 km/h
964 07-09-2014 08:15:00 17.2 C 14.06 g/m*3 17.2 C 0 km/h
965 07-09-2014 08:20:00 17.2 C 14.06 g/m*3 17.2 C 0 km/h
966 07-09-2014 08:25:00 17.2 C 13.91 g/m*3 17.2 C 0 km/h
967 07-09-2014 08:30:00 17.2 C 13.91 g/m*3 17.2 C 0 km/h
968 07-09-2014 08:35:00 17.2 C 13.91 g/m*3 17.2 C 0 km/h
969 07-09-2014 08:40:00 17.2 C 13.91 g/m*3 17.2 C 0 km/h
970 07-09-2014 08:45:00 17.3 C 13.85 g/m*3 17.3 C 0 km/h
971 07-09-2014 08:50:00 17.3 C 13.85 g/m*3 17.3 C 0 km/h
972 07-09-2014 08:55:00 17.3 C 13.85 g/m*3 17.3 C 0 km/h
973 07-09-2014 09:00:00 17.4 C 13.93 g/m*3 17.4 C 4.8 km/h
974 07-09-2014 09:05:00 17.4 C 13.78 g/m*3 17.4 C 0 km/h
975 07-09-2014 09:10:00 17.4 C 13.63 g/m*3 17.4 C 0 km/h
Sensor: Nr:Datum:Temp:Abs-Feuchte:Windchill:Wind:
Aussen-T/F 976 07-09-2014 09:15:00 17.4 C 13.63 g/m*3 17.4 C 1.6 km/h
977 07-09-2014 09:20:00 17.6 C 13.8 g/m*3 17.6 C 3.2 km/h
978 07-09-2014 09:25:00 17.6 C 13.65 g/m*3 17.6 C 4.8 km/h
979 07-09-2014 09:30:00 17.6 C 13.65 g/m*3 17.6 C 0 km/h
980 07-09-2014 09:35:00 17.6 C 13.65 g/m*3 17.6 C 4.8 km/h
981 07-09-2014 09:40:00 17.6 C 13.5 g/m*3 17.6 C 3.2 km/h
982 07-09-2014 09:45:00 17.7 C 13.58 g/m*3 17.7 C 3.2 km/h
983 07-09-2014 09:50:00 17.7 C 13.58 g/m*3 17.7 C 3.2 km/h
984 07-09-2014 09:55:00 17.8 C 13.81 g/m*3 17.8 C 0 km/h
985 07-09-2014 10:00:00 17.9 C 13.74 g/m*3 17.9 C 3.2 km/h
986 07-09-2014 10:05:00 18 C 13.67 g/m*3 18 C 0 km/h
987 07-09-2014 10:10:00 18.1 C 13.75 g/m*3 18.1 C 4.8 km/h
988 07-09-2014 10:15:00 18.1 C 13.6 g/m*3 18.1 C 6.4 km/h
989 07-09-2014 10:20:00 18.2 C 13.68 g/m*3 18.2 C 6.4 km/h
990 07-09-2014 10:25:00 18.3 C 13.76 g/m*3 18.3 C 6.4 km/h
991 07-09-2014 10:30:00 18.3 C 13.6 g/m*3 18.3 C 8.1 km/h
992 07-09-2014 10:35:00 18.3 C 13.6 g/m*3 18.3 C 9.7 km/h
993 07-09-2014 10:40:00 18.3 C 13.6 g/m*3 18.3 C 9.7 km/h
994 07-09-2014 10:45:00 18.1 C 13.29 g/m*3 18.1 C 6.4 km/h
995 07-09-2014 10:50:00 18.1 C 13.29 g/m*3 18.1 C 4.8 km/h
996 07-09-2014 10:55:00 18.1 C 13.13 g/m*3 18.1 C 8.1 km/h
997 07-09-2014 11:00:00 18 C 13.21 g/m*3 18 C 8.1 km/h
998 07-09-2014 11:55:00 18 C 13.21 g/m*3 18 C 4.8 km/h
999 07-09-2014 12:00:00 18 C 13.21 g/m*3 18 C 4.8 km/h
1000 07-09-2014 12:05:00 18.1 C 13.29 g/m*3 18.1 C 6.4 km/h
Sensor: Nr:Datum:Temp:Abs-Feuchte:Windchill:Wind:
Aussen-T/F 1001 07-09-2014 12:10:00 18.1 C 12.98 g/m*3 18.1 C 3.2 km/h
1002 07-09-2014 12:15:00 18.2 C 13.21 g/m*3 18.2 C 3.2 km/h
1003 07-09-2014 12:20:00 18.2 C 13.06 g/m*3 18.2 C 3.2 km/h
1004 07-09-2014 12:25:00 18.3 C 13.13 g/m*3 18.3 C 6.4 km/h
1005 07-09-2014 12:30:00 18.4 C 13.21 g/m*3 18.4 C 3.2 km/h
1006 07-09-2014 12:35:00 18.5 C 12.97 g/m*3 18.5 C 0 km/h
1007 07-09-2014 12:40:00 18.7 C 13.29 g/m*3 18.7 C 0 km/h
1008 07-09-2014 12:45:00 19 C 13.53 g/m*3 19 C 4.8 km/h
1009 07-09-2014 12:50:00 19.3 C 13.77 g/m*3 19.3 C 6.4 km/h
1010 07-09-2014 12:55:00 19.4 C 13.51 g/m*3 19.4 C 0 km/h
1011 07-09-2014 14:00:00 20.1 C 17.38 g/m*3 20.1 C 8.1 km/h
1012 07-09-2014 14:05:00 20.3 C 14.07 g/m*3 20.3 C 6.4 km/h
1013 07-09-2014 14:10:00 20.6 C 13.96 g/m*3 20.6 C 0 km/h
1014 07-09-2014 14:15:00 20.7 C 14.04 g/m*3 20.7 C 3.2 km/h
1015 07-09-2014 14:20:00 21.1 C 14.19 g/m*3 21.1 C 3.2 km/h
1016 07-09-2014 14:25:00 21.2 C 14.08 g/m*3 21.2 C 3.2 km/h
1017 07-09-2014 14:30:00 21.4 C 13.87 g/m*3 21.4 C 3.2 km/h
1018 07-09-2014 15:00:00 21.6 C 13.85 g/m*3 21.6 C 0 km/h
1019 07-09-2014 15:05:00 21.7 C 13.93 g/m*3 21.7 C 3.2 km/h
1020 07-09-2014 15:10:00 21.9 C 14.28 g/m*3 21.9 C 4.8 km/h
1021 07-09-2014 15:15:00 21.8 C 13.62 g/m*3 21.8 C 1.6 km/h
1022 07-09-2014 15:20:00 21.8 C 14.01 g/m*3 21.8 C 4.8 km/h
1023 07-09-2014 15:25:00 21.9 C 13.51 g/m*3 21.9 C 8.1 km/h
1024 07-09-2014 15:30:00 21.9 C 13.89 g/m*3 21.9 C 6.4 km/h
1025 07-09-2014 15:35:00 22.1 C 13.66 g/m*3 22.1 C 6.4 km/h
Sensor: Nr:Datum:Temp:Abs-Feuchte:Windchill:Wind:
Aussen-T/F 1026 07-09-2014 15:40:00 22.3 C 13.82 g/m*3 22.3 C 8.1 km/h
1027 07-09-2014 15:45:00 22.4 C 13.5 g/m*3 22.4 C 8.1 km/h
1028 07-09-2014 15:50:00 22.5 C 13.18 g/m*3 22.5 C 4.8 km/h
1029 07-09-2014 15:55:00 22.4 C 12.91 g/m*3 22.4 C 4.8 km/h
1030 07-09-2014 16:00:00 22.3 C 13.82 g/m*3 22.3 C 0 km/h
1031 07-09-2014 16:05:00 22.6 C 13.66 g/m*3 22.6 C 6.4 km/h
1032 07-09-2014 16:10:00 22.8 C 13.82 g/m*3 22.8 C 6.4 km/h
1033 07-09-2014 16:15:00 23 C 13.98 g/m*3 23 C 3.2 km/h
1034 07-09-2014 16:20:00 23 C 13.98 g/m*3 23 C 0 km/h
1035 07-09-2014 16:25:00 22.9 C 14.1 g/m*3 22.9 C 0 km/h
1036 07-09-2014 16:30:00 22.9 C 14.1 g/m*3 22.9 C 0 km/h
1037 07-09-2014 16:35:00 23 C 13.36 g/m*3 23 C 6.4 km/h
1038 07-09-2014 16:40:00 22.8 C 13.82 g/m*3 22.8 C 4.8 km/h
1039 07-09-2014 16:45:00 22.7 C 14.14 g/m*3 22.7 C 6.4 km/h
1040 07-09-2014 16:50:00 22.8 C 13.82 g/m*3 22.8 C 6.4 km/h
1041 07-09-2014 16:55:00 22.9 C 13.28 g/m*3 22.9 C 4.8 km/h
1042 07-09-2014 17:00:00 23.1 C 13.44 g/m*3 23.1 C 8.1 km/h
1043 07-09-2014 17:05:00 23.2 C 13.72 g/m*3 23.2 C 8.1 km/h
1044 07-09-2014 17:10:00 23.3 C 13.38 g/m*3 23.3 C 4.8 km/h
1045 07-09-2014 17:15:00 23.3 C 14.01 g/m*3 23.3 C 9.7 km/h
1046 07-09-2014 17:20:00 23.2 C 13.1 g/m*3 23.2 C 6.4 km/h
1047 07-09-2014 17:25:00 22.9 C 13.08 g/m*3 22.9 C 4.8 km/h
1048 07-09-2014 17:30:00 22.9 C 13.28 g/m*3 22.9 C 6.4 km/h
1049 07-09-2014 17:35:00 23.1 C 13.85 g/m*3 23.1 C 3.2 km/h
1050 07-09-2014 17:40:00 23.1 C 13.02 g/m*3 23.1 C 4.8 km/h
Sensor: Nr:Datum:Temp:Abs-Feuchte:Windchill:Wind:
Aussen-T/F 1051 07-09-2014 17:45:00 23.2 C 13.1 g/m*3 23.2 C 3.2 km/h
1052 07-09-2014 17:50:00 23.2 C 13.1 g/m*3 23.2 C 4.8 km/h
1053 07-09-2014 17:55:00 23 C 13.36 g/m*3 23 C 3.2 km/h
1054 07-09-2014 18:00:00 22.6 C 13.86 g/m*3 22.6 C 4.8 km/h
1055 07-09-2014 18:05:00 22.4 C 13.31 g/m*3 22.4 C 4.8 km/h
1056 07-09-2014 18:10:00 22.3 C 13.03 g/m*3 22.3 C 8.1 km/h
1057 07-09-2014 18:15:00 22.3 C 13.03 g/m*3 22.3 C 6.4 km/h
1058 07-09-2014 18:20:00 22.3 C 13.43 g/m*3 22.3 C 6.4 km/h
1059 07-09-2014 18:25:00 22.3 C 13.03 g/m*3 22.3 C 6.4 km/h
1060 07-09-2014 18:30:00 22.3 C 13.43 g/m*3 22.3 C 3.2 km/h
1061 07-09-2014 18:35:00 22.2 C 13.55 g/m*3 22.2 C 6.4 km/h
1062 07-09-2014 18:40:00 22 C 14.17 g/m*3 22 C 4.8 km/h
1063 07-09-2014 18:45:00 21.4 C 14.06 g/m*3 21.4 C 4.8 km/h
1064 07-09-2014 18:50:00 20.9 C 14.02 g/m*3 20.9 C 3.2 km/h
1065 07-09-2014 18:55:00 20.3 C 14.07 g/m*3 20.3 C 1.6 km/h
1066 07-09-2014 19:00:00 19.9 C 14.09 g/m*3 19.9 C 0 km/h
1067 07-09-2014 19:05:00 19.5 C 13.93 g/m*3 19.5 C 0 km/h
1068 07-09-2014 19:10:00 19.1 C 13.77 g/m*3 19.1 C 0 km/h
1069 07-09-2014 19:15:00 18.8 C 13.69 g/m*3 18.8 C 0 km/h
1070 07-09-2014 19:20:00 18.6 C 13.85 g/m*3 18.6 C 0 km/h
1071 07-09-2014 19:25:00 18.4 C 13.68 g/m*3 18.4 C 0 km/h
1072 07-09-2014 19:30:00 18.2 C 13.52 g/m*3 18.2 C 0 km/h
1073 07-09-2014 19:35:00 17.9 C 13.44 g/m*3 17.9 C 1.6 km/h
1074 07-09-2014 19:40:00 17.8 C 13.36 g/m*3 17.8 C 0 km/h
1075 07-09-2014 19:45:00 17.6 C 13.35 g/m*3 17.6 C 0 km/h
Sensor: Nr:Datum:Temp:Abs-Feuchte:Windchill:Wind:
Aussen-T/F 1076 07-09-2014 19:50:00 17.4 C 13.34 g/m*3 17.4 C 0 km/h
1077 07-09-2014 19:55:00 17.3 C 13.26 g/m*3 17.3 C 0 km/h
1078 07-09-2014 20:00:00 17.3 C 13.11 g/m*3 17.3 C 0 km/h
1079 07-09-2014 20:05:00 17.3 C 13.26 g/m*3 17.3 C 0 km/h
1080 07-09-2014 20:10:00 17.3 C 13.26 g/m*3 17.3 C 0 km/h
1081 07-09-2014 20:15:00 17.2 C 13.18 g/m*3 17.2 C 0 km/h
1082 07-09-2014 20:20:00 17.2 C 13.18 g/m*3 17.2 C 0 km/h
1083 07-09-2014 20:25:00 17.1 C 13.25 g/m*3 17.1 C 0 km/h
1084 07-09-2014 20:30:00 17 C 13.02 g/m*3 17 C 0 km/h
1085 07-09-2014 20:35:00 16.9 C 12.94 g/m*3 16.9 C 0 km/h
1086 07-09-2014 20:40:00 16.9 C 12.94 g/m*3 16.9 C 0 km/h
1087 07-09-2014 20:45:00 16.9 C 12.94 g/m*3 16.9 C 0 km/h
1088 07-09-2014 20:50:00 16.9 C 13.09 g/m*3 16.9 C 0 km/h
1089 07-09-2014 20:55:00 16.9 C 13.09 g/m*3 16.9 C 0 km/h
1090 07-09-2014 21:00:00 16.9 C 13.09 g/m*3 16.9 C 0 km/h
1091 07-09-2014 21:05:00 16.9 C 13.09 g/m*3 16.9 C 0 km/h
1092 07-09-2014 21:10:00 16.9 C 13.09 g/m*3 16.9 C 0 km/h
1093 07-09-2014 21:15:00 16.9 C 13.09 g/m*3 16.9 C 0 km/h
1094 07-09-2014 21:20:00 16.8 C 13.01 g/m*3 16.8 C 0 km/h
1095 07-09-2014 21:25:00 16.9 C 13.23 g/m*3 16.9 C 0 km/h
1096 07-09-2014 21:30:00 16.8 C 13.15 g/m*3 16.8 C 0 km/h
1097 07-09-2014 21:35:00 16.8 C 13.01 g/m*3 16.8 C 0 km/h
1098 07-09-2014 21:40:00 16.8 C 13.15 g/m*3 16.8 C 0 km/h
1099 07-09-2014 21:45:00 16.8 C 13.15 g/m*3 16.8 C 0 km/h
1100 07-09-2014 21:50:00 16.8 C 13.15 g/m*3 16.8 C 0 km/h
Sensor: Nr:Datum:Temp:Abs-Feuchte:Windchill:Wind:
Aussen-T/F 1101 07-09-2014 21:55:00 16.9 C 13.23 g/m*3 16.9 C 0 km/h
1102 07-09-2014 22:00:00 16.8 C 13.15 g/m*3 16.8 C 0 km/h
1103 07-09-2014 22:05:00 16.8 C 13.15 g/m*3 16.8 C 0 km/h
1104 07-09-2014 22:10:00 16.8 C 13.15 g/m*3 16.8 C 0 km/h
1105 07-09-2014 22:15:00 16.8 C 13.15 g/m*3 16.8 C 0 km/h
1106 07-09-2014 22:20:00 16.8 C 13.15 g/m*3 16.8 C 0 km/h
1107 07-09-2014 22:25:00 16.7 C 13.07 g/m*3 16.7 C 0 km/h
1108 07-09-2014 22:30:00 16.7 C 13.07 g/m*3 16.7 C 0 km/h
1109 07-09-2014 22:35:00 16.7 C 13.07 g/m*3 16.7 C 0 km/h
1110 07-09-2014 22:40:00 16.7 C 13.07 g/m*3 16.7 C 0 km/h
1111 07-09-2014 22:45:00 16.7 C 13.07 g/m*3 16.7 C 0 km/h
1112 07-09-2014 22:50:00 16.6 C 13 g/m*3 16.6 C 0 km/h
1113 07-09-2014 22:55:00 16.6 C 13 g/m*3 16.6 C 0 km/h
1114 07-09-2014 23:00:00 16.6 C 13 g/m*3 16.6 C 0 km/h
1115 07-09-2014 23:05:00 16.6 C 13 g/m*3 16.6 C 0 km/h
1116 07-09-2014 23:10:00 16.5 C 12.92 g/m*3 16.5 C 0 km/h
1117 07-09-2014 23:15:00 16.4 C 12.84 g/m*3 16.4 C 0 km/h
1118 07-09-2014 23:20:00 16.4 C 12.84 g/m*3 16.4 C 0 km/h
1119 07-09-2014 23:25:00 16.4 C 12.84 g/m*3 16.4 C 0 km/h
1120 07-09-2014 23:30:00 16.4 C 12.84 g/m*3 16.4 C 1.6 km/h
1121 07-09-2014 23:35:00 16.3 C 12.9 g/m*3 16.3 C 0 km/h
1122 07-09-2014 23:40:00 16.3 C 12.9 g/m*3 16.3 C 0 km/h
1123 07-09-2014 23:45:00 16.3 C 12.9 g/m*3 16.3 C 0 km/h
1124 07-09-2014 23:50:00 16.2 C 12.82 g/m*3 16.2 C 0 km/h
1125 07-09-2014 23:55:00 16.2 C 12.82 g/m*3 16.2 C 0 km/h
Sensor: Nr:Datum:Temp:Abs-Feuchte:Windchill:Wind:
Aussen-T/F 1126 08-09-2014 00:00:00 16.1 C 12.61 g/m*3 16.1 C 0 km/h
1127 08-09-2014 00:05:00 16.1 C 12.75 g/m*3 16.1 C 0 km/h
1128 08-09-2014 00:10:00 15.9 C 12.59 g/m*3 15.9 C 0 km/h
1129 08-09-2014 00:15:00 15.9 C 12.59 g/m*3 15.9 C 0 km/h
1130 08-09-2014 00:20:00 15.8 C 12.52 g/m*3 15.8 C 0 km/h
1131 08-09-2014 00:25:00 15.8 C 12.52 g/m*3 15.8 C 0 km/h
1132 08-09-2014 00:30:00 15.7 C 12.44 g/m*3 15.7 C 0 km/h
1133 08-09-2014 00:35:00 15.6 C 12.5 g/m*3 15.6 C 0 km/h
1134 08-09-2014 00:40:00 15.5 C 12.43 g/m*3 15.5 C 0 km/h
1135 08-09-2014 00:45:00 15.4 C 12.35 g/m*3 15.4 C 0 km/h
1136 08-09-2014 00:50:00 15.4 C 12.35 g/m*3 15.4 C 0 km/h
1137 08-09-2014 00:55:00 15.4 C 12.35 g/m*3 15.4 C 0 km/h
1138 08-09-2014 01:00:00 15.4 C 12.35 g/m*3 15.4 C 0 km/h
1139 08-09-2014 01:05:00 15.5 C 12.43 g/m*3 15.5 C 0 km/h
1140 08-09-2014 01:10:00 15.5 C 12.43 g/m*3 15.5 C 0 km/h
1141 08-09-2014 01:15:00 15.5 C 12.43 g/m*3 15.5 C 0 km/h
1142 08-09-2014 01:20:00 15.5 C 12.43 g/m*3 15.5 C 0 km/h
1143 08-09-2014 01:25:00 15.4 C 12.35 g/m*3 15.4 C 0 km/h
1144 08-09-2014 01:30:00 15.4 C 12.48 g/m*3 15.4 C 0 km/h
1145 08-09-2014 01:35:00 15.4 C 12.48 g/m*3 15.4 C 0 km/h
1146 08-09-2014 01:40:00 15.4 C 12.48 g/m*3 15.4 C 0 km/h
1147 08-09-2014 01:45:00 15.4 C 12.48 g/m*3 15.4 C 0 km/h
1148 08-09-2014 01:50:00 15.3 C 12.41 g/m*3 15.3 C 0 km/h
1149 08-09-2014 01:55:00 15.3 C 12.41 g/m*3 15.3 C 0 km/h
1150 08-09-2014 02:00:00 15.2 C 12.2 g/m*3 15.2 C 0 km/h
Sensor: Nr:Datum:Temp:Abs-Feuchte:Windchill:Wind:
Aussen-T/F 1151 08-09-2014 02:05:00 15.1 C 12.26 g/m*3 15.1 C 0 km/h
1152 08-09-2014 02:10:00 15.1 C 12.26 g/m*3 15.1 C 0 km/h
1153 08-09-2014 02:15:00 15.1 C 12.26 g/m*3 15.1 C 0 km/h
1154 08-09-2014 02:20:00 15 C 12.18 g/m*3 15 C 0 km/h
1155 08-09-2014 02:25:00 14.9 C 12.11 g/m*3 14.9 C 0 km/h
1156 08-09-2014 02:30:00 14.9 C 12.11 g/m*3 14.9 C 0 km/h
1157 08-09-2014 02:35:00 15 C 12.18 g/m*3 15 C 0 km/h
1158 08-09-2014 02:40:00 15 C 12.31 g/m*3 15 C 0 km/h
1159 08-09-2014 02:45:00 15.1 C 12.26 g/m*3 15.1 C 0 km/h
1160 08-09-2014 02:50:00 15.1 C 12.26 g/m*3 15.1 C 0 km/h
1161 08-09-2014 02:55:00 15.1 C 12.26 g/m*3 15.1 C 0 km/h
1162 08-09-2014 03:00:00 15 C 12.31 g/m*3 15 C 0 km/h
1163 08-09-2014 03:05:00 15.1 C 12.39 g/m*3 15.1 C 0 km/h
1164 08-09-2014 03:10:00 15.1 C 12.26 g/m*3 15.1 C 0 km/h
1165 08-09-2014 03:15:00 15.1 C 12.39 g/m*3 15.1 C 0 km/h
1166 08-09-2014 03:20:00 15.1 C 12.39 g/m*3 15.1 C 0 km/h
1167 08-09-2014 03:25:00 15 C 12.31 g/m*3 15 C 0 km/h
1168 08-09-2014 03:30:00 15 C 12.18 g/m*3 15 C 0 km/h
1169 08-09-2014 03:35:00 14.9 C 12.24 g/m*3 14.9 C 0 km/h
1170 08-09-2014 03:40:00 15 C 12.31 g/m*3 15 C 0 km/h
1171 08-09-2014 03:45:00 15 C 12.31 g/m*3 15 C 0 km/h
1172 08-09-2014 03:50:00 15.1 C 12.39 g/m*3 15.1 C 0 km/h
1173 08-09-2014 03:55:00 15.1 C 12.39 g/m*3 15.1 C 0 km/h
1174 08-09-2014 04:00:00 15.1 C 12.39 g/m*3 15.1 C 0 km/h
1175 08-09-2014 04:05:00 15.1 C 12.39 g/m*3 15.1 C 0 km/h
Sensor: Nr:Datum:Temp:Abs-Feuchte:Windchill:Wind:
Aussen-T/F 1176 08-09-2014 04:10:00 15.1 C 12.39 g/m*3 15.1 C 0 km/h
1177 08-09-2014 04:15:00 15.1 C 12.39 g/m*3 15.1 C 0 km/h
1178 08-09-2014 04:20:00 15 C 12.31 g/m*3 15 C 0 km/h
1179 08-09-2014 04:25:00 14.9 C 12.11 g/m*3 14.9 C 0 km/h
1180 08-09-2014 04:30:00 14.8 C 12.16 g/m*3 14.8 C 0 km/h
1181 08-09-2014 04:35:00 14.7 C 12.09 g/m*3 14.7 C 0 km/h
1182 08-09-2014 04:40:00 14.7 C 12.09 g/m*3 14.7 C 0 km/h
1183 08-09-2014 04:45:00 14.6 C 12.01 g/m*3 14.6 C 0 km/h
1184 08-09-2014 04:50:00 14.5 C 11.94 g/m*3 14.5 C 0 km/h
1185 08-09-2014 04:55:00 14.4 C 11.87 g/m*3 14.4 C 0 km/h
1186 08-09-2014 05:00:00 14.4 C 11.87 g/m*3 14.4 C 0 km/h
1187 08-09-2014 05:05:00 14.3 C 11.79 g/m*3 14.3 C 0 km/h
1188 08-09-2014 05:10:00 14.3 C 11.79 g/m*3 14.3 C 0 km/h
1189 08-09-2014 05:15:00 14.3 C 11.79 g/m*3 14.3 C 0 km/h
1190 08-09-2014 05:20:00 14.3 C 11.79 g/m*3 14.3 C 0 km/h
1191 08-09-2014 05:25:00 14.2 C 11.72 g/m*3 14.2 C 0 km/h
1192 08-09-2014 05:30:00 14.3 C 11.92 g/m*3 14.3 C 0 km/h
1193 08-09-2014 05:35:00 14.3 C 11.92 g/m*3 14.3 C 0 km/h
1194 08-09-2014 05:40:00 14.4 C 11.99 g/m*3 14.4 C 0 km/h
1195 08-09-2014 05:45:00 14.4 C 11.99 g/m*3 14.4 C 0 km/h
1196 08-09-2014 05:50:00 14.4 C 11.99 g/m*3 14.4 C 0 km/h
1197 08-09-2014 05:55:00 14.4 C 11.99 g/m*3 14.4 C 0 km/h
1198 08-09-2014 06:00:00 14.4 C 11.99 g/m*3 14.4 C 0 km/h
1199 08-09-2014 06:05:00 14.4 C 11.99 g/m*3 14.4 C 0 km/h
1200 08-09-2014 06:10:00 14.4 C 11.99 g/m*3 14.4 C 0 km/h
Sensor: Nr:Datum:Temp:Abs-Feuchte:Windchill:Wind:
Aussen-T/F 1201 08-09-2014 06:15:00 14.4 C 11.99 g/m*3 14.4 C 0 km/h
1202 08-09-2014 06:20:00 14.4 C 11.99 g/m*3 14.4 C 0 km/h
1203 08-09-2014 06:25:00 14.3 C 11.92 g/m*3 14.3 C 0 km/h
1204 08-09-2014 06:30:00 14.3 C 11.92 g/m*3 14.3 C 0 km/h
1205 08-09-2014 06:35:00 14.3 C 11.92 g/m*3 14.3 C 0 km/h
1206 08-09-2014 06:40:00 14.3 C 11.92 g/m*3 14.3 C 0 km/h
1207 08-09-2014 06:45:00 14.3 C 11.92 g/m*3 14.3 C 0 km/h
1208 08-09-2014 06:50:00 14.2 C 11.84 g/m*3 14.2 C 0 km/h
1209 08-09-2014 06:55:00 14.2 C 11.84 g/m*3 14.2 C 0 km/h
1210 08-09-2014 07:00:00 14.2 C 11.84 g/m*3 14.2 C 0 km/h
1211 08-09-2014 07:05:00 14.2 C 11.84 g/m*3 14.2 C 0 km/h
1212 08-09-2014 07:10:00 14.2 C 11.84 g/m*3 14.2 C 0 km/h
1213 08-09-2014 07:15:00 14.2 C 11.84 g/m*3 14.2 C 0 km/h
1214 08-09-2014 07:20:00 14.2 C 11.84 g/m*3 14.2 C 0 km/h
1215 08-09-2014 07:25:00 14.3 C 11.92 g/m*3 14.3 C 0 km/h
1216 08-09-2014 07:30:00 14.3 C 11.92 g/m*3 14.3 C 0 km/h
1217 08-09-2014 07:35:00 14.4 C 11.99 g/m*3 14.4 C 0 km/h
1218 08-09-2014 07:40:00 14.4 C 11.99 g/m*3 14.4 C 0 km/h
1219 08-09-2014 07:45:00 14.5 C 12.06 g/m*3 14.5 C 0 km/h
1220 08-09-2014 07:50:00 14.5 C 12.06 g/m*3 14.5 C 0 km/h
1221 08-09-2014 07:55:00 14.6 C 12.14 g/m*3 14.6 C 0 km/h
1222 08-09-2014 08:00:00 14.7 C 12.21 g/m*3 14.7 C 0 km/h
1223 08-09-2014 08:05:00 14.7 C 12.21 g/m*3 14.7 C 0 km/h
1224 08-09-2014 08:10:00 14.7 C 12.21 g/m*3 14.7 C 0 km/h
1225 08-09-2014 08:15:00 14.8 C 12.29 g/m*3 14.8 C 0 km/h
Sensor: Nr:Datum:Temp:Abs-Feuchte:Windchill:Wind:
Aussen-T/F 1226 08-09-2014 08:20:00 14.8 C 12.29 g/m*3 14.8 C 0 km/h
1227 08-09-2014 08:25:00 14.9 C 12.36 g/m*3 14.9 C 0 km/h
1228 08-09-2014 08:30:00 14.9 C 12.36 g/m*3 14.9 C 0 km/h
1229 08-09-2014 08:35:00 15 C 12.44 g/m*3 15 C 0 km/h
1230 08-09-2014 08:40:00 15.1 C 12.51 g/m*3 15.1 C 0 km/h
1231 08-09-2014 08:45:00 15.1 C 12.51 g/m*3 15.1 C 0 km/h
1232 08-09-2014 08:50:00 15.2 C 12.59 g/m*3 15.2 C 0 km/h
1233 08-09-2014 08:55:00 15.4 C 12.74 g/m*3 15.4 C 0 km/h
1234 08-09-2014 09:00:00 15.5 C 12.82 g/m*3 15.5 C 0 km/h
1235 08-09-2014 09:05:00 15.6 C 12.9 g/m*3 15.6 C 0 km/h
1236 08-09-2014 09:10:00 15.7 C 12.84 g/m*3 15.7 C 0 km/h
1237 08-09-2014 09:15:00 15.8 C 12.92 g/m*3 15.8 C 0 km/h
1238 08-09-2014 09:20:00 15.9 C 12.87 g/m*3 15.9 C 0 km/h
1239 08-09-2014 09:25:00 16 C 12.94 g/m*3 16 C 0 km/h
1240 08-09-2014 09:30:00 16.2 C 13.1 g/m*3 16.2 C 0 km/h
1241 08-09-2014 09:35:00 16.3 C 13.18 g/m*3 16.3 C 0 km/h
1242 08-09-2014 09:40:00 16.4 C 13.12 g/m*3 16.4 C 1.6 km/h
1243 08-09-2014 09:45:00 16.5 C 13.06 g/m*3 16.5 C 0 km/h
1244 08-09-2014 09:50:00 16.7 C 13.22 g/m*3 16.7 C 0 km/h
1245 08-09-2014 09:55:00 16.8 C 13.15 g/m*3 16.8 C 0 km/h
1246 08-09-2014 10:00:00 16.8 C 13.01 g/m*3 16.8 C 0 km/h
1247 08-09-2014 10:05:00 16.9 C 13.09 g/m*3 16.9 C 0 km/h
1248 08-09-2014 10:10:00 17.1 C 13.25 g/m*3 17.1 C 0 km/h
1249 08-09-2014 10:15:00 17.2 C 13.18 g/m*3 17.2 C 0 km/h
1250 08-09-2014 10:20:00 17.3 C 13.11 g/m*3 17.3 C 0 km/h
Sensor: Nr:Datum:Temp:Abs-Feuchte:Windchill:Wind:
Aussen-T/F 1251 08-09-2014 10:25:00 17.3 C 13.11 g/m*3 17.3 C 1.6 km/h
1252 08-09-2014 10:30:00 17.3 C 13.11 g/m*3 17.3 C 0 km/h
1253 08-09-2014 10:35:00 17.4 C 13.04 g/m*3 17.4 C 0 km/h
1254 08-09-2014 10:40:00 17.4 C 13.19 g/m*3 17.4 C 0 km/h
1255 08-09-2014 10:45:00 17.5 C 13.12 g/m*3 17.5 C 1.6 km/h
1256 08-09-2014 10:50:00 17.6 C 13.35 g/m*3 17.6 C 0 km/h
1257 08-09-2014 10:55:00 17.6 C 13.2 g/m*3 17.6 C 1.6 km/h
1258 08-09-2014 11:00:00 17.7 C 13.43 g/m*3 17.7 C 1.6 km/h
1259 08-09-2014 11:05:00 17.7 C 13.43 g/m*3 17.7 C 0 km/h
1260 08-09-2014 11:10:00 17.7 C 13.43 g/m*3 17.7 C 0 km/h
1261 08-09-2014 11:15:00 17.8 C 13.51 g/m*3 17.8 C 0 km/h
1262 08-09-2014 11:20:00 17.8 C 13.51 g/m*3 17.8 C 0 km/h
1263 08-09-2014 11:25:00 17.8 C 13.51 g/m*3 17.8 C 0 km/h
1264 08-09-2014 11:30:00 17.8 C 13.51 g/m*3 17.8 C 0 km/h
1265 08-09-2014 11:35:00 17.8 C 13.66 g/m*3 17.8 C 0 km/h
1266 08-09-2014 11:40:00 17.8 C 13.51 g/m*3 17.8 C 0 km/h
1267 08-09-2014 11:45:00 17.8 C 13.36 g/m*3 17.8 C 0 km/h
1268 08-09-2014 11:50:00 17.9 C 13.59 g/m*3 17.9 C 0 km/h
1269 08-09-2014 11:55:00 17.8 C 13.51 g/m*3 17.8 C 0 km/h
1270 08-09-2014 12:00:00 17.8 C 13.66 g/m*3 17.8 C 0 km/h
1271 08-09-2014 12:05:00 17.8 C 13.66 g/m*3 17.8 C 0 km/h
1272 08-09-2014 12:10:00 17.8 C 13.66 g/m*3 17.8 C 0 km/h
1273 08-09-2014 12:15:00 17.9 C 13.44 g/m*3 17.9 C 0 km/h
1274 08-09-2014 12:20:00 18.3 C 13.45 g/m*3 18.3 C 1.6 km/h
1275 08-09-2014 12:25:00 18.5 C 13.61 g/m*3 18.5 C 0 km/h
Sensor: Nr:Datum:Temp:Abs-Feuchte:Windchill:Wind:
Aussen-T/F 1276 08-09-2014 12:30:00 18.7 C 13.45 g/m*3 18.7 C 0 km/h
1277 08-09-2014 12:35:00 18.9 C 14.09 g/m*3 18.9 C 0 km/h
1278 08-09-2014 12:40:00 18.9 C 13.61 g/m*3 18.9 C 1.6 km/h
1279 08-09-2014 12:45:00 19 C 14.01 g/m*3 19 C 1.6 km/h
1280 08-09-2014 12:50:00 19.2 C 14.02 g/m*3 19.2 C 1.6 km/h
1281 08-09-2014 12:55:00 19.6 C 13.84 g/m*3 19.6 C 0 km/h
1282 08-09-2014 13:00:00 20.1 C 14.43 g/m*3 20.1 C 1.6 km/h
1283 08-09-2014 13:05:00 20.6 C 13.78 g/m*3 20.6 C 8.1 km/h
1284 08-09-2014 13:10:00 21.3 C 14.17 g/m*3 21.3 C 6.4 km/h
1285 08-09-2014 13:15:00 21.9 C 14.28 g/m*3 21.9 C 6.4 km/h
1286 08-09-2014 13:20:00 22.3 C 14.41 g/m*3 22.3 C 0 km/h
1287 08-09-2014 13:25:00 22.5 C 13.78 g/m*3 22.5 C 8.1 km/h
1288 08-09-2014 13:30:00 22.6 C 13.46 g/m*3 22.6 C 9.7 km/h
1289 08-09-2014 13:35:00 22.6 C 14.87 g/m*3 22.6 C 3.2 km/h
1290 08-09-2014 13:40:00 22.3 C 15.4 g/m*3 22.3 C 0 km/h
1291 08-09-2014 13:45:00 22.3 C 13.43 g/m*3 22.3 C 3.2 km/h
1292 08-09-2014 13:50:00 22.5 C 13.98 g/m*3 22.5 C 9.7 km/h
1293 08-09-2014 13:55:00 22.6 C 13.66 g/m*3 22.6 C 8.1 km/h
1294 08-09-2014 14:00:00 22.6 C 13.26 g/m*3 22.6 C 4.8 km/h
1295 08-09-2014 14:05:00 22.8 C 13.61 g/m*3 22.8 C 3.2 km/h
1296 08-09-2014 14:10:00 23.1 C 13.64 g/m*3 23.1 C 3.2 km/h
1297 08-09-2014 14:15:00 23.2 C 13.51 g/m*3 23.2 C 6.4 km/h
1298 08-09-2014 14:20:00 23.2 C 13.51 g/m*3 23.2 C 8.1 km/h
1299 08-09-2014 14:25:00 23.1 C 12.61 g/m*3 23.1 C 6.4 km/h
1300 08-09-2014 14:30:00 23 C 12.95 g/m*3 23 C 6.4 km/h
Sensor: Nr:Datum:Temp:Abs-Feuchte:Windchill:Wind:
Aussen-T/F 1301 08-09-2014 14:35:00 22.8 C 12.6 g/m*3 22.8 C 6.4 km/h
1302 08-09-2014 14:40:00 22.4 C 13.11 g/m*3 22.4 C 3.2 km/h
1303 08-09-2014 14:45:00 22.5 C 13.18 g/m*3 22.5 C 8.1 km/h
1304 08-09-2014 14:50:00 22.7 C 13.54 g/m*3 22.7 C 8.1 km/h
1305 08-09-2014 14:55:00 22.9 C 12.88 g/m*3 22.9 C 9.7 km/h
1306 08-09-2014 15:00:00 23.1 C 12.82 g/m*3 23.1 C 6.4 km/h
1307 08-09-2014 15:05:00 23.1 C 12.4 g/m*3 23.1 C 6.4 km/h
1308 08-09-2014 15:10:00 23.1 C 12.82 g/m*3 23.1 C 6.4 km/h
1309 08-09-2014 15:15:00 22.9 C 13.49 g/m*3 22.9 C 4.8 km/h
1310 08-09-2014 15:20:00 23 C 13.57 g/m*3 23 C 6.4 km/h
1311 08-09-2014 15:25:00 23.2 C 13.51 g/m*3 23.2 C 4.8 km/h
1312 08-09-2014 15:30:00 23.3 C 13.38 g/m*3 23.3 C 4.8 km/h
1313 08-09-2014 15:35:00 23.4 C 12.62 g/m*3 23.4 C 9.7 km/h
1314 08-09-2014 15:40:00 23.6 C 12.34 g/m*3 23.6 C 4.8 km/h
1315 08-09-2014 15:45:00 23.8 C 12.26 g/m*3 23.8 C 3.2 km/h
1316 08-09-2014 15:50:00 24 C 13.27 g/m*3 24 C 8.1 km/h
1317 08-09-2014 15:55:00 23.9 C 12.98 g/m*3 23.9 C 11.3 km/h
1318 08-09-2014 16:00:00 23.9 C 13.2 g/m*3 23.9 C 11.3 km/h
1319 08-09-2014 16:05:00 23.9 C 12.55 g/m*3 23.9 C 9.7 km/h
1320 08-09-2014 16:10:00 23.9 C 12.55 g/m*3 23.9 C 6.4 km/h
1321 08-09-2014 16:15:00 24.1 C 13.35 g/m*3 24.1 C 3.2 km/h
1322 08-09-2014 16:20:00 24.3 C 12.83 g/m*3 24.3 C 8.1 km/h
1323 08-09-2014 16:25:00 24.5 C 13.2 g/m*3 24.5 C 8.1 km/h
1324 08-09-2014 16:30:00 24.4 C 12.69 g/m*3 24.4 C 8.1 km/h
1325 08-09-2014 16:35:00 24.4 C 11.79 g/m*3 24.4 C 8.1 km/h
Sensor: Nr:Datum:Temp:Abs-Feuchte:Windchill:Wind:
Aussen-T/F 1326 08-09-2014 16:40:00 24.3 C 12.39 g/m*3 24.3 C 6.4 km/h
1327 08-09-2014 16:45:00 24.5 C 12.09 g/m*3 24.5 C 6.4 km/h
1328 08-09-2014 16:50:00 24.5 C 12.31 g/m*3 24.5 C 3.2 km/h
1329 08-09-2014 16:55:00 24.4 C 13.13 g/m*3 24.4 C 6.4 km/h
1330 08-09-2014 17:00:00 24.3 C 12.39 g/m*3 24.3 C 4.8 km/h
1331 08-09-2014 17:05:00 24.4 C 12.24 g/m*3 24.4 C 6.4 km/h
1332 08-09-2014 17:10:00 24.4 C 12.24 g/m*3 24.4 C 8.1 km/h
1333 08-09-2014 17:15:00 24.5 C 12.09 g/m*3 24.5 C 4.8 km/h
1334 08-09-2014 17:20:00 24.5 C 12.53 g/m*3 24.5 C 6.4 km/h
1335 08-09-2014 17:25:00 24.2 C 11.66 g/m*3 24.2 C 11.3 km/h
1336 08-09-2014 17:30:00 23.7 C 11.98 g/m*3 23.7 C 6.4 km/h
1337 08-09-2014 17:35:00 23.2 C 12.89 g/m*3 23.2 C 3.2 km/h
1338 08-09-2014 17:40:00 22.7 C 12.93 g/m*3 22.7 C 6.4 km/h
1339 08-09-2014 17:45:00 22.3 C 13.62 g/m*3 22.3 C 4.8 km/h
1340 08-09-2014 17:50:00 21.6 C 14.03 g/m*3 21.6 C 1.6 km/h
1341 08-09-2014 17:55:00 21.2 C 14.08 g/m*3 21.2 C 0 km/h
1342 08-09-2014 18:00:00 21.1 C 13.63 g/m*3 21.1 C 3.2 km/h
1343 08-09-2014 18:05:00 21.4 C 12 g/m*3 21.4 C 8.1 km/h
1344 08-09-2014 18:10:00 21.9 C 12.35 g/m*3 21.9 C 9.7 km/h
1345 08-09-2014 18:15:00 22.4 C 12.71 g/m*3 22.4 C 9.7 km/h
1346 08-09-2014 18:20:00 22.7 C 12.53 g/m*3 22.7 C 8.1 km/h
1347 08-09-2014 18:25:00 22.8 C 12.4 g/m*3 22.8 C 9.7 km/h
1348 08-09-2014 18:30:00 22.8 C 12.8 g/m*3 22.8 C 8.1 km/h
1349 08-09-2014 18:35:00 22.8 C 12.6 g/m*3 22.8 C 6.4 km/h
1350 08-09-2014 18:40:00 22.8 C 12.6 g/m*3 22.8 C 4.8 km/h
Sensor: Nr:Datum:Temp:Abs-Feuchte:Windchill:Wind:
Aussen-T/F 1351 08-09-2014 18:45:00 22.7 C 12.12 g/m*3 22.7 C 9.7 km/h
1352 08-09-2014 18:50:00 22.6 C 11.85 g/m*3 22.6 C 6.4 km/h
1353 08-09-2014 18:55:00 22.4 C 12.11 g/m*3 22.4 C 3.2 km/h
1354 08-09-2014 19:00:00 22.2 C 11.78 g/m*3 22.2 C 3.2 km/h
1355 08-09-2014 19:05:00 22.1 C 12.1 g/m*3 22.1 C 4.8 km/h
1356 08-09-2014 19:10:00 21.9 C 11.77 g/m*3 21.9 C 4.8 km/h
1357 08-09-2014 19:15:00 21.8 C 12.28 g/m*3 21.8 C 3.2 km/h
1358 08-09-2014 19:20:00 21.4 C 12.19 g/m*3 21.4 C 6.4 km/h
1359 08-09-2014 19:25:00 21.2 C 12.05 g/m*3 21.2 C 4.8 km/h
1360 08-09-2014 19:30:00 21 C 12.64 g/m*3 21 C 3.2 km/h
1361 08-09-2014 19:35:00 20.7 C 12.96 g/m*3 20.7 C 4.8 km/h
1362 08-09-2014 19:40:00 20.4 C 12.74 g/m*3 20.4 C 6.4 km/h
1363 08-09-2014 19:45:00 19.9 C 12.37 g/m*3 19.9 C 3.2 km/h
1364 08-09-2014 19:50:00 19.8 C 12.13 g/m*3 19.8 C 6.4 km/h
1365 08-09-2014 19:55:00 19.7 C 12.57 g/m*3 19.7 C 8.1 km/h
1366 08-09-2014 20:00:00 19.5 C 12.42 g/m*3 19.5 C 4.8 km/h
1367 08-09-2014 20:05:00 19.3 C 12.77 g/m*3 19.3 C 1.6 km/h
1368 08-09-2014 20:10:00 18.9 C 12.8 g/m*3 18.9 C 1.6 km/h
1369 08-09-2014 20:15:00 18.5 C 12.34 g/m*3 18.5 C 6.4 km/h
1370 08-09-2014 20:20:00 18.2 C 12.59 g/m*3 18.2 C 1.6 km/h
1371 08-09-2014 20:25:00 17.8 C 12.45 g/m*3 17.8 C 0 km/h
1372 08-09-2014 20:30:00 17.6 C 12.75 g/m*3 17.6 C 0 km/h
1373 08-09-2014 20:35:00 17.3 C 12.52 g/m*3 17.3 C 0 km/h
1374 08-09-2014 20:40:00 17.1 C 12.52 g/m*3 17.1 C 0 km/h
1375 08-09-2014 20:45:00 17 C 12.44 g/m*3 17 C 1.6 km/h
Sensor: Nr:Datum:Temp:Abs-Feuchte:Windchill:Wind:
Aussen-T/F 1376 08-09-2014 20:50:00 16.8 C 12.3 g/m*3 16.8 C 1.6 km/h
1377 08-09-2014 20:55:00 16.8 C 12.3 g/m*3 16.8 C 3.2 km/h
1378 08-09-2014 21:00:00 16.7 C 12.36 g/m*3 16.7 C 3.2 km/h
1379 08-09-2014 21:05:00 16.6 C 12.29 g/m*3 16.6 C 3.2 km/h
1380 08-09-2014 21:10:00 16.5 C 12.22 g/m*3 16.5 C 0 km/h
1381 08-09-2014 21:15:00 16.4 C 12.14 g/m*3 16.4 C 0 km/h
1382 08-09-2014 21:20:00 16.3 C 12.07 g/m*3 16.3 C 0 km/h
1383 08-09-2014 21:25:00 16.2 C 12 g/m*3 16.2 C 1.6 km/h
1384 08-09-2014 21:30:00 16.2 C 12 g/m*3 16.2 C 1.6 km/h
1385 08-09-2014 21:35:00 16.2 C 11.86 g/m*3 16.2 C 1.6 km/h
1386 08-09-2014 21:40:00 16.2 C 11.86 g/m*3 16.2 C 0 km/h
1387 08-09-2014 21:45:00 16.2 C 11.86 g/m*3 16.2 C 0 km/h
1388 08-09-2014 21:50:00 16.1 C 11.79 g/m*3 16.1 C 0 km/h
1389 08-09-2014 21:55:00 15.9 C 11.78 g/m*3 15.9 C 0 km/h
1390 08-09-2014 22:00:00 15.8 C 11.71 g/m*3 15.8 C 0 km/h
1391 08-09-2014 22:05:00 15.8 C 11.85 g/m*3 15.8 C 0 km/h
1392 08-09-2014 22:10:00 15.8 C 11.98 g/m*3 15.8 C 0 km/h
1393 08-09-2014 22:15:00 15.7 C 11.91 g/m*3 15.7 C 0 km/h
1394 08-09-2014 22:20:00 15.6 C 11.84 g/m*3 15.6 C 1.6 km/h
1395 08-09-2014 22:25:00 15.6 C 11.84 g/m*3 15.6 C 0 km/h
1396 08-09-2014 22:30:00 15.5 C 11.76 g/m*3 15.5 C 0 km/h
1397 08-09-2014 22:35:00 15.4 C 11.69 g/m*3 15.4 C 0 km/h
1398 08-09-2014 22:40:00 15.4 C 11.82 g/m*3 15.4 C 0 km/h
1399 08-09-2014 22:45:00 15.4 C 11.82 g/m*3 15.4 C 0 km/h
1400 08-09-2014 22:50:00 15.4 C 11.82 g/m*3 15.4 C 0 km/h
Sensor: Nr:Datum:Temp:Abs-Feuchte:Windchill:Wind:
Aussen-T/F 1401 08-09-2014 22:55:00 15.4 C 11.82 g/m*3 15.4 C 0 km/h
1402 08-09-2014 23:00:00 15.5 C 12.03 g/m*3 15.5 C 0 km/h
1403 08-09-2014 23:05:00 15.6 C 12.1 g/m*3 15.6 C 0 km/h
1404 08-09-2014 23:10:00 15.6 C 11.97 g/m*3 15.6 C 0 km/h
1405 08-09-2014 23:15:00 15.6 C 11.97 g/m*3 15.6 C 0 km/h
1406 08-09-2014 23:20:00 15.4 C 11.82 g/m*3 15.4 C 1.6 km/h
1407 08-09-2014 23:25:00 15.3 C 11.75 g/m*3 15.3 C 0 km/h
1408 08-09-2014 23:30:00 15.3 C 11.75 g/m*3 15.3 C 0 km/h
1409 08-09-2014 23:35:00 15.2 C 11.81 g/m*3 15.2 C 0 km/h
1410 08-09-2014 23:40:00 15.2 C 11.68 g/m*3 15.2 C 1.6 km/h
1411 08-09-2014 23:45:00 15.1 C 11.61 g/m*3 15.1 C 1.6 km/h
1412 08-09-2014 23:50:00 15 C 11.54 g/m*3 15 C 0 km/h
1413 08-09-2014 23:55:00 14.9 C 11.6 g/m*3 14.9 C 0 km/h
1414 09-09-2014 00:00:00 14.8 C 11.53 g/m*3 14.8 C 0 km/h
1415 09-09-2014 00:05:00 14.8 C 11.53 g/m*3 14.8 C 0 km/h
1416 09-09-2014 00:10:00 14.7 C 11.46 g/m*3 14.7 C 0 km/h
1417 09-09-2014 00:15:00 14.6 C 11.39 g/m*3 14.6 C 0 km/h
1418 09-09-2014 00:20:00 14.5 C 11.32 g/m*3 14.5 C 0 km/h
1419 09-09-2014 00:25:00 14.4 C 11.25 g/m*3 14.4 C 1.6 km/h
1420 09-09-2014 00:30:00 14.4 C 11.37 g/m*3 14.4 C 0 km/h
1421 09-09-2014 00:35:00 14.4 C 11.25 g/m*3 14.4 C 1.6 km/h
1422 09-09-2014 00:40:00 14.4 C 11.37 g/m*3 14.4 C 0 km/h
1423 09-09-2014 00:45:00 14.3 C 11.3 g/m*3 14.3 C 0 km/h
1424 09-09-2014 00:50:00 14.3 C 11.3 g/m*3 14.3 C 0 km/h
1425 09-09-2014 00:55:00 14.2 C 11.23 g/m*3 14.2 C 0 km/h
Sensor: Nr:Datum:Temp:Abs-Feuchte:Windchill:Wind:
Aussen-T/F 1426 09-09-2014 01:00:00 14.1 C 11.17 g/m*3 14.1 C 0 km/h
1427 09-09-2014 01:05:00 14.1 C 11.17 g/m*3 14.1 C 0 km/h
1428 09-09-2014 01:10:00 14.1 C 11.29 g/m*3 14.1 C 0 km/h
1429 09-09-2014 01:15:00 13.9 C 11.15 g/m*3 13.9 C 0 km/h
1430 09-09-2014 01:20:00 13.8 C 11.08 g/m*3 13.8 C 0 km/h
1431 09-09-2014 01:25:00 13.8 C 11.08 g/m*3 13.8 C 0 km/h
1432 09-09-2014 01:30:00 13.7 C 11.01 g/m*3 13.7 C 0 km/h
1433 09-09-2014 01:35:00 13.7 C 11.13 g/m*3 13.7 C 0 km/h
1434 09-09-2014 01:40:00 13.7 C 11.13 g/m*3 13.7 C 0 km/h
1435 09-09-2014 01:45:00 13.7 C 11.13 g/m*3 13.7 C 0 km/h
1436 09-09-2014 01:50:00 13.7 C 11.13 g/m*3 13.7 C 0 km/h
1437 09-09-2014 01:55:00 13.6 C 11.06 g/m*3 13.6 C 0 km/h
1438 09-09-2014 02:00:00 13.6 C 11.06 g/m*3 13.6 C 0 km/h
1439 09-09-2014 02:05:00 13.6 C 11.06 g/m*3 13.6 C 0 km/h
1440 09-09-2014 02:10:00 13.6 C 11.06 g/m*3 13.6 C 0 km/h
1441 09-09-2014 02:15:00 13.5 C 10.99 g/m*3 13.5 C 0 km/h
1442 09-09-2014 02:20:00 13.4 C 10.93 g/m*3 13.4 C 0 km/h
1443 09-09-2014 02:25:00 13.4 C 10.93 g/m*3 13.4 C 0 km/h
1444 09-09-2014 02:30:00 13.4 C 10.93 g/m*3 13.4 C 1.6 km/h
1445 09-09-2014 02:35:00 13.3 C 10.86 g/m*3 13.3 C 0 km/h
1446 09-09-2014 02:40:00 13.3 C 10.86 g/m*3 13.3 C 0 km/h
1447 09-09-2014 02:45:00 13.3 C 10.98 g/m*3 13.3 C 0 km/h
1448 09-09-2014 02:50:00 13.2 C 10.91 g/m*3 13.2 C 0 km/h
1449 09-09-2014 02:55:00 13.2 C 10.91 g/m*3 13.2 C 0 km/h
1450 09-09-2014 03:00:00 13.1 C 10.84 g/m*3 13.1 C 0 km/h
Sensor: Nr:Datum:Temp:Abs-Feuchte:Windchill:Wind:
Aussen-T/F 1451 09-09-2014 03:05:00 13.1 C 10.84 g/m*3 13.1 C 0 km/h
1452 09-09-2014 03:10:00 13.1 C 10.84 g/m*3 13.1 C 0 km/h
1453 09-09-2014 03:15:00 13 C 10.77 g/m*3 13 C 0 km/h
1454 09-09-2014 03:20:00 12.9 C 10.71 g/m*3 12.9 C 0 km/h
1455 09-09-2014 03:25:00 12.9 C 10.71 g/m*3 12.9 C 0 km/h
1456 09-09-2014 03:30:00 12.8 C 10.64 g/m*3 12.8 C 0 km/h
1457 09-09-2014 03:35:00 12.8 C 10.64 g/m*3 12.8 C 0 km/h
1458 09-09-2014 03:40:00 12.8 C 10.64 g/m*3 12.8 C 0 km/h
1459 09-09-2014 03:45:00 12.8 C 10.64 g/m*3 12.8 C 0 km/h
1460 09-09-2014 03:50:00 12.8 C 10.64 g/m*3 12.8 C 0 km/h
1461 09-09-2014 03:55:00 12.8 C 10.64 g/m*3 12.8 C 0 km/h
1462 09-09-2014 04:00:00 12.7 C 10.58 g/m*3 12.7 C 0 km/h
1463 09-09-2014 04:05:00 12.7 C 10.69 g/m*3 12.7 C 0 km/h
1464 09-09-2014 04:10:00 12.7 C 10.69 g/m*3 12.7 C 0 km/h
1465 09-09-2014 04:15:00 12.7 C 10.69 g/m*3 12.7 C 0 km/h
1466 09-09-2014 04:20:00 12.6 C 10.62 g/m*3 12.6 C 0 km/h
1467 09-09-2014 04:25:00 12.6 C 10.62 g/m*3 12.6 C 0 km/h
1468 09-09-2014 04:30:00 12.5 C 10.44 g/m*3 12.5 C 0 km/h
1469 09-09-2014 04:35:00 12.4 C 10.49 g/m*3 12.4 C 0 km/h
1470 09-09-2014 04:40:00 12.4 C 10.49 g/m*3 12.4 C 0 km/h
1471 09-09-2014 04:45:00 12.3 C 10.42 g/m*3 12.3 C 0 km/h
1472 09-09-2014 04:50:00 12.3 C 10.42 g/m*3 12.3 C 0 km/h
1473 09-09-2014 04:55:00 12.2 C 10.36 g/m*3 12.2 C 0 km/h
1474 09-09-2014 05:00:00 12.2 C 10.36 g/m*3 12.2 C 0 km/h
1475 09-09-2014 05:05:00 12.2 C 10.36 g/m*3 12.2 C 0 km/h
Sensor: Nr:Datum:Temp:Abs-Feuchte:Windchill:Wind:
Aussen-T/F 1476 09-09-2014 05:10:00 12.2 C 10.36 g/m*3 12.2 C 0 km/h
1477 09-09-2014 05:15:00 12.2 C 10.36 g/m*3 12.2 C 0 km/h
1478 09-09-2014 05:20:00 12.1 C 10.29 g/m*3 12.1 C 0 km/h
1479 09-09-2014 05:25:00 12.1 C 10.29 g/m*3 12.1 C 0 km/h
1480 09-09-2014 05:30:00 12.1 C 10.29 g/m*3 12.1 C 0 km/h
1481 09-09-2014 05:35:00 12.1 C 10.29 g/m*3 12.1 C 0 km/h
1482 09-09-2014 05:40:00 12 C 10.23 g/m*3 12 C 0 km/h
1483 09-09-2014 05:45:00 12.1 C 10.29 g/m*3 12.1 C 0 km/h
1484 09-09-2014 05:50:00 12 C 10.23 g/m*3 12 C 0 km/h
1485 09-09-2014 05:55:00 11.9 C 10.17 g/m*3 11.9 C 0 km/h
1486 09-09-2014 06:00:00 11.8 C 10.1 g/m*3 11.8 C 0 km/h
1487 09-09-2014 06:05:00 11.8 C 10.1 g/m*3 11.8 C 0 km/h
1488 09-09-2014 06:10:00 11.7 C 10.04 g/m*3 11.7 C 0 km/h
1489 09-09-2014 06:15:00 11.7 C 10.04 g/m*3 11.7 C 0 km/h
1490 09-09-2014 06:20:00 11.6 C 9.98 g/m*3 11.6 C 0 km/h
1491 09-09-2014 06:25:00 11.6 C 9.98 g/m*3 11.6 C 0 km/h
1492 09-09-2014 06:30:00 11.6 C 9.98 g/m*3 11.6 C 0 km/h
1493 09-09-2014 06:35:00 11.6 C 9.98 g/m*3 11.6 C 0 km/h
1494 09-09-2014 06:40:00 11.7 C 10.15 g/m*3 11.7 C 0 km/h
1495 09-09-2014 06:45:00 11.7 C 10.15 g/m*3 11.7 C 0 km/h
1496 09-09-2014 06:50:00 11.7 C 10.04 g/m*3 11.7 C 1.6 km/h
1497 09-09-2014 06:55:00 11.6 C 9.98 g/m*3 11.6 C 0 km/h
1498 09-09-2014 07:00:00 11.6 C 9.98 g/m*3 11.6 C 0 km/h
1499 09-09-2014 07:05:00 11.5 C 9.92 g/m*3 11.5 C 0 km/h
1500 09-09-2014 07:10:00 11.5 C 10.02 g/m*3 11.5 C 0 km/h
Sensor: Nr:Datum:Temp:Abs-Feuchte:Windchill:Wind:
Aussen-T/F 1501 09-09-2014 07:15:00 11.5 C 10.02 g/m*3 11.5 C 0 km/h
1502 09-09-2014 07:20:00 11.6 C 10.08 g/m*3 11.6 C 0 km/h
1503 09-09-2014 07:25:00 11.6 C 10.08 g/m*3 11.6 C 0 km/h
1504 09-09-2014 07:30:00 11.6 C 10.08 g/m*3 11.6 C 0 km/h
1505 09-09-2014 07:35:00 11.6 C 10.08 g/m*3 11.6 C 0 km/h
1506 09-09-2014 07:40:00 11.6 C 10.08 g/m*3 11.6 C 0 km/h
1507 09-09-2014 07:45:00 11.6 C 10.08 g/m*3 11.6 C 0 km/h
1508 09-09-2014 07:50:00 11.7 C 10.15 g/m*3 11.7 C 0 km/h
1509 09-09-2014 07:55:00 11.8 C 10.21 g/m*3 11.8 C 3.2 km/h
1510 09-09-2014 08:00:00 11.8 C 10.21 g/m*3 11.8 C 0 km/h
1511 09-09-2014 08:05:00 11.9 C 10.27 g/m*3 11.9 C 0 km/h
1512 09-09-2014 08:10:00 12.1 C 10.4 g/m*3 12.1 C 0 km/h
1513 09-09-2014 08:15:00 12.2 C 10.47 g/m*3 12.2 C 0 km/h
1514 09-09-2014 08:20:00 12.2 C 10.47 g/m*3 12.2 C 0 km/h
1515 09-09-2014 08:25:00 12.2 C 10.47 g/m*3 12.2 C 0 km/h
1516 09-09-2014 08:30:00 12.2 C 10.47 g/m*3 12.2 C 0 km/h
1517 09-09-2014 08:35:00 12.3 C 10.53 g/m*3 12.3 C 0 km/h
1518 09-09-2014 08:40:00 12.4 C 10.6 g/m*3 12.4 C 0 km/h
1519 09-09-2014 08:45:00 12.4 C 10.6 g/m*3 12.4 C 1.6 km/h
1520 09-09-2014 08:50:00 12.4 C 10.6 g/m*3 12.4 C 0 km/h
1521 09-09-2014 08:55:00 12.5 C 10.66 g/m*3 12.5 C 0 km/h
1522 09-09-2014 09:00:00 12.5 C 10.66 g/m*3 12.5 C 1.6 km/h
1523 09-09-2014 09:05:00 12.5 C 10.66 g/m*3 12.5 C 0 km/h
1524 09-09-2014 09:10:00 12.6 C 10.62 g/m*3 12.6 C 1.6 km/h
1525 09-09-2014 09:15:00 12.7 C 10.69 g/m*3 12.7 C 0 km/h
Sensor: Nr:Datum:Temp:Abs-Feuchte:Windchill:Wind:
Aussen-T/F 1526 09-09-2014 09:20:00 12.8 C 10.75 g/m*3 12.8 C 1.6 km/h
1527 09-09-2014 09:25:00 12.9 C 10.82 g/m*3 12.9 C 0 km/h
1528 09-09-2014 09:30:00 13.1 C 10.95 g/m*3 13.1 C 0 km/h
1529 09-09-2014 09:35:00 13.2 C 10.91 g/m*3 13.2 C 0 km/h
1530 09-09-2014 09:40:00 13.2 C 10.91 g/m*3 13.2 C 0 km/h
1531 09-09-2014 09:45:00 13.3 C 10.98 g/m*3 13.3 C 0 km/h
1532 09-09-2014 09:50:00 13.4 C 10.93 g/m*3 13.4 C 0 km/h
1533 09-09-2014 09:55:00 13.5 C 10.99 g/m*3 13.5 C 0 km/h
1534 09-09-2014 10:00:00 13.6 C 10.95 g/m*3 13.6 C 1.6 km/h
1535 09-09-2014 10:05:00 13.7 C 11.01 g/m*3 13.7 C 1.6 km/h
1536 09-09-2014 10:10:00 13.9 C 11.15 g/m*3 13.9 C 4.8 km/h
1537 09-09-2014 10:15:00 14 C 11.1 g/m*3 14 C 1.6 km/h
1538 09-09-2014 10:20:00 14.2 C 11.23 g/m*3 14.2 C 3.2 km/h
1539 09-09-2014 10:25:00 14.3 C 11.18 g/m*3 14.3 C 1.6 km/h
1540 09-09-2014 10:30:00 14.5 C 11.32 g/m*3 14.5 C 4.8 km/h
1541 09-09-2014 10:35:00 14.7 C 11.46 g/m*3 14.7 C 3.2 km/h
1542 09-09-2014 10:40:00 14.8 C 11.4 g/m*3 14.8 C 3.2 km/h
1543 09-09-2014 10:45:00 14.9 C 11.22 g/m*3 14.9 C 3.2 km/h
1544 09-09-2014 10:50:00 15.1 C 11.48 g/m*3 15.1 C 1.6 km/h
1545 09-09-2014 10:55:00 15.2 C 11.29 g/m*3 15.2 C 0 km/h
1546 09-09-2014 11:00:00 15.3 C 11.1 g/m*3 15.3 C 1.6 km/h
1547 09-09-2014 11:05:00 15.3 C 11.23 g/m*3 15.3 C 0 km/h
1548 09-09-2014 11:10:00 15.4 C 11.43 g/m*3 15.4 C 3.2 km/h
1549 09-09-2014 11:15:00 15.6 C 11.57 g/m*3 15.6 C 3.2 km/h
1550 09-09-2014 11:20:00 15.8 C 11.71 g/m*3 15.8 C 1.6 km/h
Sensor: Nr:Datum:Temp:Abs-Feuchte:Windchill:Wind:
Aussen-T/F 1551 09-09-2014 11:25:00 15.9 C 11.51 g/m*3 15.9 C 3.2 km/h
1552 09-09-2014 11:30:00 16 C 11.58 g/m*3 16 C 4.8 km/h
1553 09-09-2014 11:35:00 16.2 C 11.72 g/m*3 16.2 C 1.6 km/h
1554 09-09-2014 11:40:00 16.3 C 11.65 g/m*3 16.3 C 3.2 km/h
1555 09-09-2014 11:45:00 16.4 C 11.86 g/m*3 16.4 C 3.2 km/h
1556 09-09-2014 11:50:00 16.6 C 11.44 g/m*3 16.6 C 3.2 km/h
1557 09-09-2014 11:55:00 16.7 C 11.51 g/m*3 16.7 C 3.2 km/h
1558 09-09-2014 12:00:00 16.8 C 11.58 g/m*3 16.8 C 3.2 km/h
1559 09-09-2014 12:05:00 16.9 C 11.08 g/m*3 16.9 C 3.2 km/h
1560 09-09-2014 12:10:00 17.1 C 11.21 g/m*3 17.1 C 6.4 km/h
1561 09-09-2014 12:15:00 17.2 C 11.13 g/m*3 17.2 C 4.8 km/h
1562 09-09-2014 12:20:00 17.3 C 10.75 g/m*3 17.3 C 3.2 km/h
1563 09-09-2014 12:25:00 17.3 C 11.05 g/m*3 17.3 C 3.2 km/h
1564 09-09-2014 12:30:00 17.3 C 10.9 g/m*3 17.3 C 9.7 km/h
1565 09-09-2014 12:35:00 17.3 C 11.05 g/m*3 17.3 C 9.7 km/h
1566 09-09-2014 12:40:00 17.3 C 11.2 g/m*3 17.3 C 4.8 km/h
1567 09-09-2014 12:45:00 17.3 C 11.2 g/m*3 17.3 C 3.2 km/h
1568 09-09-2014 12:50:00 17.6 C 11.4 g/m*3 17.6 C 4.8 km/h
1569 09-09-2014 12:55:00 17.8 C 11.23 g/m*3 17.8 C 3.2 km/h
1570 09-09-2014 13:00:00 18.3 C 11.73 g/m*3 18.3 C 6.4 km/h
1571 09-09-2014 13:05:00 18.7 C 11.53 g/m*3 18.7 C 6.4 km/h
1572 09-09-2014 13:10:00 19.1 C 11.47 g/m*3 19.1 C 4.8 km/h
1573 09-09-2014 13:15:00 19.1 C 11.47 g/m*3 19.1 C 4.8 km/h
1574 09-09-2014 13:20:00 19.3 C 11.78 g/m*3 19.3 C 6.4 km/h
1575 09-09-2014 13:25:00 19.6 C 11.65 g/m*3 19.6 C 9.7 km/h
Sensor: Nr:Datum:Temp:Abs-Feuchte:Windchill:Wind:
Aussen-T/F 1576 09-09-2014 13:30:00 19.6 C 11.31 g/m*3 19.6 C 3.2 km/h
1577 09-09-2014 13:35:00 19.3 C 11.28 g/m*3 19.3 C 4.8 km/h
1578 09-09-2014 13:40:00 19.4 C 11.51 g/m*3 19.4 C 3.2 km/h
1579 09-09-2014 13:45:00 19.6 C 10.97 g/m*3 19.6 C 8.1 km/h
1580 09-09-2014 13:50:00 19.8 C 11.61 g/m*3 19.8 C 9.7 km/h
1581 09-09-2014 13:55:00 19.9 C 11 g/m*3 19.9 C 4.8 km/h
1582 09-09-2014 14:00:00 19.8 C 10.76 g/m*3 19.8 C 6.4 km/h
1583 09-09-2014 14:05:00 19.6 C 10.97 g/m*3 19.6 C 6.4 km/h
1584 09-09-2014 14:10:00 19.7 C 11.38 g/m*3 19.7 C 3.2 km/h
1585 09-09-2014 14:15:00 19.9 C 11.17 g/m*3 19.9 C 1.6 km/h
1586 09-09-2014 14:20:00 20.2 C 10.84 g/m*3 20.2 C 9.7 km/h
1587 09-09-2014 14:25:00 20.3 C 11.26 g/m*3 20.3 C 4.8 km/h
1588 09-09-2014 14:30:00 20.3 C 10.73 g/m*3 20.3 C 6.4 km/h
1589 09-09-2014 14:35:00 20.3 C 10.73 g/m*3 20.3 C 9.7 km/h
1590 09-09-2014 14:40:00 20.5 C 10.68 g/m*3 20.5 C 11.3 km/h
1591 09-09-2014 14:45:00 20.5 C 10.5 g/m*3 20.5 C 11.3 km/h
1592 09-09-2014 14:50:00 20.6 C 10.74 g/m*3 20.6 C 9.7 km/h
1593 09-09-2014 14:55:00 20.4 C 10.79 g/m*3 20.4 C 9.7 km/h
1594 09-09-2014 15:00:00 20.4 C 11.5 g/m*3 20.4 C 8.1 km/h
1595 09-09-2014 15:05:00 20.6 C 10.74 g/m*3 20.6 C 8.1 km/h
1596 09-09-2014 15:10:00 20.8 C 11.05 g/m*3 20.8 C 4.8 km/h
1597 09-09-2014 15:15:00 20.9 C 11.11 g/m*3 20.9 C 8.1 km/h
1598 09-09-2014 15:20:00 21 C 10.26 g/m*3 21 C 6.4 km/h
1599 09-09-2014 15:25:00 20.9 C 10.02 g/m*3 20.9 C 4.8 km/h
1600 09-09-2014 15:30:00 20.8 C 10.86 g/m*3 20.8 C 4.8 km/h
Sensor: Nr:Datum:Temp:Abs-Feuchte:Windchill:Wind:
Aussen-T/F 1601 09-09-2014 15:35:00 20.9 C 10.2 g/m*3 20.9 C 6.4 km/h
1602 09-09-2014 15:40:00 21.4 C 10.87 g/m*3 21.4 C 8.1 km/h
1603 09-09-2014 15:45:00 21.5 C 10.18 g/m*3 21.5 C 12.9 km/h
1604 09-09-2014 15:50:00 21.5 C 10.37 g/m*3 21.5 C 12.9 km/h
1605 09-09-2014 15:55:00 21.6 C 10.24 g/m*3 21.6 C 8.1 km/h
1606 09-09-2014 16:00:00 21.8 C 10.55 g/m*3 21.8 C 8.1 km/h
1607 09-09-2014 16:05:00 21.8 C 10.36 g/m*3 21.8 C 6.4 km/h
1608 09-09-2014 16:10:00 21.6 C 10.43 g/m*3 21.6 C 9.7 km/h
1609 09-09-2014 16:15:00 21.7 C 10.3 g/m*3 21.7 C 6.4 km/h
1610 09-09-2014 16:20:00 21.8 C 9.98 g/m*3 21.8 C 6.4 km/h
1611 09-09-2014 16:25:00 21.8 C 10.17 g/m*3 21.8 C 6.4 km/h
1612 09-09-2014 16:30:00 21.8 C 10.36 g/m*3 21.8 C 6.4 km/h
1613 09-09-2014 16:35:00 21.8 C 10.36 g/m*3 21.8 C 8.1 km/h
1614 09-09-2014 16:40:00 21.9 C 10.61 g/m*3 21.9 C 9.7 km/h
1615 09-09-2014 16:45:00 21.9 C 10.03 g/m*3 21.9 C 11.3 km/h
1616 09-09-2014 16:50:00 22.1 C 9.76 g/m*3 22.1 C 8.1 km/h
1617 09-09-2014 16:55:00 22.1 C 9.96 g/m*3 22.1 C 11.3 km/h
1618 09-09-2014 17:00:00 21.9 C 9.65 g/m*3 21.9 C 9.7 km/h
1619 09-09-2014 17:05:00 21.8 C 9.98 g/m*3 21.8 C 11.3 km/h
1620 09-09-2014 17:10:00 21.8 C 9.59 g/m*3 21.8 C 8.1 km/h
1621 09-09-2014 17:15:00 22 C 9.7 g/m*3 22 C 6.4 km/h
1622 09-09-2014 17:20:00 22 C 9.9 g/m*3 22 C 9.7 km/h
1623 09-09-2014 17:25:00 21.9 C 10.23 g/m*3 21.9 C 6.4 km/h
1624 09-09-2014 17:30:00 22 C 10.29 g/m*3 22 C 6.4 km/h
1625 09-09-2014 17:35:00 22 C 9.9 g/m*3 22 C 9.7 km/h
Sensor: Nr:Datum:Temp:Abs-Feuchte:Windchill:Wind:
Aussen-T/F 1626 09-09-2014 17:40:00 22.1 C 9.56 g/m*3 22.1 C 8.1 km/h
1627 09-09-2014 17:45:00 21.9 C 9.46 g/m*3 21.9 C 8.1 km/h
1628 09-09-2014 17:50:00 21.8 C 9.59 g/m*3 21.8 C 6.4 km/h
1629 09-09-2014 17:55:00 21.8 C 9.98 g/m*3 21.8 C 6.4 km/h
1630 09-09-2014 18:00:00 21.9 C 10.03 g/m*3 21.9 C 3.2 km/h
1631 09-09-2014 18:05:00 22.1 C 9.96 g/m*3 22.1 C 6.4 km/h
1632 09-09-2014 18:10:00 21.9 C 10.42 g/m*3 21.9 C 8.1 km/h
1633 09-09-2014 18:15:00 21.8 C 9.98 g/m*3 21.8 C 4.8 km/h
1634 09-09-2014 18:20:00 21.8 C 9.59 g/m*3 21.8 C 4.8 km/h
1635 09-09-2014 18:25:00 21.8 C 10.17 g/m*3 21.8 C 6.4 km/h
1636 09-09-2014 18:30:00 21.5 C 10.37 g/m*3 21.5 C 6.4 km/h
1637 09-09-2014 18:35:00 21.2 C 10.01 g/m*3 21.2 C 11.3 km/h
1638 09-09-2014 18:40:00 21.1 C 10.32 g/m*3 21.1 C 11.3 km/h
1639 09-09-2014 18:45:00 20.8 C 10.14 g/m*3 20.8 C 6.4 km/h
1640 09-09-2014 18:50:00 20.7 C 10.44 g/m*3 20.7 C 8.1 km/h
1641 09-09-2014 18:55:00 20.8 C 9.96 g/m*3 20.8 C 4.8 km/h
1642 09-09-2014 19:00:00 20.7 C 10.08 g/m*3 20.7 C 8.1 km/h
1643 09-09-2014 19:05:00 20.6 C 10.2 g/m*3 20.6 C 6.4 km/h
1644 09-09-2014 19:10:00 20.4 C 10.26 g/m*3 20.4 C 4.8 km/h
1645 09-09-2014 19:15:00 20.3 C 10.2 g/m*3 20.3 C 6.4 km/h
1646 09-09-2014 19:20:00 20.1 C 10.43 g/m*3 20.1 C 11.3 km/h
1647 09-09-2014 19:25:00 19.7 C 10.19 g/m*3 19.7 C 11.3 km/h
1648 09-09-2014 19:30:00 19.4 C 10.34 g/m*3 19.4 C 4.8 km/h
1649 09-09-2014 19:35:00 19.1 C 10.49 g/m*3 19.1 C 8.1 km/h
1650 09-09-2014 19:40:00 18.8 C 10.31 g/m*3 18.8 C 6.4 km/h
Sensor: Nr:Datum:Temp:Abs-Feuchte:Windchill:Wind:
Aussen-T/F 1651 09-09-2014 19:45:00 18.4 C 10.54 g/m*3 18.4 C 6.4 km/h
1652 09-09-2014 19:50:00 18.2 C 10.57 g/m*3 18.2 C 4.8 km/h
1653 09-09-2014 19:55:00 17.8 C 10.32 g/m*3 17.8 C 8.1 km/h
1654 09-09-2014 20:00:00 17.6 C 10.35 g/m*3 17.6 C 11.3 km/h
1655 09-09-2014 20:05:00 17.3 C 10.61 g/m*3 17.3 C 1.6 km/h
1656 09-09-2014 20:10:00 16.9 C 10.79 g/m*3 16.9 C 1.6 km/h
1657 09-09-2014 20:15:00 16.6 C 10.59 g/m*3 16.6 C 0 km/h
1658 09-09-2014 20:20:00 16.2 C 10.48 g/m*3 16.2 C 0 km/h
1659 09-09-2014 20:25:00 16.1 C 10.55 g/m*3 16.1 C 1.6 km/h
1660 09-09-2014 20:30:00 15.7 C 10.57 g/m*3 15.7 C 0 km/h
1661 09-09-2014 20:35:00 15.3 C 10.45 g/m*3 15.3 C 1.6 km/h
1662 09-09-2014 20:40:00 15.1 C 10.45 g/m*3 15.1 C 1.6 km/h
1663 09-09-2014 20:45:00 14.8 C 10.51 g/m*3 14.8 C 0 km/h
1664 09-09-2014 20:50:00 14.7 C 10.58 g/m*3 14.7 C 1.6 km/h
1665 09-09-2014 20:55:00 14.5 C 10.32 g/m*3 14.5 C 0 km/h
1666 09-09-2014 21:00:00 14.4 C 10.26 g/m*3 14.4 C 0 km/h
1667 09-09-2014 21:05:00 14.3 C 10.2 g/m*3 14.3 C 0 km/h
1668 09-09-2014 21:10:00 14.1 C 10.19 g/m*3 14.1 C 1.6 km/h
1669 09-09-2014 21:15:00 14 C 10.25 g/m*3 14 C 1.6 km/h
1670 09-09-2014 21:20:00 13.9 C 10.19 g/m*3 13.9 C 0 km/h
1671 09-09-2014 21:25:00 13.9 C 10.19 g/m*3 13.9 C 0 km/h
1672 09-09-2014 21:30:00 13.8 C 10.13 g/m*3 13.8 C 0 km/h
1673 09-09-2014 21:35:00 13.7 C 10.18 g/m*3 13.7 C 0 km/h
1674 09-09-2014 21:40:00 13.6 C 10.12 g/m*3 13.6 C 0 km/h
1675 09-09-2014 21:45:00 13.6 C 10.24 g/m*3 13.6 C 1.6 km/h
Sensor: Nr:Datum:Temp:Abs-Feuchte:Windchill:Wind:
Aussen-T/F 1676 09-09-2014 21:50:00 13.5 C 10.29 g/m*3 13.5 C 1.6 km/h
1677 09-09-2014 21:55:00 13.4 C 10.23 g/m*3 13.4 C 0 km/h
1678 09-09-2014 22:00:00 13.3 C 10.17 g/m*3 13.3 C 0 km/h
1679 09-09-2014 22:05:00 13.2 C 10.1 g/m*3 13.2 C 0 km/h
1680 09-09-2014 22:10:00 13.2 C 10.22 g/m*3 13.2 C 0 km/h
1681 09-09-2014 22:15:00 13.1 C 10.04 g/m*3 13.1 C 0 km/h
1682 09-09-2014 22:20:00 13 C 10.09 g/m*3 13 C 0 km/h
1683 09-09-2014 22:25:00 12.9 C 10.03 g/m*3 12.9 C 0 km/h
1684 09-09-2014 22:30:00 12.9 C 10.03 g/m*3 12.9 C 0 km/h
1685 09-09-2014 22:35:00 12.9 C 10.03 g/m*3 12.9 C 0 km/h
1686 09-09-2014 22:40:00 12.8 C 9.97 g/m*3 12.8 C 0 km/h
1687 09-09-2014 22:45:00 12.8 C 9.97 g/m*3 12.8 C 1.6 km/h
1688 09-09-2014 22:50:00 12.8 C 10.08 g/m*3 12.8 C 0 km/h
1689 09-09-2014 22:55:00 12.8 C 10.08 g/m*3 12.8 C 0 km/h
1690 09-09-2014 23:00:00 12.7 C 10.02 g/m*3 12.7 C 0 km/h
1691 09-09-2014 23:05:00 12.6 C 9.96 g/m*3 12.6 C 0 km/h
1692 09-09-2014 23:10:00 12.6 C 9.96 g/m*3 12.6 C 0 km/h
1693 09-09-2014 23:15:00 12.5 C 9.89 g/m*3 12.5 C 0 km/h
1694 09-09-2014 23:20:00 12.4 C 9.83 g/m*3 12.4 C 0 km/h
1695 09-09-2014 23:25:00 12.4 C 9.94 g/m*3 12.4 C 0 km/h
1696 09-09-2014 23:30:00 12.3 C 9.88 g/m*3 12.3 C 0 km/h
1697 09-09-2014 23:35:00 12.3 C 9.88 g/m*3 12.3 C 0 km/h
1698 09-09-2014 23:40:00 12.2 C 9.82 g/m*3 12.2 C 0 km/h
1699 09-09-2014 23:45:00 12.2 C 9.82 g/m*3 12.2 C 0 km/h
1700 09-09-2014 23:50:00 12.1 C 9.76 g/m*3 12.1 C 0 km/h
Sensor: Nr:Datum:Temp:Abs-Feuchte:Windchill:Wind:
Aussen-T/F 1701 09-09-2014 23:55:00 12.1 C 9.76 g/m*3 12.1 C 0 km/h
1702 10-09-2014 00:00:00 11.9 C 9.64 g/m*3 11.9 C 0 km/h
1703 10-09-2014 00:05:00 11.9 C 9.74 g/m*3 11.9 C 0 km/h
1704 10-09-2014 00:10:00 11.8 C 9.68 g/m*3 11.8 C 0 km/h
1705 10-09-2014 00:15:00 11.8 C 9.68 g/m*3 11.8 C 0 km/h
1706 10-09-2014 00:20:00 11.7 C 9.62 g/m*3 11.7 C 0 km/h
1707 10-09-2014 00:25:00 11.7 C 9.62 g/m*3 11.7 C 0 km/h
1708 10-09-2014 00:30:00 11.6 C 9.56 g/m*3 11.6 C 0 km/h
1709 10-09-2014 00:35:00 11.6 C 9.56 g/m*3 11.6 C 0 km/h
1710 10-09-2014 00:40:00 11.6 C 9.67 g/m*3 11.6 C 0 km/h
1711 10-09-2014 00:45:00 11.5 C 9.61 g/m*3 11.5 C 0 km/h
1712 10-09-2014 00:50:00 11.5 C 9.61 g/m*3 11.5 C 0 km/h
1713 10-09-2014 00:55:00 11.5 C 9.61 g/m*3 11.5 C 0 km/h
1714 10-09-2014 01:00:00 11.5 C 9.61 g/m*3 11.5 C 0 km/h
1715 10-09-2014 01:05:00 11.5 C 9.61 g/m*3 11.5 C 0 km/h
1716 10-09-2014 01:10:00 11.6 C 9.77 g/m*3 11.6 C 0 km/h
1717 10-09-2014 01:15:00 11.6 C 9.77 g/m*3 11.6 C 0 km/h
1718 10-09-2014 01:20:00 11.6 C 9.77 g/m*3 11.6 C 0 km/h
1719 10-09-2014 01:25:00 11.6 C 9.77 g/m*3 11.6 C 0 km/h
1720 10-09-2014 01:30:00 11.6 C 9.77 g/m*3 11.6 C 0 km/h
1721 10-09-2014 01:35:00 11.5 C 9.71 g/m*3 11.5 C 0 km/h
1722 10-09-2014 01:40:00 11.5 C 9.71 g/m*3 11.5 C 0 km/h
1723 10-09-2014 01:45:00 11.6 C 9.77 g/m*3 11.6 C 0 km/h
1724 10-09-2014 01:50:00 11.6 C 9.77 g/m*3 11.6 C 0 km/h
1725 10-09-2014 01:55:00 11.6 C 9.77 g/m*3 11.6 C 0 km/h
Sensor: Nr:Datum:Temp:Abs-Feuchte:Windchill:Wind:
Aussen-T/F 1726 10-09-2014 02:00:00 11.6 C 9.77 g/m*3 11.6 C 0 km/h
1727 10-09-2014 02:05:00 11.6 C 9.77 g/m*3 11.6 C 0 km/h
1728 10-09-2014 02:10:00 11.6 C 9.77 g/m*3 11.6 C 0 km/h
1729 10-09-2014 02:15:00 11.6 C 9.77 g/m*3 11.6 C 0 km/h
1730 10-09-2014 02:20:00 11.6 C 9.77 g/m*3 11.6 C 0 km/h
1731 10-09-2014 02:25:00 11.6 C 9.77 g/m*3 11.6 C 0 km/h
1732 10-09-2014 02:30:00 11.6 C 9.77 g/m*3 11.6 C 0 km/h
1733 10-09-2014 02:35:00 11.6 C 9.77 g/m*3 11.6 C 0 km/h
1734 10-09-2014 02:40:00 11.6 C 9.77 g/m*3 11.6 C 0 km/h
1735 10-09-2014 02:45:00 11.7 C 9.83 g/m*3 11.7 C 0 km/h
1736 10-09-2014 02:50:00 11.7 C 9.83 g/m*3 11.7 C 0 km/h
1737 10-09-2014 02:55:00 11.7 C 9.83 g/m*3 11.7 C 0 km/h
1738 10-09-2014 03:00:00 11.7 C 9.83 g/m*3 11.7 C 0 km/h
1739 10-09-2014 03:05:00 11.7 C 9.83 g/m*3 11.7 C 0 km/h
1740 10-09-2014 03:10:00 11.7 C 9.83 g/m*3 11.7 C 0 km/h
1741 10-09-2014 03:15:00 11.7 C 9.83 g/m*3 11.7 C 0 km/h
1742 10-09-2014 03:20:00 11.7 C 9.83 g/m*3 11.7 C 0 km/h
1743 10-09-2014 03:25:00 11.6 C 9.77 g/m*3 11.6 C 0 km/h
1744 10-09-2014 03:30:00 11.6 C 9.77 g/m*3 11.6 C 0 km/h
1745 10-09-2014 03:35:00 11.6 C 9.77 g/m*3 11.6 C 0 km/h
1746 10-09-2014 03:40:00 11.6 C 9.77 g/m*3 11.6 C 0 km/h
1747 10-09-2014 03:45:00 11.6 C 9.77 g/m*3 11.6 C 0 km/h
1748 10-09-2014 03:50:00 11.5 C 9.71 g/m*3 11.5 C 0 km/h
1749 10-09-2014 03:55:00 11.6 C 9.87 g/m*3 11.6 C 0 km/h
1750 10-09-2014 04:00:00 11.6 C 9.87 g/m*3 11.6 C 0 km/h
Sensor: Nr:Datum:Temp:Abs-Feuchte:Windchill:Wind:
Aussen-T/F 1751 10-09-2014 04:05:00 11.6 C 9.87 g/m*3 11.6 C 0 km/h
1752 10-09-2014 04:10:00 11.6 C 9.87 g/m*3 11.6 C 1.6 km/h
1753 10-09-2014 04:15:00 11.6 C 9.87 g/m*3 11.6 C 0 km/h
1754 10-09-2014 04:20:00 11.6 C 9.87 g/m*3 11.6 C 1.6 km/h
1755 10-09-2014 04:25:00 11.7 C 9.94 g/m*3 11.7 C 0 km/h
1756 10-09-2014 04:30:00 11.7 C 9.94 g/m*3 11.7 C 0 km/h
1757 10-09-2014 04:35:00 11.7 C 9.94 g/m*3 11.7 C 0 km/h
1758 10-09-2014 04:40:00 11.7 C 9.94 g/m*3 11.7 C 0 km/h
1759 10-09-2014 04:45:00 11.7 C 9.94 g/m*3 11.7 C 0 km/h
1760 10-09-2014 04:50:00 11.7 C 9.94 g/m*3 11.7 C 0 km/h
1761 10-09-2014 04:55:00 11.7 C 9.94 g/m*3 11.7 C 0 km/h
1762 10-09-2014 05:00:00 11.8 C 10 g/m*3 11.8 C 0 km/h
1763 10-09-2014 05:05:00 11.8 C 10 g/m*3 11.8 C 0 km/h
1764 10-09-2014 05:10:00 11.8 C 10 g/m*3 11.8 C 0 km/h
1765 10-09-2014 05:15:00 11.8 C 10 g/m*3 11.8 C 0 km/h
1766 10-09-2014 05:20:00 11.8 C 10 g/m*3 11.8 C 0 km/h
1767 10-09-2014 05:25:00 11.8 C 10 g/m*3 11.8 C 0 km/h
1768 10-09-2014 05:30:00 11.8 C 10 g/m*3 11.8 C 0 km/h
1769 10-09-2014 05:35:00 11.9 C 10.06 g/m*3 11.9 C 0 km/h
1770 10-09-2014 05:40:00 11.8 C 10 g/m*3 11.8 C 3.2 km/h
1771 10-09-2014 05:45:00 11.9 C 10.06 g/m*3 11.9 C 0 km/h
1772 10-09-2014 05:50:00 11.9 C 10.06 g/m*3 11.9 C 1.6 km/h
1773 10-09-2014 05:55:00 11.9 C 10.06 g/m*3 11.9 C 0 km/h
1774 10-09-2014 06:00:00 11.9 C 10.06 g/m*3 11.9 C 0 km/h
1775 10-09-2014 06:05:00 11.9 C 10.06 g/m*3 11.9 C 0 km/h
Sensor: Nr:Datum:Temp:Abs-Feuchte:Windchill:Wind:
Aussen-T/F 1776 10-09-2014 06:10:00 11.9 C 10.06 g/m*3 11.9 C 0 km/h
1777 10-09-2014 06:15:00 11.9 C 10.06 g/m*3 11.9 C 0 km/h
1778 10-09-2014 06:20:00 11.9 C 10.06 g/m*3 11.9 C 0 km/h
1779 10-09-2014 06:25:00 11.9 C 10.06 g/m*3 11.9 C 0 km/h
1780 10-09-2014 06:30:00 11.9 C 10.06 g/m*3 11.9 C 0 km/h
1781 10-09-2014 06:35:00 12 C 10.12 g/m*3 12 C 0 km/h
1782 10-09-2014 06:40:00 12 C 10.12 g/m*3 12 C 0 km/h
1783 10-09-2014 06:45:00 12 C 10.12 g/m*3 12 C 0 km/h
1784 10-09-2014 06:50:00 12.1 C 10.19 g/m*3 12.1 C 0 km/h
1785 10-09-2014 06:55:00 12.1 C 10.19 g/m*3 12.1 C 0 km/h
1786 10-09-2014 07:00:00 12.1 C 10.19 g/m*3 12.1 C 0 km/h
1787 10-09-2014 07:05:00 12.1 C 10.19 g/m*3 12.1 C 0 km/h
1788 10-09-2014 07:10:00 12.1 C 10.19 g/m*3 12.1 C 0 km/h
1789 10-09-2014 07:15:00 12.2 C 10.25 g/m*3 12.2 C 0 km/h
1790 10-09-2014 07:20:00 12.2 C 10.25 g/m*3 12.2 C 0 km/h
1791 10-09-2014 07:25:00 12.2 C 10.25 g/m*3 12.2 C 0 km/h
1792 10-09-2014 07:30:00 12.3 C 10.32 g/m*3 12.3 C 0 km/h
1793 10-09-2014 07:35:00 12.3 C 10.32 g/m*3 12.3 C 0 km/h
1794 10-09-2014 07:40:00 12.3 C 10.32 g/m*3 12.3 C 0 km/h
1795 10-09-2014 07:45:00 12.3 C 10.32 g/m*3 12.3 C 0 km/h
1796 10-09-2014 07:50:00 12.4 C 10.38 g/m*3 12.4 C 0 km/h
1797 10-09-2014 07:55:00 12.4 C 10.38 g/m*3 12.4 C 1.6 km/h
1798 10-09-2014 08:00:00 12.4 C 10.38 g/m*3 12.4 C 3.2 km/h
1799 10-09-2014 08:05:00 12.6 C 10.51 g/m*3 12.6 C 0 km/h
1800 10-09-2014 08:10:00 12.7 C 10.58 g/m*3 12.7 C 0 km/h
Sensor: Nr:Datum:Temp:Abs-Feuchte:Windchill:Wind:
Aussen-T/F 1801 10-09-2014 08:15:00 12.7 C 10.58 g/m*3 12.7 C 0 km/h
1802 10-09-2014 08:20:00 12.8 C 10.64 g/m*3 12.8 C 1.6 km/h
1803 10-09-2014 08:25:00 12.8 C 10.64 g/m*3 12.8 C 0 km/h
1804 10-09-2014 08:30:00 12.9 C 10.71 g/m*3 12.9 C 0 km/h
1805 10-09-2014 08:35:00 13.1 C 10.84 g/m*3 13.1 C 0 km/h
1806 10-09-2014 08:40:00 13.1 C 10.84 g/m*3 13.1 C 1.6 km/h
1807 10-09-2014 08:45:00 13.2 C 10.79 g/m*3 13.2 C 1.6 km/h
1808 10-09-2014 08:50:00 13.2 C 10.79 g/m*3 13.2 C 0 km/h
1809 10-09-2014 08:55:00 13.3 C 10.86 g/m*3 13.3 C 0 km/h
1810 10-09-2014 09:00:00 13.4 C 10.93 g/m*3 13.4 C 0 km/h
1811 10-09-2014 09:05:00 13.6 C 10.95 g/m*3 13.6 C 0 km/h
1812 10-09-2014 09:10:00 13.7 C 11.13 g/m*3 13.7 C 0 km/h
1813 10-09-2014 09:15:00 13.8 C 11.08 g/m*3 13.8 C 0 km/h
1814 10-09-2014 09:20:00 14 C 11.22 g/m*3 14 C 0 km/h
1815 10-09-2014 09:25:00 14.1 C 11.17 g/m*3 14.1 C 0 km/h
1816 10-09-2014 09:30:00 14.2 C 11.23 g/m*3 14.2 C 1.6 km/h
1817 10-09-2014 09:35:00 14.3 C 11.3 g/m*3 14.3 C 1.6 km/h
1818 10-09-2014 09:40:00 14.3 C 11.18 g/m*3 14.3 C 0 km/h
1819 10-09-2014 09:45:00 14.4 C 11.13 g/m*3 14.4 C 1.6 km/h
1820 10-09-2014 09:50:00 14.4 C 11.13 g/m*3 14.4 C 1.6 km/h
1821 10-09-2014 09:55:00 14.6 C 11.26 g/m*3 14.6 C 3.2 km/h
1822 10-09-2014 10:00:00 14.7 C 11.33 g/m*3 14.7 C 1.6 km/h
1823 10-09-2014 10:05:00 14.8 C 11.4 g/m*3 14.8 C 0 km/h
1824 10-09-2014 10:10:00 14.9 C 11.34 g/m*3 14.9 C 6.4 km/h
1825 10-09-2014 10:15:00 15 C 11.28 g/m*3 15 C 6.4 km/h
Sensor: Nr:Datum:Temp:Abs-Feuchte:Windchill:Wind:
Aussen-T/F 1826 10-09-2014 10:20:00 15.1 C 11.35 g/m*3 15.1 C 8.1 km/h
1827 10-09-2014 10:25:00 15.1 C 11.22 g/m*3 15.1 C 8.1 km/h
1828 10-09-2014 10:30:00 15.1 C 11.22 g/m*3 15.1 C 4.8 km/h
1829 10-09-2014 10:35:00 15.2 C 11.29 g/m*3 15.2 C 6.4 km/h
1830 10-09-2014 10:40:00 15.2 C 11.16 g/m*3 15.2 C 6.4 km/h
1831 10-09-2014 10:45:00 15.3 C 11.1 g/m*3 15.3 C 8.1 km/h
1832 10-09-2014 10:50:00 15.4 C 11.17 g/m*3 15.4 C 8.1 km/h
1833 10-09-2014 10:55:00 15.5 C 11.1 g/m*3 15.5 C 8.1 km/h
1834 10-09-2014 11:00:00 15.6 C 11.17 g/m*3 15.6 C 8.1 km/h
1835 10-09-2014 11:05:00 15.6 C 11.17 g/m*3 15.6 C 6.4 km/h
1836 10-09-2014 11:10:00 15.7 C 11.11 g/m*3 15.7 C 4.8 km/h
1837 10-09-2014 11:15:00 15.7 C 11.11 g/m*3 15.7 C 6.4 km/h
1838 10-09-2014 11:20:00 15.7 C 11.24 g/m*3 15.7 C 8.1 km/h
1839 10-09-2014 11:25:00 15.8 C 11.17 g/m*3 15.8 C 8.1 km/h
1840 10-09-2014 11:30:00 15.9 C 10.97 g/m*3 15.9 C 6.4 km/h
1841 10-09-2014 11:35:00 15.9 C 10.97 g/m*3 15.9 C 4.8 km/h
1842 10-09-2014 11:40:00 16 C 10.9 g/m*3 16 C 9.7 km/h
1843 10-09-2014 11:45:00 16.1 C 10.83 g/m*3 16.1 C 4.8 km/h
1844 10-09-2014 11:50:00 16.2 C 11.03 g/m*3 16.2 C 6.4 km/h
1845 10-09-2014 11:55:00 16.2 C 11.03 g/m*3 16.2 C 4.8 km/h
1846 10-09-2014 12:00:00 16.3 C 10.82 g/m*3 16.3 C 4.8 km/h
1847 10-09-2014 12:05:00 16.3 C 10.68 g/m*3 16.3 C 4.8 km/h
1848 10-09-2014 12:10:00 16.3 C 10.54 g/m*3 16.3 C 9.7 km/h
1849 10-09-2014 12:15:00 16.4 C 10.75 g/m*3 16.4 C 6.4 km/h
1850 10-09-2014 12:20:00 16.5 C 10.81 g/m*3 16.5 C 8.1 km/h
Sensor: Nr:Datum:Temp:Abs-Feuchte:Windchill:Wind:
Aussen-T/F 1851 10-09-2014 12:25:00 16.6 C 10.59 g/m*3 16.6 C 11.3 km/h
1852 10-09-2014 12:30:00 16.6 C 10.59 g/m*3 16.6 C 14.5 km/h
1853 10-09-2014 12:35:00 16.7 C 10.66 g/m*3 16.7 C 14.5 km/h
1854 10-09-2014 12:40:00 16.8 C 10.72 g/m*3 16.8 C 8.1 km/h
1855 10-09-2014 12:45:00 16.8 C 10.72 g/m*3 16.8 C 12.9 km/h
1856 10-09-2014 12:50:00 16.7 C 10.66 g/m*3 16.7 C 8.1 km/h
1857 10-09-2014 12:55:00 16.7 C 10.8 g/m*3 16.7 C 8.1 km/h
1858 10-09-2014 13:00:00 16.7 C 10.52 g/m*3 16.7 C 8.1 km/h
1859 10-09-2014 13:05:00 16.8 C 10.72 g/m*3 16.8 C 8.1 km/h
1860 10-09-2014 13:10:00 16.8 C 10.44 g/m*3 16.8 C 12.9 km/h
1861 10-09-2014 13:15:00 16.8 C 10.87 g/m*3 16.8 C 8.1 km/h
1862 10-09-2014 13:20:00 16.7 C 10.52 g/m*3 16.7 C 9.7 km/h
1863 10-09-2014 13:25:00 16.7 C 10.66 g/m*3 16.7 C 9.7 km/h
1864 10-09-2014 13:30:00 16.7 C 10.66 g/m*3 16.7 C 3.2 km/h
1865 10-09-2014 13:35:00 16.8 C 10.44 g/m*3 16.8 C 6.4 km/h
1866 10-09-2014 13:40:00 16.9 C 10.36 g/m*3 16.9 C 4.8 km/h
1867 10-09-2014 13:45:00 17 C 10.13 g/m*3 17 C 9.7 km/h
1868 10-09-2014 13:50:00 17.1 C 10.34 g/m*3 17.1 C 8.1 km/h
1869 10-09-2014 13:55:00 17.3 C 10.46 g/m*3 17.3 C 9.7 km/h
1870 10-09-2014 14:00:00 17.5 C 10.59 g/m*3 17.5 C 8.1 km/h
1871 10-09-2014 14:05:00 17.6 C 10.5 g/m*3 17.6 C 8.1 km/h
1872 10-09-2014 14:10:00 17.6 C 10.35 g/m*3 17.6 C 12.9 km/h
1873 10-09-2014 14:15:00 17.6 C 10.35 g/m*3 17.6 C 8.1 km/h
1874 10-09-2014 14:20:00 17.5 C 10.14 g/m*3 17.5 C 4.8 km/h
1875 10-09-2014 14:25:00 17.4 C 10.08 g/m*3 17.4 C 8.1 km/h
Sensor: Nr:Datum:Temp:Abs-Feuchte:Windchill:Wind:
Aussen-T/F 1876 10-09-2014 14:30:00 17.4 C 9.93 g/m*3 17.4 C 8.1 km/h
1877 10-09-2014 14:35:00 17.4 C 10.37 g/m*3 17.4 C 11.3 km/h
1878 10-09-2014 14:40:00 17.4 C 9.93 g/m*3 17.4 C 6.4 km/h
1879 10-09-2014 14:45:00 17.3 C 9.87 g/m*3 17.3 C 9.7 km/h
1880 10-09-2014 14:50:00 17.3 C 10.02 g/m*3 17.3 C 8.1 km/h
1881 10-09-2014 14:55:00 17.3 C 9.87 g/m*3 17.3 C 9.7 km/h
1882 10-09-2014 15:00:00 17.3 C 10.02 g/m*3 17.3 C 8.1 km/h
1883 10-09-2014 15:05:00 17.4 C 10.23 g/m*3 17.4 C 8.1 km/h
1884 10-09-2014 15:10:00 17.4 C 9.93 g/m*3 17.4 C 8.1 km/h
1885 10-09-2014 15:15:00 17.5 C 10.29 g/m*3 17.5 C 8.1 km/h
1886 10-09-2014 15:20:00 17.5 C 10.14 g/m*3 17.5 C 11.3 km/h
1887 10-09-2014 15:25:00 17.4 C 10.23 g/m*3 17.4 C 8.1 km/h
1888 10-09-2014 15:30:00 17.2 C 10.1 g/m*3 17.2 C 8.1 km/h
1889 10-09-2014 15:35:00 17 C 9.98 g/m*3 17 C 11.3 km/h
1890 10-09-2014 15:40:00 16.8 C 9.87 g/m*3 16.8 C 9.7 km/h
1891 10-09-2014 15:45:00 16.7 C 9.81 g/m*3 16.7 C 12.9 km/h
1892 10-09-2014 15:50:00 16.7 C 9.81 g/m*3 16.7 C 6.4 km/h
1893 10-09-2014 15:55:00 16.8 C 9.72 g/m*3 16.8 C 6.4 km/h
1894 10-09-2014 16:00:00 16.8 C 9.58 g/m*3 16.8 C 8.1 km/h
1895 10-09-2014 16:05:00 16.9 C 9.64 g/m*3 16.9 C 8.1 km/h
1896 10-09-2014 16:10:00 17 C 9.98 g/m*3 17 C 11.3 km/h
1897 10-09-2014 16:15:00 17.1 C 9.75 g/m*3 17.1 C 11.3 km/h
1898 10-09-2014 16:20:00 17.2 C 9.67 g/m*3 17.2 C 11.3 km/h
1899 10-09-2014 16:25:00 17.3 C 9.58 g/m*3 17.3 C 6.4 km/h
1900 10-09-2014 16:30:00 17.4 C 9.63 g/m*3 17.4 C 9.7 km/h
Sensor: Nr:Datum:Temp:Abs-Feuchte:Windchill:Wind:
Aussen-T/F 1901 10-09-2014 16:35:00 17.5 C 9.69 g/m*3 17.5 C 8.1 km/h
1902 10-09-2014 16:40:00 17.6 C 9.75 g/m*3 17.6 C 9.7 km/h
1903 10-09-2014 16:45:00 17.6 C 9.75 g/m*3 17.6 C 4.8 km/h
1904 10-09-2014 16:50:00 17.7 C 9.66 g/m*3 17.7 C 8.1 km/h
1905 10-09-2014 16:55:00 17.7 C 9.66 g/m*3 17.7 C 6.4 km/h
1906 10-09-2014 17:00:00 17.7 C 9.51 g/m*3 17.7 C 9.7 km/h
1907 10-09-2014 17:05:00 17.5 C 9.39 g/m*3 17.5 C 14.5 km/h
1908 10-09-2014 17:10:00 17.3 C 9.28 g/m*3 17.3 C 11.3 km/h
1909 10-09-2014 17:15:00 17.2 C 8.93 g/m*3 17.2 C 11.3 km/h
1910 10-09-2014 17:20:00 17.1 C 9.03 g/m*3 17.1 C 9.7 km/h
1911 10-09-2014 17:25:00 17 C 8.97 g/m*3 17 C 6.4 km/h
1912 10-09-2014 17:30:00 17.1 C 9.03 g/m*3 17.1 C 4.8 km/h
1913 10-09-2014 17:35:00 17 C 8.97 g/m*3 17 C 4.8 km/h
1914 10-09-2014 17:40:00 17 C 9.12 g/m*3 17 C 9.7 km/h
1915 10-09-2014 17:45:00 17 C 8.97 g/m*3 17 C 8.1 km/h
1916 10-09-2014 17:50:00 17 C 8.97 g/m*3 17 C 8.1 km/h
1917 10-09-2014 17:55:00 17 C 9.12 g/m*3 17 C 9.7 km/h
1918 10-09-2014 18:00:00 17.1 C 8.88 g/m*3 17.1 C 6.4 km/h
1919 10-09-2014 18:05:00 17.1 C 9.17 g/m*3 17.1 C 6.4 km/h
1920 10-09-2014 18:10:00 17 C 8.83 g/m*3 17 C 9.7 km/h
1921 10-09-2014 18:15:00 16.9 C 8.63 g/m*3 16.9 C 8.1 km/h
1922 10-09-2014 18:20:00 17 C 8.83 g/m*3 17 C 4.8 km/h
1923 10-09-2014 18:25:00 17.1 C 8.88 g/m*3 17.1 C 8.1 km/h
1924 10-09-2014 18:30:00 17.1 C 9.03 g/m*3 17.1 C 12.9 km/h
1925 10-09-2014 18:35:00 17 C 8.83 g/m*3 17 C 11.3 km/h
Sensor: Nr:Datum:Temp:Abs-Feuchte:Windchill:Wind:
Aussen-T/F 1926 10-09-2014 18:40:00 17 C 8.97 g/m*3 17 C 4.8 km/h
1927 10-09-2014 18:45:00 16.9 C 9.21 g/m*3 16.9 C 4.8 km/h
1928 10-09-2014 18:50:00 16.9 C 9.78 g/m*3 16.9 C 3.2 km/h
1929 10-09-2014 18:55:00 16.7 C 9.95 g/m*3 16.7 C 3.2 km/h
1930 10-09-2014 19:00:00 16.4 C 9.21 g/m*3 16.4 C 6.4 km/h
1931 10-09-2014 19:05:00 16.4 C 9.21 g/m*3 16.4 C 8.1 km/h
1932 10-09-2014 19:10:00 16.3 C 9.16 g/m*3 16.3 C 6.4 km/h
1933 10-09-2014 19:15:00 16.3 C 9.16 g/m*3 16.3 C 6.4 km/h
1934 10-09-2014 19:20:00 16.3 C 9.43 g/m*3 16.3 C 3.2 km/h
1935 10-09-2014 19:25:00 16.2 C 9.38 g/m*3 16.2 C 1.6 km/h
1936 10-09-2014 19:30:00 16 C 9.95 g/m*3 16 C 0 km/h
1937 10-09-2014 19:35:00 15.8 C 10.1 g/m*3 15.8 C 0 km/h
1938 10-09-2014 19:40:00 15.4 C 10.12 g/m*3 15.4 C 0 km/h
1939 10-09-2014 19:45:00 15.2 C 10.12 g/m*3 15.2 C 1.6 km/h
1940 10-09-2014 19:50:00 15 C 10.13 g/m*3 15 C 0 km/h
1941 10-09-2014 19:55:00 14.8 C 10.13 g/m*3 14.8 C 0 km/h
1942 10-09-2014 20:00:00 14.7 C 10.2 g/m*3 14.7 C 0 km/h
1943 10-09-2014 20:05:00 14.6 C 10.14 g/m*3 14.6 C 1.6 km/h
1944 10-09-2014 20:10:00 14.5 C 10.2 g/m*3 14.5 C 1.6 km/h
1945 10-09-2014 20:15:00 14.5 C 10.2 g/m*3 14.5 C 1.6 km/h
1946 10-09-2014 20:20:00 14.5 C 10.07 g/m*3 14.5 C 0 km/h
1947 10-09-2014 20:25:00 14.5 C 10.2 g/m*3 14.5 C 0 km/h
1948 10-09-2014 20:30:00 14.5 C 10.2 g/m*3 14.5 C 0 km/h
1949 10-09-2014 20:35:00 14.4 C 10.26 g/m*3 14.4 C 1.6 km/h
1950 10-09-2014 20:40:00 14.4 C 10.14 g/m*3 14.4 C 0 km/h
Sensor: Nr:Datum:Temp:Abs-Feuchte:Windchill:Wind:
Aussen-T/F 1951 10-09-2014 20:45:00 14.4 C 10.26 g/m*3 14.4 C 0 km/h
1952 10-09-2014 20:50:00 14.5 C 10.2 g/m*3 14.5 C 0 km/h
1953 10-09-2014 20:55:00 14.5 C 10.32 g/m*3 14.5 C 0 km/h
1954 10-09-2014 21:00:00 14.5 C 10.32 g/m*3 14.5 C 0 km/h
1955 10-09-2014 21:05:00 14.4 C 10.26 g/m*3 14.4 C 0 km/h
1956 10-09-2014 21:10:00 14.4 C 10.26 g/m*3 14.4 C 1.6 km/h
1957 10-09-2014 21:15:00 14.4 C 10.38 g/m*3 14.4 C 1.6 km/h
1958 10-09-2014 21:20:00 14.4 C 10.38 g/m*3 14.4 C 0 km/h
1959 10-09-2014 21:25:00 14.4 C 10.51 g/m*3 14.4 C 0 km/h
1960 10-09-2014 21:30:00 14.4 C 10.38 g/m*3 14.4 C 1.6 km/h
1961 10-09-2014 21:35:00 14.4 C 10.51 g/m*3 14.4 C 0 km/h
1962 10-09-2014 21:40:00 14.3 C 10.44 g/m*3 14.3 C 0 km/h
1963 10-09-2014 21:45:00 14.3 C 10.44 g/m*3 14.3 C 0 km/h
1964 10-09-2014 21:50:00 14.3 C 10.44 g/m*3 14.3 C 0 km/h
1965 10-09-2014 21:55:00 14.3 C 10.44 g/m*3 14.3 C 0 km/h
1966 10-09-2014 22:00:00 14.3 C 10.44 g/m*3 14.3 C 0 km/h
1967 10-09-2014 22:05:00 14.3 C 10.44 g/m*3 14.3 C 1.6 km/h
1968 10-09-2014 22:10:00 14.3 C 10.44 g/m*3 14.3 C 0 km/h
1969 10-09-2014 22:15:00 14.2 C 10.38 g/m*3 14.2 C 1.6 km/h
1970 10-09-2014 22:20:00 14.2 C 10.5 g/m*3 14.2 C 0 km/h
1971 10-09-2014 22:25:00 14.2 C 10.5 g/m*3 14.2 C 0 km/h
1972 10-09-2014 22:30:00 13.9 C 10.31 g/m*3 13.9 C 0 km/h
1973 10-09-2014 22:35:00 13.8 C 10.37 g/m*3 13.8 C 0 km/h
1974 10-09-2014 22:40:00 13.6 C 10.24 g/m*3 13.6 C 0 km/h
1975 10-09-2014 22:45:00 13.3 C 10.05 g/m*3 13.3 C 0 km/h
Sensor: Nr:Datum:Temp:Abs-Feuchte:Windchill:Wind:
Aussen-T/F 1976 10-09-2014 22:50:00 13.1 C 10.04 g/m*3 13.1 C 0 km/h
1977 10-09-2014 22:55:00 12.9 C 10.03 g/m*3 12.9 C 0 km/h
1978 10-09-2014 23:00:00 12.8 C 9.97 g/m*3 12.8 C 0 km/h
1979 10-09-2014 23:05:00 12.8 C 9.97 g/m*3 12.8 C 0 km/h
1980 10-09-2014 23:10:00 12.7 C 10.02 g/m*3 12.7 C 1.6 km/h
1981 10-09-2014 23:15:00 12.7 C 10.02 g/m*3 12.7 C 0 km/h
1982 10-09-2014 23:20:00 12.6 C 10.07 g/m*3 12.6 C 0 km/h
1983 10-09-2014 23:25:00 12.6 C 10.07 g/m*3 12.6 C 0 km/h
1984 10-09-2014 23:30:00 12.5 C 10 g/m*3 12.5 C 1.6 km/h
1985 10-09-2014 23:35:00 12.4 C 9.94 g/m*3 12.4 C 0 km/h
1986 10-09-2014 23:40:00 12.4 C 9.94 g/m*3 12.4 C 0 km/h
1987 10-09-2014 23:45:00 12.4 C 9.94 g/m*3 12.4 C 0 km/h
1988 10-09-2014 23:50:00 12.3 C 9.88 g/m*3 12.3 C 0 km/h
1989 10-09-2014 23:55:00 12.3 C 9.88 g/m*3 12.3 C 0 km/h

Legende:
   Min
   Max


Maximal/Minimal-Werte vom 04.09.2014 - 10.09.2014

Sensor Min Max Avg
Temp
(Aussen-T/F)
11.5 °C
09-09-2014  07:05:00
24.7 °C
06-09-2014  16:20:00
16.87 °C
Abs-Feuchte
(Aussen-T/F)
8.63 g/m*3
10-09-2014  18:15:00
17.38 g/m*3
07-09-2014  14:00:00
12.49 g/m*3
Windchill
(Aussen-T/F)
11.5 C
09-09-2014  07:05:00
24.7 C
06-09-2014  16:20:00
16.86 C

Die Daten stammen von einer Davis Vantage Pro 2 Wetter-Station und werden unter Linux mit der Software wview2wettercgi und aufbereitet. Alle Angaben erfolgen ohne Gewähr für ihre Vollständigkeit oder Richtigkeit.
Kontakt: Rainer Krienke krienke@uni-koblenz.de . Meine Webseiten an der Uni Koblenz oder privat.
Version: $Revision: 0.78 $